<?xml version='1.0' encoding='UTF-8'?><gpx version="1.1" creator="JPX - https://github.com/jenetics/jpx" xmlns="http://www.topografix.com/GPX/1/1"><trk><trkseg><trkpt lat="45.101206449136775" lon="7.76457178559412"><ele>210.0</ele><time>2026-04-19T10:34:44.999Z</time></trkpt><trkpt lat="45.10125852947863" lon="7.764644140681042"><ele>210.0</ele><time>2026-04-19T10:34:48.999Z</time></trkpt><trkpt lat="45.10131099346837" lon="7.764699272704068"><ele>210.0</ele><time>2026-04-19T10:34:51.999Z</time></trkpt><trkpt lat="45.101364153569286" lon="7.764760696816511"><ele>210.0</ele><time>2026-04-19T10:34:53.999Z</time></trkpt><trkpt lat="45.10143009888567" lon="7.764821536697975"><ele>210.0</ele><time>2026-04-19T10:34:55.999Z</time></trkpt><trkpt lat="45.101499784176795" lon="7.764880047845366"><ele>210.0</ele><time>2026-04-19T10:34:57.999Z</time></trkpt><trkpt lat="45.101576741685285" lon="7.764940871364402"><ele>209.83333333333334</ele><time>2026-04-19T10:34:59.999Z</time></trkpt><trkpt lat="45.10165103202379" lon="7.765006199957445"><ele>209.66666666666669</ele><time>2026-04-19T10:35:01.999Z</time></trkpt><trkpt lat="45.10172692698018" lon="7.765065839329483"><ele>209.5</ele><time>2026-04-19T10:35:03.999Z</time></trkpt><trkpt lat="45.10178766789257" lon="7.7651277186216685"><ele>209.33333333333334</ele><time>2026-04-19T10:35:05.999Z</time></trkpt><trkpt lat="45.10185390887005" lon="7.765185090446748"><ele>209.16666666666669</ele><time>2026-04-19T10:35:07.999Z</time></trkpt><trkpt lat="45.101941021251" lon="7.765235375075326"><ele>209.0</ele><time>2026-04-19T10:35:09.999Z</time></trkpt><trkpt lat="45.101922558619826" lon="7.765344780255293"><ele>209.33333333333334</ele><time>2026-04-19T10:35:12.999Z</time></trkpt><trkpt lat="45.10187869369266" lon="7.765424706920257"><ele>209.66666666666669</ele><time>2026-04-19T10:35:14.999Z</time></trkpt><trkpt lat="45.10184080201941" lon="7.7655124993983655"><ele>210.0</ele><time>2026-04-19T10:35:16.998Z</time></trkpt><trkpt lat="45.10178148173299" lon="7.76555801183703"><ele>210.33333333333331</ele><time>2026-04-19T10:35:18.998Z</time></trkpt><trkpt lat="45.10174355609409" lon="7.765658039299831"><ele>210.66666666666666</ele><time>2026-04-19T10:35:21.998Z</time></trkpt><trkpt lat="45.1016960552328" lon="7.765735420788672"><ele>211.0</ele><time>2026-04-19T10:35:24.998Z</time></trkpt><trkpt lat="45.101629469976665" lon="7.765820822751668"><ele>211.0</ele><time>2026-04-19T10:35:27.998Z</time></trkpt><trkpt lat="45.101582634387675" lon="7.765885437445884"><ele>211.0</ele><time>2026-04-19T10:35:29.998Z</time></trkpt><trkpt lat="45.10164526473905" lon="7.765799033161245"><ele>211.0</ele><time>2026-04-19T10:35:38.998Z</time></trkpt><trkpt lat="45.101700828172945" lon="7.765722376589346"><ele>211.0</ele><time>2026-04-19T10:35:41.998Z</time></trkpt><trkpt lat="45.101748734259324" lon="7.765656285470787"><ele>211.0</ele><time>2026-04-19T10:35:43.998Z</time></trkpt><trkpt lat="45.1018604080435" lon="7.765806894304667"><ele>211.0</ele><time>2026-04-19T10:35:49.998Z</time></trkpt><trkpt lat="45.101915612365666" lon="7.765871646306363"><ele>211.0</ele><time>2026-04-19T10:35:52.998Z</time></trkpt><trkpt lat="45.10198656680936" lon="7.765912522633187"><ele>211.0</ele><time>2026-04-19T10:35:56.999Z</time></trkpt><trkpt lat="45.102037455787716" lon="7.76597705937734"><ele>211.0</ele><time>2026-04-19T10:36:00.999Z</time></trkpt><trkpt lat="45.102104779345176" lon="7.766032663676925"><ele>211.0</ele><time>2026-04-19T10:36:03.999Z</time></trkpt><trkpt lat="45.10216614016422" lon="7.766083343188734"><ele>211.0</ele><time>2026-04-19T10:36:17Z</time></trkpt><trkpt lat="45.10219888976034" lon="7.766167753441884"><ele>211.0</ele><time>2026-04-19T10:36:21.999Z</time></trkpt><trkpt lat="45.1022179738202" lon="7.7662548061991945"><ele>212.49999999999997</ele><time>2026-04-19T10:36:23.999Z</time></trkpt><trkpt lat="45.10224256051109" lon="7.766364652832704"><ele>214.0</ele><time>2026-04-19T10:36:26.999Z</time></trkpt><trkpt lat="45.102290612036576" lon="7.766460558177247"><ele>215.5</ele><time>2026-04-19T10:36:29.999Z</time></trkpt><trkpt lat="45.102309507778536" lon="7.766578699888084"><ele>217.0</ele><time>2026-04-19T10:36:32.999Z</time></trkpt><trkpt lat="45.10233390460826" lon="7.766686465751866"><ele>218.49999999999997</ele><time>2026-04-19T10:36:35.999Z</time></trkpt><trkpt lat="45.10232098496555" lon="7.766795395434069"><ele>220.0</ele><time>2026-04-19T10:36:38.999Z</time></trkpt><trkpt lat="45.10229542631224" lon="7.766909566815264"><ele>220.99999999999997</ele><time>2026-04-19T10:36:41.999Z</time></trkpt><trkpt lat="45.1022457121724" lon="7.767015642252113"><ele>222.0</ele><time>2026-04-19T10:36:44.999Z</time></trkpt><trkpt lat="45.1022345786367" lon="7.767144059355365"><ele>223.0</ele><time>2026-04-19T10:36:47.999Z</time></trkpt><trkpt lat="45.10218637905112" lon="7.767253638557589"><ele>224.0</ele><time>2026-04-19T10:36:50.999Z</time></trkpt><trkpt lat="45.102129331148106" lon="7.767358775544355"><ele>224.99999999999997</ele><time>2026-04-19T10:36:53.999Z</time></trkpt><trkpt lat="45.102087982476654" lon="7.767445512273301"><ele>226.0</ele><time>2026-04-19T10:36:55.999Z</time></trkpt><trkpt lat="45.102047327728265" lon="7.767519114702165"><ele>225.99999999999997</ele><time>2026-04-19T10:36:57.999Z</time></trkpt><trkpt lat="45.10199753310027" lon="7.767579050150051"><ele>226.0</ele><time>2026-04-19T10:36:59.999Z</time></trkpt><trkpt lat="45.10194733887581" lon="7.767682982962905"><ele>226.0</ele><time>2026-04-19T10:37:02.999Z</time></trkpt><trkpt lat="45.101903531812404" lon="7.7677731360311375"><ele>226.0</ele><time>2026-04-19T10:37:05.999Z</time></trkpt><trkpt lat="45.101846690035345" lon="7.767842049863934"><ele>225.99999999999997</ele><time>2026-04-19T10:37:08.999Z</time></trkpt><trkpt lat="45.10177058955485" lon="7.767893781883495"><ele>226.0</ele><time>2026-04-19T10:37:11.999Z</time></trkpt><trkpt lat="45.1016924513354" lon="7.767920602036484"><ele>226.16666666666666</ele><time>2026-04-19T10:37:14.999Z</time></trkpt><trkpt lat="45.101629634407075" lon="7.7680053173364385"><ele>226.33333333333331</ele><time>2026-04-19T10:37:17.999Z</time></trkpt><trkpt lat="45.10158645627346" lon="7.7681047942363115"><ele>226.5</ele><time>2026-04-19T10:37:20.999Z</time></trkpt><trkpt lat="45.10156747700538" lon="7.768228996149797"><ele>226.66666666666669</ele><time>2026-04-19T10:37:23.999Z</time></trkpt><trkpt lat="45.10153691304858" lon="7.768311073196419"><ele>226.83333333333334</ele><time>2026-04-19T10:37:25.999Z</time></trkpt><trkpt lat="45.101478326893265" lon="7.768401386891448"><ele>227.0</ele><time>2026-04-19T10:37:28.998Z</time></trkpt><trkpt lat="45.1014113867577" lon="7.768467554447734"><ele>228.33333333333334</ele><time>2026-04-19T10:37:31.998Z</time></trkpt><trkpt lat="45.101350328219844" lon="7.768551750063797"><ele>229.66666666666669</ele><time>2026-04-19T10:37:34.998Z</time></trkpt><trkpt lat="45.10129338814333" lon="7.768627442877107"><ele>231.0</ele><time>2026-04-19T10:37:37.998Z</time></trkpt><trkpt lat="45.10123201672894" lon="7.768691013251538"><ele>232.33333333333331</ele><time>2026-04-19T10:37:40.998Z</time></trkpt><trkpt lat="45.10118802880427" lon="7.768765199874927"><ele>233.66666666666666</ele><time>2026-04-19T10:37:43.998Z</time></trkpt><trkpt lat="45.101131747411884" lon="7.7688476711340675"><ele>235.0</ele><time>2026-04-19T10:37:46.998Z</time></trkpt><trkpt lat="45.10108689264856" lon="7.768932801233195"><ele>234.99999999999997</ele><time>2026-04-19T10:37:49.998Z</time></trkpt><trkpt lat="45.101030657244614" lon="7.7689980924423345"><ele>235.0</ele><time>2026-04-19T10:37:52.998Z</time></trkpt><trkpt lat="45.10097314455529" lon="7.769067047335595"><ele>235.0</ele><time>2026-04-19T10:37:55.998Z</time></trkpt><trkpt lat="45.10091120126763" lon="7.76913160419544"><ele>235.0</ele><time>2026-04-19T10:37:58.998Z</time></trkpt><trkpt lat="45.100843188634876" lon="7.769171401074952"><ele>234.99999999999997</ele><time>2026-04-19T10:38:02Z</time></trkpt><trkpt lat="45.10077201152668" lon="7.769207642629455"><ele>235.0</ele><time>2026-04-19T10:38:05Z</time></trkpt><trkpt lat="45.10069488369531" lon="7.7692175611223355"><ele>236.14285714285714</ele><time>2026-04-19T10:38:08Z</time></trkpt><trkpt lat="45.10062147802339" lon="7.769212879503514"><ele>237.28571428571428</ele><time>2026-04-19T10:38:11Z</time></trkpt><trkpt lat="45.10054524605734" lon="7.769215048377788"><ele>238.42857142857142</ele><time>2026-04-19T10:38:14Z</time></trkpt><trkpt lat="45.10047175167819" lon="7.7692428928108015"><ele>239.57142857142856</ele><time>2026-04-19T10:38:17Z</time></trkpt><trkpt lat="45.100398610278305" lon="7.7692867772685315"><ele>240.71428571428572</ele><time>2026-04-19T10:38:20Z</time></trkpt><trkpt lat="45.10033642833444" lon="7.7693294907330035"><ele>241.85714285714283</ele><time>2026-04-19T10:38:23Z</time></trkpt><trkpt lat="45.10026557704744" lon="7.769361563455741"><ele>243.0</ele><time>2026-04-19T10:38:26Z</time></trkpt><trkpt lat="45.100194420601575" lon="7.769406948027066"><ele>243.0</ele><time>2026-04-19T10:38:29Z</time></trkpt><trkpt lat="45.10012843334638" lon="7.769442777262399"><ele>243.0</ele><time>2026-04-19T10:38:32Z</time></trkpt><trkpt lat="45.10006418207471" lon="7.769480058407502"><ele>243.0</ele><time>2026-04-19T10:38:34.999Z</time></trkpt><trkpt lat="45.09999646516723" lon="7.769519274411228"><ele>243.0</ele><time>2026-04-19T10:38:37.999Z</time></trkpt><trkpt lat="45.099936705723565" lon="7.7695516949357435"><ele>243.0</ele><time>2026-04-19T10:38:40.999Z</time></trkpt><trkpt lat="45.099884370241796" lon="7.769602722459659"><ele>243.0</ele><time>2026-04-19T10:38:43.999Z</time></trkpt><trkpt lat="45.09983600226512" lon="7.769672887489836"><ele>243.0</ele><time>2026-04-19T10:38:46.999Z</time></trkpt><trkpt lat="45.09978489717386" lon="7.7697407667302985"><ele>244.16666666666666</ele><time>2026-04-19T10:38:50.999Z</time></trkpt><trkpt lat="45.09974904978849" lon="7.769822030126649"><ele>245.33333333333331</ele><time>2026-04-19T10:38:53.999Z</time></trkpt><trkpt lat="45.09971819099697" lon="7.769902519960277"><ele>246.5</ele><time>2026-04-19T10:38:56.999Z</time></trkpt><trkpt lat="45.09967942850865" lon="7.770001794084052"><ele>247.66666666666666</ele><time>2026-04-19T10:39:00.999Z</time></trkpt><trkpt lat="45.09961190466497" lon="7.770121363793812"><ele>248.83333333333331</ele><time>2026-04-19T10:39:04.999Z</time></trkpt><trkpt lat="45.099531273782056" lon="7.7701422488138885"><ele>250.0</ele><time>2026-04-19T10:39:08.999Z</time></trkpt><trkpt lat="45.09945530653668" lon="7.770174837716607"><ele>250.33333333333331</ele><time>2026-04-19T10:39:12.999Z</time></trkpt><trkpt lat="45.0993926731836" lon="7.7701957729539375"><ele>250.66666666666666</ele><time>2026-04-19T10:39:15.999Z</time></trkpt><trkpt lat="45.09931090241691" lon="7.77021228902934"><ele>251.0</ele><time>2026-04-19T10:39:20.999Z</time></trkpt><trkpt lat="45.0992354776461" lon="7.770228143814571"><ele>251.33333333333331</ele><time>2026-04-19T10:39:24.999Z</time></trkpt><trkpt lat="45.099157059560646" lon="7.770261345854373"><ele>251.66666666666666</ele><time>2026-04-19T10:39:28.999Z</time></trkpt><trkpt lat="45.09908061983326" lon="7.770287522897253"><ele>252.0</ele><time>2026-04-19T10:39:32.999Z</time></trkpt><trkpt lat="45.09900026218898" lon="7.770324374324338"><ele>252.42857142857144</ele><time>2026-04-19T10:39:36.999Z</time></trkpt><trkpt lat="45.09894321073554" lon="7.770370449491475"><ele>252.85714285714286</ele><time>2026-04-19T10:39:39.999Z</time></trkpt><trkpt lat="45.098882514408736" lon="7.770453081874272"><ele>253.28571428571428</ele><time>2026-04-19T10:39:43.998Z</time></trkpt><trkpt lat="45.0988314167382" lon="7.7705176344529185"><ele>253.71428571428572</ele><time>2026-04-19T10:39:46.998Z</time></trkpt><trkpt lat="45.09878343826781" lon="7.770598197507508"><ele>254.14285714285717</ele><time>2026-04-19T10:39:50.998Z</time></trkpt><trkpt lat="45.09874734663985" lon="7.770696502458037"><ele>254.57142857142858</ele><time>2026-04-19T10:39:54.998Z</time></trkpt><trkpt lat="45.09871168615141" lon="7.770795035159214"><ele>255.0</ele><time>2026-04-19T10:39:59.998Z</time></trkpt><trkpt lat="45.0986749978247" lon="7.77087931711121"><ele>255.0</ele><time>2026-04-19T10:40:04.998Z</time></trkpt><trkpt lat="45.09865382222749" lon="7.770964002507923"><ele>255.00000000000003</ele><time>2026-04-19T10:40:09.999Z</time></trkpt><trkpt lat="45.098627680033466" lon="7.771048339184273"><ele>255.0</ele><time>2026-04-19T10:40:14.999Z</time></trkpt><trkpt lat="45.09860751893257" lon="7.771140291308569"><ele>255.0</ele><time>2026-04-19T10:40:21Z</time></trkpt><trkpt lat="45.09862271457612" lon="7.771238014946791"><ele>255.00000000000003</ele><time>2026-04-19T10:40:30Z</time></trkpt><trkpt lat="45.09860943383388" lon="7.771331859119528"><ele>255.0</ele><time>2026-04-19T10:40:39.999Z</time></trkpt><trkpt lat="45.098593937605344" lon="7.771428203790779"><ele>255.0</ele><time>2026-04-19T10:40:48.999Z</time></trkpt><trkpt lat="45.09857088078283" lon="7.771523703666824"><ele>256.2857142857143</ele><time>2026-04-19T10:40:56.999Z</time></trkpt><trkpt lat="45.09856718347244" lon="7.771620202710393"><ele>257.5714285714286</ele><time>2026-04-19T10:41:03.999Z</time></trkpt><trkpt lat="45.09858689304663" lon="7.771711331298363"><ele>258.8571428571429</ele><time>2026-04-19T10:41:10.999Z</time></trkpt><trkpt lat="45.098611960678376" lon="7.771801297871584"><ele>260.14285714285717</ele><time>2026-04-19T10:41:17.999Z</time></trkpt><trkpt lat="45.0986294803109" lon="7.771890398903192"><ele>261.42857142857144</ele><time>2026-04-19T10:41:24.999Z</time></trkpt><trkpt lat="45.09861672457682" lon="7.771986173904904"><ele>262.7142857142857</ele><time>2026-04-19T10:41:38.999Z</time></trkpt><trkpt lat="45.09861220174591" lon="7.77208634980536"><ele>264.0</ele><time>2026-04-19T10:41:58.998Z</time></trkpt><trkpt lat="45.098608150489326" lon="7.7721789264909384"><ele>266.0</ele><time>2026-04-19T10:42:03.998Z</time></trkpt><trkpt lat="45.09858116418973" lon="7.772273968872162"><ele>268.0</ele><time>2026-04-19T10:42:09.998Z</time></trkpt><trkpt lat="45.09856355006426" lon="7.772373524912366"><ele>270.0</ele><time>2026-04-19T10:42:16Z</time></trkpt><trkpt lat="45.098544823390164" lon="7.772470750276026"><ele>272.0</ele><time>2026-04-19T10:42:21Z</time></trkpt><trkpt lat="45.09854065853305" lon="7.772569933129637"><ele>274.0</ele><time>2026-04-19T10:42:27Z</time></trkpt><trkpt lat="45.09852177686655" lon="7.772664349966111"><ele>276.0</ele><time>2026-04-19T10:42:32Z</time></trkpt><trkpt lat="45.0985150029284" lon="7.772768223849898"><ele>278.0</ele><time>2026-04-19T10:42:38Z</time></trkpt><trkpt lat="45.098500675161986" lon="7.7728690601481985"><ele>279.1428571428571</ele><time>2026-04-19T10:42:43Z</time></trkpt><trkpt lat="45.09848350894563" lon="7.772964710638649"><ele>280.2857142857143</ele><time>2026-04-19T10:42:49Z</time></trkpt><trkpt lat="45.098472394215285" lon="7.773056245953403"><ele>281.42857142857144</ele><time>2026-04-19T10:42:53.999Z</time></trkpt><trkpt lat="45.09846648180021" lon="7.773154940952275"><ele>282.57142857142856</ele><time>2026-04-19T10:42:59.999Z</time></trkpt><trkpt lat="45.098445208572194" lon="7.773255142732048"><ele>283.7142857142857</ele><time>2026-04-19T10:43:06.999Z</time></trkpt><trkpt lat="45.098448998343166" lon="7.773351664575348"><ele>284.85714285714283</ele><time>2026-04-19T10:43:11.999Z</time></trkpt><trkpt lat="45.098446830010936" lon="7.773455186476502"><ele>286.0</ele><time>2026-04-19T10:43:15.999Z</time></trkpt><trkpt lat="45.09844453640075" lon="7.773566525290602"><ele>287.2857142857143</ele><time>2026-04-19T10:43:20.999Z</time></trkpt><trkpt lat="45.09846592301253" lon="7.7736578163293695"><ele>288.57142857142856</ele><time>2026-04-19T10:43:25.999Z</time></trkpt><trkpt lat="45.098473220716386" lon="7.773763347390065"><ele>289.8571428571429</ele><time>2026-04-19T10:43:30.999Z</time></trkpt><trkpt lat="45.09847605282154" lon="7.773858156089029"><ele>291.1428571428571</ele><time>2026-04-19T10:43:35.999Z</time></trkpt><trkpt lat="45.098461298091166" lon="7.7739573653517455"><ele>292.42857142857144</ele><time>2026-04-19T10:43:40.999Z</time></trkpt><trkpt lat="45.09847180531662" lon="7.774050606111933"><ele>293.7142857142857</ele><time>2026-04-19T10:43:45.999Z</time></trkpt><trkpt lat="45.09846491828371" lon="7.774151745322602"><ele>295.0</ele><time>2026-04-19T10:43:52.999Z</time></trkpt><trkpt lat="45.09843396139607" lon="7.774251686619126"><ele>295.00000000000006</ele><time>2026-04-19T10:43:58.999Z</time></trkpt><trkpt lat="45.09840263698397" lon="7.774335681879451"><ele>295.0</ele><time>2026-04-19T10:44:03.999Z</time></trkpt><trkpt lat="45.098375564619204" lon="7.7744377114461365"><ele>295.0</ele><time>2026-04-19T10:44:10.998Z</time></trkpt><trkpt lat="45.098353332112104" lon="7.77452510807933"><ele>295.0</ele><time>2026-04-19T10:44:22Z</time></trkpt><trkpt lat="45.09831926385122" lon="7.77460495057363"><ele>295.0</ele><time>2026-04-19T10:44:40Z</time></trkpt><trkpt lat="45.098290398731194" lon="7.774701942073396"><ele>295.00000000000006</ele><time>2026-04-19T10:45:02Z</time></trkpt><trkpt lat="45.098274970059" lon="7.77478896987806"><ele>295.0</ele><time>2026-04-19T10:45:11.999Z</time></trkpt><trkpt lat="45.098243379891244" lon="7.774869918652123"><ele>296.14285714285717</ele><time>2026-04-19T10:45:33.999Z</time></trkpt><trkpt lat="45.09824514813626" lon="7.774965376682688"><ele>297.2857142857143</ele><time>2026-04-19T10:45:42.999Z</time></trkpt><trkpt lat="45.09828064503109" lon="7.775049132510964"><ele>298.42857142857144</ele><time>2026-04-19T10:45:51.999Z</time></trkpt><trkpt lat="45.098340841147326" lon="7.77510227993624"><ele>299.57142857142856</ele><time>2026-04-19T10:45:58.999Z</time></trkpt><trkpt lat="45.0983810822259" lon="7.775187334626695"><ele>300.7142857142857</ele><time>2026-04-19T10:46:04.999Z</time></trkpt><trkpt lat="45.0984042037113" lon="7.775279880360446"><ele>301.8571428571429</ele><time>2026-04-19T10:46:11.999Z</time></trkpt><trkpt lat="45.098385296986166" lon="7.775366464623924"><ele>303.0</ele><time>2026-04-19T10:46:19.999Z</time></trkpt><trkpt lat="45.09830974534176" lon="7.775388825240285"><ele>307.8333333333333</ele><time>2026-04-19T10:46:28Z</time></trkpt><trkpt lat="45.0982472047978" lon="7.775358130523205"><ele>312.6666666666667</ele><time>2026-04-19T10:46:33Z</time></trkpt><trkpt lat="45.09817979092194" lon="7.7753571820259015"><ele>317.5</ele><time>2026-04-19T10:46:38Z</time></trkpt><trkpt lat="45.098044857086904" lon="7.775346994105177"><ele>322.33333333333337</ele><time>2026-04-19T10:47:03Z</time></trkpt><trkpt lat="45.09797743824902" lon="7.775373458220783"><ele>327.1666666666667</ele><time>2026-04-19T10:47:16Z</time></trkpt><trkpt lat="45.09792062960827" lon="7.775432835814765"><ele>332.0</ele><time>2026-04-19T10:47:22Z</time></trkpt><trkpt lat="45.09784974607413" lon="7.7754924490313355"><ele>332.0</ele><time>2026-04-19T10:47:28Z</time></trkpt><trkpt lat="45.097765295321494" lon="7.775500261880919"><ele>332.0</ele><time>2026-04-19T10:47:33.999Z</time></trkpt><trkpt lat="45.09769726154283" lon="7.775463197771292"><ele>332.0</ele><time>2026-04-19T10:47:38.999Z</time></trkpt><trkpt lat="45.097688115239954" lon="7.775366215064386"><ele>332.0</ele><time>2026-04-19T10:47:44.999Z</time></trkpt><trkpt lat="45.09767770930221" lon="7.775277795190285"><ele>332.0</ele><time>2026-04-19T10:47:52.999Z</time></trkpt><trkpt lat="45.0976513212901" lon="7.77518637422197"><ele>332.0</ele><time>2026-04-19T10:48:00.999Z</time></trkpt><trkpt lat="45.09767002380025" lon="7.775095958046664"><ele>332.0</ele><time>2026-04-19T10:48:08.999Z</time></trkpt><trkpt lat="45.09769789507132" lon="7.774991398470468"><ele>331.2857142857143</ele><time>2026-04-19T10:48:14.999Z</time></trkpt><trkpt lat="45.09769108527414" lon="7.774890711404553"><ele>330.5714285714286</ele><time>2026-04-19T10:48:19.999Z</time></trkpt><trkpt lat="45.09771227974836" lon="7.77480569322131"><ele>329.8571428571429</ele><time>2026-04-19T10:48:24.999Z</time></trkpt><trkpt lat="45.09772532239228" lon="7.774710962402202"><ele>329.1428571428571</ele><time>2026-04-19T10:48:40Z</time></trkpt><trkpt lat="45.0977235482457" lon="7.77461658358171"><ele>328.42857142857144</ele><time>2026-04-19T10:48:56Z</time></trkpt><trkpt lat="45.09765172441094" lon="7.7745901395469135"><ele>327.7142857142857</ele><time>2026-04-19T10:49:08Z</time></trkpt><trkpt lat="45.09758458507808" lon="7.774562042972054"><ele>327.0</ele><time>2026-04-19T10:49:14Z</time></trkpt><trkpt lat="45.097525696825016" lon="7.774527406769959"><ele>327.0</ele><time>2026-04-19T10:49:19Z</time></trkpt><trkpt lat="45.09758165914175" lon="7.774576225243217"><ele>327.0</ele><time>2026-04-19T10:49:36.999Z</time></trkpt><trkpt lat="45.09763674767711" lon="7.774649707552788"><ele>327.0</ele><time>2026-04-19T10:49:40.999Z</time></trkpt><trkpt lat="45.0976241553263" lon="7.77476277901069"><ele>327.0</ele><time>2026-04-19T10:49:45.999Z</time></trkpt><trkpt lat="45.09756628276563" lon="7.774862300084831"><ele>327.0</ele><time>2026-04-19T10:49:50.999Z</time></trkpt><trkpt lat="45.0975267404446" lon="7.77493782801815"><ele>327.0</ele><time>2026-04-19T10:49:53.999Z</time></trkpt><trkpt lat="45.09751104073503" lon="7.775027861153052"><ele>327.0</ele><time>2026-04-19T10:49:56.999Z</time></trkpt><trkpt lat="45.097484955329804" lon="7.7751218463285126"><ele>327.8333333333333</ele><time>2026-04-19T10:49:59.999Z</time></trkpt><trkpt lat="45.097454352002536" lon="7.7752258932582965"><ele>328.6666666666667</ele><time>2026-04-19T10:50:03.999Z</time></trkpt><trkpt lat="45.0974184576106" lon="7.775346015811938"><ele>329.5</ele><time>2026-04-19T10:50:07.999Z</time></trkpt><trkpt lat="45.097356269124404" lon="7.7753725146646"><ele>330.33333333333337</ele><time>2026-04-19T10:50:09.999Z</time></trkpt><trkpt lat="45.097371823680966" lon="7.775473057432567"><ele>331.1666666666667</ele><time>2026-04-19T10:50:12.999Z</time></trkpt><trkpt lat="45.09734511951118" lon="7.775568779881877"><ele>332.0</ele><time>2026-04-19T10:50:16.999Z</time></trkpt><trkpt lat="45.097283991916264" lon="7.7755221055224855"><ele>332.7142857142857</ele><time>2026-04-19T10:50:30.999Z</time></trkpt><trkpt lat="45.09729405850596" lon="7.775429510324383"><ele>333.42857142857144</ele><time>2026-04-19T10:50:41Z</time></trkpt><trkpt lat="45.09727320178196" lon="7.7753376692576595"><ele>334.14285714285717</ele><time>2026-04-19T10:50:48Z</time></trkpt><trkpt lat="45.097286523642765" lon="7.775228496026466"><ele>334.8571428571429</ele><time>2026-04-19T10:50:55Z</time></trkpt><trkpt lat="45.09725384503457" lon="7.775142460396106"><ele>335.57142857142856</ele><time>2026-04-19T10:51:16Z</time></trkpt><trkpt lat="45.09721318367005" lon="7.775229452588705"><ele>336.28571428571433</ele><time>2026-04-19T10:51:29Z</time></trkpt><trkpt lat="45.09716825579086" lon="7.77529327752958"><ele>337.0</ele><time>2026-04-19T10:51:34Z</time></trkpt><trkpt lat="45.097112137639066" lon="7.775358150928005"><ele>337.00000000000006</ele><time>2026-04-19T10:51:38.999Z</time></trkpt><trkpt lat="45.097052721622504" lon="7.77541446413436"><ele>337.0</ele><time>2026-04-19T10:51:44.999Z</time></trkpt><trkpt lat="45.09706513014756" lon="7.775524487114671"><ele>337.0</ele><time>2026-04-19T10:51:48.999Z</time></trkpt><trkpt lat="45.09703223610619" lon="7.775615954179187"><ele>337.0</ele><time>2026-04-19T10:51:53.999Z</time></trkpt><trkpt lat="45.09701943463184" lon="7.775716734356693"><ele>337.0</ele><time>2026-04-19T10:51:59.999Z</time></trkpt><trkpt lat="45.09700840492438" lon="7.775825980828044"><ele>337.00000000000006</ele><time>2026-04-19T10:52:05.999Z</time></trkpt><trkpt lat="45.097000477942665" lon="7.7759315034875085"><ele>337.0</ele><time>2026-04-19T10:52:11.999Z</time></trkpt><trkpt lat="45.09698559572571" lon="7.776025172459683"><ele>339.14285714285717</ele><time>2026-04-19T10:52:17.999Z</time></trkpt><trkpt lat="45.096968501381" lon="7.776113305508476"><ele>341.2857142857143</ele><time>2026-04-19T10:52:22.999Z</time></trkpt><trkpt lat="45.0969406006722" lon="7.776207272411207"><ele>343.42857142857144</ele><time>2026-04-19T10:52:28.999Z</time></trkpt><trkpt lat="45.09693695338526" lon="7.776317465175879"><ele>345.57142857142856</ele><time>2026-04-19T10:52:34.999Z</time></trkpt><trkpt lat="45.096953457876324" lon="7.776403835322764"><ele>347.7142857142857</ele><time>2026-04-19T10:52:40.998Z</time></trkpt><trkpt lat="45.09697661823388" lon="7.776497233223513"><ele>349.8571428571429</ele><time>2026-04-19T10:52:47Z</time></trkpt><trkpt lat="45.097018659792504" lon="7.7765668689216145"><ele>352.0</ele><time>2026-04-19T10:52:52Z</time></trkpt><trkpt lat="45.09707599134945" lon="7.776617721756129"><ele>352.0</ele><time>2026-04-19T10:52:56Z</time></trkpt><trkpt lat="45.09715422496855" lon="7.776664094279387"><ele>352.0</ele><time>2026-04-19T10:53:00Z</time></trkpt><trkpt lat="45.09721277896169" lon="7.7767266262158845"><ele>352.0</ele><time>2026-04-19T10:53:03Z</time></trkpt><trkpt lat="45.09726788762999" lon="7.7767798623154745"><ele>352.0</ele><time>2026-04-19T10:53:06Z</time></trkpt><trkpt lat="45.09732766690562" lon="7.776841696108893"><ele>352.0</ele><time>2026-04-19T10:53:09Z</time></trkpt><trkpt lat="45.097400450800386" lon="7.776892731785386"><ele>352.0</ele><time>2026-04-19T10:53:13Z</time></trkpt><trkpt lat="45.097474976807526" lon="7.776942205750226"><ele>352.8571428571429</ele><time>2026-04-19T10:53:16Z</time></trkpt><trkpt lat="45.09752838810287" lon="7.777008769277689"><ele>353.7142857142857</ele><time>2026-04-19T10:53:20Z</time></trkpt><trkpt lat="45.09758982564524" lon="7.777063662514914"><ele>354.57142857142856</ele><time>2026-04-19T10:53:23Z</time></trkpt><trkpt lat="45.09765016017205" lon="7.777125488545227"><ele>355.42857142857144</ele><time>2026-04-19T10:53:26Z</time></trkpt><trkpt lat="45.09770282159113" lon="7.77719121100019"><ele>356.2857142857143</ele><time>2026-04-19T10:53:29Z</time></trkpt><trkpt lat="45.097744967842495" lon="7.777265868131924"><ele>357.14285714285717</ele><time>2026-04-19T10:53:32Z</time></trkpt><trkpt lat="45.09778420921471" lon="7.777345129133507"><ele>358.0</ele><time>2026-04-19T10:53:34.999Z</time></trkpt><trkpt lat="45.09781993567237" lon="7.7774477216090885"><ele>358.00000000000006</ele><time>2026-04-19T10:53:37.999Z</time></trkpt><trkpt lat="45.09782169202885" lon="7.777562653559828"><ele>358.0</ele><time>2026-04-19T10:53:40.999Z</time></trkpt><trkpt lat="45.09785262984647" lon="7.777672348831058"><ele>358.0</ele><time>2026-04-19T10:53:43.999Z</time></trkpt><trkpt lat="45.097788734444144" lon="7.7777289044609565"><ele>358.0</ele><time>2026-04-19T10:53:46.999Z</time></trkpt><trkpt lat="45.0977275009949" lon="7.777704776423571"><ele>358.0</ele><time>2026-04-19T10:53:49.999Z</time></trkpt><trkpt lat="45.09765907957747" lon="7.777693945604954"><ele>358.00000000000006</ele><time>2026-04-19T10:53:52.999Z</time></trkpt><trkpt lat="45.097589950913154" lon="7.777689371257565"><ele>358.0</ele><time>2026-04-19T10:53:56.999Z</time></trkpt><trkpt lat="45.097510777547164" lon="7.777673380507886"><ele>358.00000000000006</ele><time>2026-04-19T10:54:00.999Z</time></trkpt><trkpt lat="45.097447293838684" lon="7.7776649954664405"><ele>358.0</ele><time>2026-04-19T10:54:03.999Z</time></trkpt><trkpt lat="45.09737395933598" lon="7.777643579381498"><ele>358.0</ele><time>2026-04-19T10:54:07.999Z</time></trkpt><trkpt lat="45.09729564104706" lon="7.777633723865167"><ele>358.0</ele><time>2026-04-19T10:54:11.999Z</time></trkpt><trkpt lat="45.097227576676396" lon="7.777595959178413"><ele>358.0</ele><time>2026-04-19T10:54:15.999Z</time></trkpt><trkpt lat="45.09715077318875" lon="7.777580364467385"><ele>358.00000000000006</ele><time>2026-04-19T10:54:19.999Z</time></trkpt><trkpt lat="45.097085975143045" lon="7.777513050651549"><ele>358.0</ele><time>2026-04-19T10:54:22.999Z</time></trkpt><trkpt lat="45.09702206500389" lon="7.777533738430689"><ele>359.00000000000006</ele><time>2026-04-19T10:54:25.999Z</time></trkpt><trkpt lat="45.09697191526068" lon="7.777473898245821"><ele>360.0</ele><time>2026-04-19T10:54:28.999Z</time></trkpt><trkpt lat="45.09689740529426" lon="7.777484192448044"><ele>361.0</ele><time>2026-04-19T10:54:31.999Z</time></trkpt><trkpt lat="45.096831561269894" lon="7.777484820176153"><ele>362.0</ele><time>2026-04-19T10:54:34.999Z</time></trkpt><trkpt lat="45.09675793442484" lon="7.777455182168179"><ele>363.0</ele><time>2026-04-19T10:54:38.998Z</time></trkpt><trkpt lat="45.09669248073516" lon="7.777454973198555"><ele>364.00000000000006</ele><time>2026-04-19T10:54:41.998Z</time></trkpt><trkpt lat="45.09662248350229" lon="7.777423993024695"><ele>365.0</ele><time>2026-04-19T10:54:45.998Z</time></trkpt><trkpt lat="45.09654145245437" lon="7.7774097494010785"><ele>366.14285714285717</ele><time>2026-04-19T10:54:50Z</time></trkpt><trkpt lat="45.09647243313377" lon="7.777412921429208"><ele>367.2857142857143</ele><time>2026-04-19T10:54:54Z</time></trkpt><trkpt lat="45.09641023032187" lon="7.777441823251628"><ele>368.42857142857144</ele><time>2026-04-19T10:54:58Z</time></trkpt><trkpt lat="45.09635829994032" lon="7.777493095011517"><ele>369.57142857142856</ele><time>2026-04-19T10:55:03Z</time></trkpt><trkpt lat="45.09628928293455" lon="7.77752939546664"><ele>370.7142857142857</ele><time>2026-04-19T10:55:07Z</time></trkpt><trkpt lat="45.09620973709223" lon="7.77756331704574"><ele>371.8571428571429</ele><time>2026-04-19T10:55:11Z</time></trkpt><trkpt lat="45.09614779520841" lon="7.7776153564732144"><ele>373.0</ele><time>2026-04-19T10:55:15Z</time></trkpt><trkpt lat="45.09608060671111" lon="7.777626492013024"><ele>373.0</ele><time>2026-04-19T10:55:19Z</time></trkpt><trkpt lat="45.096005956853105" lon="7.777646515497975"><ele>373.0</ele><time>2026-04-19T10:55:22.999Z</time></trkpt><trkpt lat="45.09594401704729" lon="7.777666534320043"><ele>373.0</ele><time>2026-04-19T10:55:26.999Z</time></trkpt><trkpt lat="45.095874274662" lon="7.777669619724513"><ele>373.0</ele><time>2026-04-19T10:55:30.999Z</time></trkpt><trkpt lat="45.09579992131078" lon="7.777688774627568"><ele>373.0</ele><time>2026-04-19T10:55:35.999Z</time></trkpt><trkpt lat="45.09574325318463" lon="7.777730449688402"><ele>373.0</ele><time>2026-04-19T10:55:40.999Z</time></trkpt><trkpt lat="45.095683538303156" lon="7.77776288128419"><ele>373.0</ele><time>2026-04-19T10:55:44.999Z</time></trkpt><trkpt lat="45.09562280883766" lon="7.777815039152954"><ele>376.8571428571429</ele><time>2026-04-19T10:55:50.999Z</time></trkpt><trkpt lat="45.095560869714454" lon="7.777869971682122"><ele>380.7142857142857</ele><time>2026-04-19T10:55:56.999Z</time></trkpt><trkpt lat="45.09549798835517" lon="7.777928726350556"><ele>384.57142857142856</ele><time>2026-04-19T10:56:00.999Z</time></trkpt><trkpt lat="45.095436013281365" lon="7.777986280181357"><ele>388.42857142857144</ele><time>2026-04-19T10:56:05.999Z</time></trkpt><trkpt lat="45.09538243374882" lon="7.7780411822446744"><ele>392.2857142857143</ele><time>2026-04-19T10:56:08.999Z</time></trkpt><trkpt lat="45.09534934784333" lon="7.778130869210151"><ele>396.14285714285717</ele><time>2026-04-19T10:56:12.999Z</time></trkpt><trkpt lat="45.09533122467478" lon="7.77824962019847"><ele>400.0</ele><time>2026-04-19T10:56:16.999Z</time></trkpt><trkpt lat="45.095302204230364" lon="7.778345274829979"><ele>400.00000000000006</ele><time>2026-04-19T10:56:19.999Z</time></trkpt><trkpt lat="45.09528522177003" lon="7.7784371653075475"><ele>400.0</ele><time>2026-04-19T10:56:23.999Z</time></trkpt><trkpt lat="45.09524277714645" lon="7.778528863896032"><ele>400.0</ele><time>2026-04-19T10:56:26.999Z</time></trkpt><trkpt lat="45.09518626903062" lon="7.7786109099983785"><ele>400.0</ele><time>2026-04-19T10:56:29.998Z</time></trkpt><trkpt lat="45.095141057749956" lon="7.778686920536948"><ele>400.0</ele><time>2026-04-19T10:56:31.998Z</time></trkpt><trkpt lat="45.09511105955861" lon="7.778774807115112"><ele>400.00000000000006</ele><time>2026-04-19T10:56:33.998Z</time></trkpt><trkpt lat="45.0951297823087" lon="7.778881894219738"><ele>400.0</ele><time>2026-04-19T10:56:37.998Z</time></trkpt><trkpt lat="45.095158412878874" lon="7.778977967987224"><ele>400.5714285714286</ele><time>2026-04-19T10:56:41.998Z</time></trkpt><trkpt lat="45.09519376312874" lon="7.7790646263082905"><ele>401.14285714285717</ele><time>2026-04-19T10:56:45.998Z</time></trkpt><trkpt lat="45.09523805833139" lon="7.779151610938819"><ele>401.7142857142857</ele><time>2026-04-19T10:56:50.998Z</time></trkpt><trkpt lat="45.09526706969694" lon="7.779231817829984"><ele>402.28571428571433</ele><time>2026-04-19T10:56:54.998Z</time></trkpt><trkpt lat="45.09531011833473" lon="7.779320672432114"><ele>402.85714285714283</ele><time>2026-04-19T10:56:59.999Z</time></trkpt><trkpt lat="45.0953456761107" lon="7.779407936241855"><ele>403.42857142857144</ele><time>2026-04-19T10:57:04.999Z</time></trkpt><trkpt lat="45.09537384115018" lon="7.7795017244464395"><ele>404.0</ele><time>2026-04-19T10:57:11.999Z</time></trkpt><trkpt lat="45.09537686187983" lon="7.779608788816474"><ele>405.2857142857143</ele><time>2026-04-19T10:57:17.999Z</time></trkpt><trkpt lat="45.09539342784829" lon="7.779696404428122"><ele>406.57142857142856</ele><time>2026-04-19T10:57:23.999Z</time></trkpt><trkpt lat="45.095383295164524" lon="7.779789477929912"><ele>407.8571428571429</ele><time>2026-04-19T10:57:30.999Z</time></trkpt><trkpt lat="45.09538342340123" lon="7.7798924466956745"><ele>409.1428571428571</ele><time>2026-04-19T10:57:37.999Z</time></trkpt><trkpt lat="45.09540108004532" lon="7.77997975427237"><ele>410.42857142857144</ele><time>2026-04-19T10:57:43.999Z</time></trkpt><trkpt lat="45.095440257386606" lon="7.780064093491839"><ele>411.7142857142857</ele><time>2026-04-19T10:57:49.999Z</time></trkpt><trkpt lat="45.09543117079576" lon="7.780159232340256"><ele>413.0</ele><time>2026-04-19T10:57:56.999Z</time></trkpt><trkpt lat="45.09542068049608" lon="7.780254257823401"><ele>412.99999999999994</ele><time>2026-04-19T10:58:04.999Z</time></trkpt><trkpt lat="45.09537845926698" lon="7.7803255449760265"><ele>413.0</ele><time>2026-04-19T10:58:11.999Z</time></trkpt><trkpt lat="45.095337244872105" lon="7.78039869688446"><ele>413.0</ele><time>2026-04-19T10:58:17.999Z</time></trkpt><trkpt lat="45.09529106301515" lon="7.780460601107209"><ele>413.0</ele><time>2026-04-19T10:58:23.999Z</time></trkpt><trkpt lat="45.095355922011834" lon="7.780379338712761"><ele>412.99999999999994</ele><time>2026-04-19T10:58:39.998Z</time></trkpt><trkpt lat="45.0954049423027" lon="7.780270425638673"><ele>413.0</ele><time>2026-04-19T10:58:41.998Z</time></trkpt><trkpt lat="45.095416468593704" lon="7.780158620714249"><ele>413.42857142857144</ele><time>2026-04-19T10:58:43.998Z</time></trkpt><trkpt lat="45.09541156102035" lon="7.780061334384499"><ele>413.8571428571429</ele><time>2026-04-19T10:58:45.998Z</time></trkpt><trkpt lat="45.09539652907211" lon="7.779966468166328"><ele>414.2857142857143</ele><time>2026-04-19T10:58:47.998Z</time></trkpt><trkpt lat="45.095377864764224" lon="7.779881072860821"><ele>414.7142857142857</ele><time>2026-04-19T10:58:49.998Z</time></trkpt><trkpt lat="45.09536447496246" lon="7.779758675249874"><ele>415.14285714285717</ele><time>2026-04-19T10:58:52.998Z</time></trkpt><trkpt lat="45.095428668410996" lon="7.779749328473667"><ele>415.57142857142856</ele><time>2026-04-19T10:58:58.998Z</time></trkpt><trkpt lat="45.095451834862146" lon="7.779843896619064"><ele>416.0</ele><time>2026-04-19T10:59:01.999Z</time></trkpt><trkpt lat="45.095478560607944" lon="7.779928251072037"><ele>415.99999999999994</ele><time>2026-04-19T10:59:04.999Z</time></trkpt><trkpt lat="45.09549306935475" lon="7.780020115613072"><ele>416.0</ele><time>2026-04-19T10:59:07.999Z</time></trkpt><trkpt lat="45.0955204853329" lon="7.780131520278241"><ele>416.0</ele><time>2026-04-19T10:59:11.999Z</time></trkpt><trkpt lat="45.095559513889114" lon="7.7802319608959385"><ele>416.0</ele><time>2026-04-19T10:59:15.999Z</time></trkpt><trkpt lat="45.09558575088603" lon="7.780330928259728"><ele>415.99999999999994</ele><time>2026-04-19T10:59:18.999Z</time></trkpt><trkpt lat="45.0956029131849" lon="7.780427982534354"><ele>416.0</ele><time>2026-04-19T10:59:21.999Z</time></trkpt><trkpt lat="45.09556784118473" lon="7.780525436497703"><ele>415.49999999999994</ele><time>2026-04-19T10:59:23.999Z</time></trkpt><trkpt lat="45.09551457177415" lon="7.780595914828388"><ele>415.0</ele><time>2026-04-19T10:59:25.999Z</time></trkpt><trkpt lat="45.09546569666869" lon="7.780712496942104"><ele>414.5</ele><time>2026-04-19T10:59:28.999Z</time></trkpt><trkpt lat="45.09543401284341" lon="7.780803956240069"><ele>414.0</ele><time>2026-04-19T10:59:30.999Z</time></trkpt><trkpt lat="45.095418496026625" lon="7.78090206673399"><ele>413.49999999999994</ele><time>2026-04-19T10:59:32.999Z</time></trkpt><trkpt lat="45.095452577489375" lon="7.780989127310867"><ele>413.0</ele><time>2026-04-19T10:59:34.999Z</time></trkpt><trkpt lat="45.09547965467458" lon="7.781089588937951"><ele>409.2</ele><time>2026-04-19T10:59:36.999Z</time></trkpt><trkpt lat="45.0955117748727" lon="7.781226234404798"><ele>405.4</ele><time>2026-04-19T10:59:38.999Z</time></trkpt><trkpt lat="45.095515023895146" lon="7.781343965934412"><ele>401.59999999999997</ele><time>2026-04-19T10:59:40.999Z</time></trkpt><trkpt lat="45.09557673378358" lon="7.781296775151919"><ele>397.79999999999995</ele><time>2026-04-19T10:59:42.999Z</time></trkpt><trkpt lat="45.09554776055841" lon="7.781505143079148"><ele>394.0</ele><time>2026-04-19T10:59:44.999Z</time></trkpt><trkpt lat="45.095536295732266" lon="7.781676643115897"><ele>394.00000000000006</ele><time>2026-04-19T10:59:46.999Z</time></trkpt><trkpt lat="45.09554598731076" lon="7.781796939060579"><ele>394.0</ele><time>2026-04-19T10:59:48.999Z</time></trkpt><trkpt lat="45.09551685299615" lon="7.781909998789293"><ele>394.0</ele><time>2026-04-19T10:59:51.999Z</time></trkpt><trkpt lat="45.09547583127184" lon="7.782007967723943"><ele>394.0</ele><time>2026-04-19T10:59:53.999Z</time></trkpt><trkpt lat="45.09540845207178" lon="7.782029336798832"><ele>394.00000000000006</ele><time>2026-04-19T10:59:56.999Z</time></trkpt><trkpt lat="45.09532421706772" lon="7.782027258327079"><ele>394.0</ele><time>2026-04-19T11:00:00.999Z</time></trkpt><trkpt lat="45.09525821195519" lon="7.782020219038903"><ele>391.79999999999995</ele><time>2026-04-19T11:00:01.999Z</time></trkpt><trkpt lat="45.09530691045031" lon="7.782077269859901"><ele>389.59999999999997</ele><time>2026-04-19T11:00:04.999Z</time></trkpt><trkpt lat="45.09519990239642" lon="7.782074091665578"><ele>387.4</ele><time>2026-04-19T11:00:06.999Z</time></trkpt><trkpt lat="45.09512048088209" lon="7.7821316797352225"><ele>385.2</ele><time>2026-04-19T11:00:08.999Z</time></trkpt><trkpt lat="45.09501485834032" lon="7.78212128665594"><ele>383.0</ele><time>2026-04-19T11:00:10.999Z</time></trkpt><trkpt lat="45.09491032753265" lon="7.782114266785152"><ele>383.0</ele><time>2026-04-19T11:00:11.999Z</time></trkpt><trkpt lat="45.09493853946009" lon="7.782250820226011"><ele>383.0</ele><time>2026-04-19T11:00:13.999Z</time></trkpt><trkpt lat="45.09489586614952" lon="7.782348645157093"><ele>383.0</ele><time>2026-04-19T11:00:16.999Z</time></trkpt><trkpt lat="45.09486828503382" lon="7.782456073090356"><ele>383.0</ele><time>2026-04-19T11:00:18.999Z</time></trkpt><trkpt lat="45.09484737173434" lon="7.782549039732065"><ele>383.0</ele><time>2026-04-19T11:00:21.999Z</time></trkpt><trkpt lat="45.0947991356538" lon="7.7826286748621065"><ele>383.0</ele><time>2026-04-19T11:00:26.999Z</time></trkpt><trkpt lat="45.09476972236354" lon="7.78271485965018"><ele>379.2</ele><time>2026-04-19T11:00:34.999Z</time></trkpt><trkpt lat="45.094799517255254" lon="7.782825965124948"><ele>375.4</ele><time>2026-04-19T11:00:40.999Z</time></trkpt><trkpt lat="45.094868856694944" lon="7.7828552692455535"><ele>371.59999999999997</ele><time>2026-04-19T11:00:47.998Z</time></trkpt><trkpt lat="45.09496136947945" lon="7.782968669625854"><ele>367.79999999999995</ele><time>2026-04-19T11:00:57.998Z</time></trkpt><trkpt lat="45.094872459679664" lon="7.783007012353952"><ele>364.0</ele><time>2026-04-19T11:01:00.998Z</time></trkpt><trkpt lat="45.094788429731686" lon="7.783055124654706"><ele>364.0</ele><time>2026-04-19T11:01:03.998Z</time></trkpt><trkpt lat="45.09472019538112" lon="7.783078663175281"><ele>364.0</ele><time>2026-04-19T11:01:06.998Z</time></trkpt><trkpt lat="45.09468999893204" lon="7.7831930462856596"><ele>364.0</ele><time>2026-04-19T11:01:08.999Z</time></trkpt><trkpt lat="45.09470039145074" lon="7.7832927293113805"><ele>364.0</ele><time>2026-04-19T11:01:11.999Z</time></trkpt><trkpt lat="45.09470153079875" lon="7.78339554367147"><ele>364.0</ele><time>2026-04-19T11:01:14Z</time></trkpt><trkpt lat="45.09473309297988" lon="7.783506516446467"><ele>364.0</ele><time>2026-04-19T11:01:18Z</time></trkpt><trkpt lat="45.09473649960356" lon="7.783628285555173"><ele>360.5</ele><time>2026-04-19T11:01:23Z</time></trkpt><trkpt lat="45.09468042886537" lon="7.783678293206172"><ele>357.0</ele><time>2026-04-19T11:01:25Z</time></trkpt><trkpt lat="45.09460473194567" lon="7.78374973734811"><ele>353.5</ele><time>2026-04-19T11:01:30Z</time></trkpt><trkpt lat="45.09456895814383" lon="7.783852279988171"><ele>350.0</ele><time>2026-04-19T11:01:34Z</time></trkpt><trkpt lat="45.094514791577915" lon="7.783909911030397"><ele>346.5</ele><time>2026-04-19T11:01:38Z</time></trkpt><trkpt lat="45.09445700228836" lon="7.783999101337828"><ele>343.0</ele><time>2026-04-19T11:01:42Z</time></trkpt><trkpt lat="45.09440982582487" lon="7.784110483231987"><ele>343.0</ele><time>2026-04-19T11:01:46Z</time></trkpt><trkpt lat="45.09435720570801" lon="7.78417373366525"><ele>343.0</ele><time>2026-04-19T11:01:51Z</time></trkpt><trkpt lat="45.09432218423766" lon="7.784250281955235"><ele>343.0</ele><time>2026-04-19T11:01:54Z</time></trkpt><trkpt lat="45.09425816300706" lon="7.784320471718894"><ele>343.0</ele><time>2026-04-19T11:01:58Z</time></trkpt><trkpt lat="45.09421799792673" lon="7.784419350964813"><ele>343.0</ele><time>2026-04-19T11:02:01.999Z</time></trkpt><trkpt lat="45.09418458653233" lon="7.7845103006500675"><ele>343.0</ele><time>2026-04-19T11:02:04.999Z</time></trkpt><trkpt lat="45.09413481755552" lon="7.784603006301904"><ele>343.0</ele><time>2026-04-19T11:02:16.999Z</time></trkpt><trkpt lat="45.094084808076914" lon="7.7846754963928495"><ele>339.5</ele><time>2026-04-19T11:02:20.999Z</time></trkpt><trkpt lat="45.094035613601" lon="7.784788258756437"><ele>336.0</ele><time>2026-04-19T11:02:23.999Z</time></trkpt><trkpt lat="45.093963195886936" lon="7.784847677008217"><ele>332.5</ele><time>2026-04-19T11:02:25.999Z</time></trkpt><trkpt lat="45.09386166704618" lon="7.785000291942351"><ele>329.0</ele><time>2026-04-19T11:02:27.999Z</time></trkpt><trkpt lat="45.093735681960915" lon="7.785049693094266"><ele>329.0</ele><time>2026-04-19T11:02:28.999Z</time></trkpt><trkpt lat="45.09360936099109" lon="7.785097031363586"><ele>329.0</ele><time>2026-04-19T11:02:29.999Z</time></trkpt><trkpt lat="45.09370745320145" lon="7.7850975762728565"><ele>329.0</ele><time>2026-04-19T11:02:30.999Z</time></trkpt><trkpt lat="45.09364407756349" lon="7.785149686233579"><ele>329.0</ele><time>2026-04-19T11:02:31.999Z</time></trkpt><trkpt lat="45.09358176786977" lon="7.785183825033273"><ele>329.0</ele><time>2026-04-19T11:02:32.999Z</time></trkpt><trkpt lat="45.09352744022019" lon="7.785236015218557"><ele>329.0</ele><time>2026-04-19T11:02:33.999Z</time></trkpt><trkpt lat="45.093438715077966" lon="7.785304258214443"><ele>326.59999999999997</ele><time>2026-04-19T11:02:35.999Z</time></trkpt><trkpt lat="45.09334723289547" lon="7.785349457184118"><ele>324.2</ele><time>2026-04-19T11:02:37.999Z</time></trkpt><trkpt lat="45.0932839042339" lon="7.785373502678974"><ele>321.79999999999995</ele><time>2026-04-19T11:02:38.999Z</time></trkpt><trkpt lat="45.093156580274965" lon="7.785329784291462"><ele>319.4</ele><time>2026-04-19T11:02:40.999Z</time></trkpt><trkpt lat="45.093033135912926" lon="7.785375955943115"><ele>317.0</ele><time>2026-04-19T11:02:42.999Z</time></trkpt><trkpt lat="45.092969419098374" lon="7.785480648005184"><ele>317.0</ele><time>2026-04-19T11:02:43.999Z</time></trkpt><trkpt lat="45.09291927361121" lon="7.785538850086054"><ele>317.0</ele><time>2026-04-19T11:02:44.999Z</time></trkpt><trkpt lat="45.09282023574316" lon="7.785633889138628"><ele>317.0</ele><time>2026-04-19T11:02:46.999Z</time></trkpt><trkpt lat="45.09271863715858" lon="7.785716209458719"><ele>317.0</ele><time>2026-04-19T11:02:48.999Z</time></trkpt><trkpt lat="45.092654168465174" lon="7.785755217528395"><ele>317.0</ele><time>2026-04-19T11:02:49.999Z</time></trkpt><trkpt lat="45.09258571162777" lon="7.7857861464347975"><ele>317.0</ele><time>2026-04-19T11:02:50.999Z</time></trkpt><trkpt lat="45.09251093350777" lon="7.78581622079988"><ele>317.4</ele><time>2026-04-19T11:02:51.999Z</time></trkpt><trkpt lat="45.092394151338105" lon="7.7858678597827105"><ele>317.79999999999995</ele><time>2026-04-19T11:02:53.999Z</time></trkpt><trkpt lat="45.09229966295316" lon="7.785913038820656"><ele>318.2</ele><time>2026-04-19T11:02:55.999Z</time></trkpt><trkpt lat="45.09221550172969" lon="7.785947209886285"><ele>318.59999999999997</ele><time>2026-04-19T11:02:57.999Z</time></trkpt><trkpt lat="45.09214496995351" lon="7.785968186901034"><ele>319.0</ele><time>2026-04-19T11:02:59.999Z</time></trkpt><trkpt lat="45.09206100192787" lon="7.785985952628743"><ele>319.0</ele><time>2026-04-19T11:03:01.999Z</time></trkpt><trkpt lat="45.09196371264809" lon="7.785995898504858"><ele>319.0</ele><time>2026-04-19T11:03:03.999Z</time></trkpt><trkpt lat="45.09185321266969" lon="7.785988609629069"><ele>319.0</ele><time>2026-04-19T11:03:05.999Z</time></trkpt><trkpt lat="45.091778356106495" lon="7.785991040457974"><ele>319.0</ele><time>2026-04-19T11:03:18Z</time></trkpt><trkpt lat="45.09168636694811" lon="7.786136642518876"><ele>319.0</ele><time>2026-04-19T11:03:20Z</time></trkpt><trkpt lat="45.09165314764504" lon="7.786234568995095"><ele>317.0</ele><time>2026-04-19T11:03:22Z</time></trkpt><trkpt lat="45.091586241765924" lon="7.786301505504854"><ele>315.0</ele><time>2026-04-19T11:03:24Z</time></trkpt><trkpt lat="45.09151400738034" lon="7.786255980885763"><ele>313.0</ele><time>2026-04-19T11:03:25Z</time></trkpt><trkpt lat="45.091408244445745" lon="7.7863230289451435"><ele>311.0</ele><time>2026-04-19T11:03:27Z</time></trkpt><trkpt lat="45.091298969265026" lon="7.78638763183377"><ele>309.0</ele><time>2026-04-19T11:03:29Z</time></trkpt><trkpt lat="45.09119521161315" lon="7.7864384087661875"><ele>309.0</ele><time>2026-04-19T11:03:31Z</time></trkpt><trkpt lat="45.09109657099844" lon="7.78646535174404"><ele>309.0</ele><time>2026-04-19T11:03:33Z</time></trkpt><trkpt lat="45.090999024840045" lon="7.786481487722059"><ele>309.0</ele><time>2026-04-19T11:03:35Z</time></trkpt><trkpt lat="45.090922711099076" lon="7.786484210919731"><ele>309.0</ele><time>2026-04-19T11:03:37Z</time></trkpt><trkpt lat="45.09082829109476" lon="7.786495781259429"><ele>309.0</ele><time>2026-04-19T11:03:39Z</time></trkpt><trkpt lat="45.09074615931791" lon="7.786498930154494"><ele>310.0</ele><time>2026-04-19T11:03:41Z</time></trkpt><trkpt lat="45.090658516005824" lon="7.786499680271627"><ele>311.0</ele><time>2026-04-19T11:03:44Z</time></trkpt><trkpt lat="45.09057992322725" lon="7.786547281705316"><ele>312.0</ele><time>2026-04-19T11:03:47Z</time></trkpt><trkpt lat="45.09051265931998" lon="7.786521557999046"><ele>313.0</ele><time>2026-04-19T11:03:49Z</time></trkpt><trkpt lat="45.09042649648825" lon="7.786543022833236"><ele>314.0</ele><time>2026-04-19T11:03:52Z</time></trkpt><trkpt lat="45.090335912535295" lon="7.786566513011281"><ele>315.0</ele><time>2026-04-19T11:03:55Z</time></trkpt><trkpt lat="45.09025189352838" lon="7.786569373328769"><ele>315.0</ele><time>2026-04-19T11:03:58Z</time></trkpt><trkpt lat="45.09016684581939" lon="7.786567941050757"><ele>315.0</ele><time>2026-04-19T11:04:01Z</time></trkpt><trkpt lat="45.09008905063606" lon="7.786523921842927"><ele>315.0</ele><time>2026-04-19T11:04:04Z</time></trkpt><trkpt lat="45.09000112893283" lon="7.786489786421255"><ele>315.0</ele><time>2026-04-19T11:04:07Z</time></trkpt><trkpt lat="45.08991855718259" lon="7.786454805435102"><ele>315.0</ele><time>2026-04-19T11:04:10Z</time></trkpt><trkpt lat="45.08984664461076" lon="7.78640730250379"><ele>315.0</ele><time>2026-04-19T11:04:13Z</time></trkpt><trkpt lat="45.08976889506636" lon="7.786389446656394"><ele>316.0</ele><time>2026-04-19T11:04:16Z</time></trkpt><trkpt lat="45.089697638795286" lon="7.786383843404784"><ele>317.0</ele><time>2026-04-19T11:04:19Z</time></trkpt><trkpt lat="45.08962895083796" lon="7.786403522827892"><ele>318.0</ele><time>2026-04-19T11:04:22Z</time></trkpt><trkpt lat="45.089547871463964" lon="7.786395764362458"><ele>319.0</ele><time>2026-04-19T11:04:26Z</time></trkpt><trkpt lat="45.08946615030995" lon="7.78640217358288"><ele>320.0</ele><time>2026-04-19T11:04:30Z</time></trkpt><trkpt lat="45.08940021271558" lon="7.786391040697493"><ele>321.0</ele><time>2026-04-19T11:04:33Z</time></trkpt><trkpt lat="45.08931548892269" lon="7.786376827992273"><ele>320.99999999999994</ele><time>2026-04-19T11:04:36.999Z</time></trkpt><trkpt lat="45.089245597247306" lon="7.786385304288536"><ele>321.0</ele><time>2026-04-19T11:04:39.999Z</time></trkpt><trkpt lat="45.08918680599786" lon="7.786420981251573"><ele>321.0</ele><time>2026-04-19T11:04:42.999Z</time></trkpt><trkpt lat="45.0891214772327" lon="7.786450295482726"><ele>321.0</ele><time>2026-04-19T11:04:45.999Z</time></trkpt><trkpt lat="45.08905577187595" lon="7.786498191483407"><ele>321.0</ele><time>2026-04-19T11:04:48.999Z</time></trkpt><trkpt lat="45.08899717714398" lon="7.786539340573139"><ele>320.99999999999994</ele><time>2026-04-19T11:04:50.999Z</time></trkpt><trkpt lat="45.08891312808188" lon="7.786596426823689"><ele>321.0</ele><time>2026-04-19T11:04:53.999Z</time></trkpt><trkpt lat="45.08884404544135" lon="7.786620680331354"><ele>321.99999999999994</ele><time>2026-04-19T11:04:55.999Z</time></trkpt><trkpt lat="45.08877963432754" lon="7.786625700136381"><ele>323.0</ele><time>2026-04-19T11:04:57.999Z</time></trkpt><trkpt lat="45.0887133477238" lon="7.786648107791791"><ele>324.0</ele><time>2026-04-19T11:04:59.999Z</time></trkpt><trkpt lat="45.088629013689314" lon="7.786654772233952"><ele>325.0</ele><time>2026-04-19T11:05:02.999Z</time></trkpt><trkpt lat="45.088561247552484" lon="7.786642259897127"><ele>326.0</ele><time>2026-04-19T11:05:05.999Z</time></trkpt><trkpt lat="45.08849850582375" lon="7.7865744507788275"><ele>326.99999999999994</ele><time>2026-04-19T11:05:08.999Z</time></trkpt><trkpt lat="45.0884418270699" lon="7.786524310332699"><ele>328.0</ele><time>2026-04-19T11:05:11.999Z</time></trkpt><trkpt lat="45.08838294412575" lon="7.786437384159408"><ele>328.0</ele><time>2026-04-19T11:05:14.999Z</time></trkpt><trkpt lat="45.088311904209114" lon="7.786374231731629"><ele>328.0</ele><time>2026-04-19T11:05:17.999Z</time></trkpt><trkpt lat="45.08823798134503" lon="7.786320829235207"><ele>328.0</ele><time>2026-04-19T11:05:21Z</time></trkpt><trkpt lat="45.08817165334655" lon="7.786273800974882"><ele>328.0</ele><time>2026-04-19T11:05:24Z</time></trkpt><trkpt lat="45.088106779582716" lon="7.786226129316613"><ele>328.0</ele><time>2026-04-19T11:05:27Z</time></trkpt><trkpt lat="45.0880445326927" lon="7.786189110553789"><ele>328.0</ele><time>2026-04-19T11:05:30Z</time></trkpt><trkpt lat="45.08797129890717" lon="7.7861433316570725"><ele>328.71428571428567</ele><time>2026-04-19T11:05:34Z</time></trkpt><trkpt lat="45.087894854992086" lon="7.786138347508998"><ele>329.42857142857144</ele><time>2026-04-19T11:05:38Z</time></trkpt><trkpt lat="45.08783509623198" lon="7.786167128556712"><ele>330.1428571428571</ele><time>2026-04-19T11:05:41Z</time></trkpt><trkpt lat="45.08775927078213" lon="7.786211216517188"><ele>330.85714285714283</ele><time>2026-04-19T11:05:45Z</time></trkpt><trkpt lat="45.08769149587629" lon="7.78624778520874"><ele>331.57142857142856</ele><time>2026-04-19T11:05:49Z</time></trkpt><trkpt lat="45.08764478674755" lon="7.786324385820671"><ele>332.2857142857143</ele><time>2026-04-19T11:05:53Z</time></trkpt><trkpt lat="45.08759442537707" lon="7.786382725706603"><ele>333.0</ele><time>2026-04-19T11:05:57Z</time></trkpt><trkpt lat="45.08754596882545" lon="7.78644147663474"><ele>333.0</ele><time>2026-04-19T11:06:01.999Z</time></trkpt><trkpt lat="45.087496206548906" lon="7.786504266456459"><ele>333.0</ele><time>2026-04-19T11:06:05.999Z</time></trkpt><trkpt lat="45.087452376651086" lon="7.786577181881884"><ele>333.0</ele><time>2026-04-19T11:06:10.999Z</time></trkpt><trkpt lat="45.08740443411567" lon="7.7866585774570165"><ele>333.0</ele><time>2026-04-19T11:06:15.999Z</time></trkpt><trkpt lat="45.08736090150644" lon="7.786736671692512"><ele>333.0</ele><time>2026-04-19T11:06:20.999Z</time></trkpt><trkpt lat="45.08732176524588" lon="7.786816378572712"><ele>333.0</ele><time>2026-04-19T11:06:24.999Z</time></trkpt><trkpt lat="45.087283188076114" lon="7.78690725026545"><ele>333.0</ele><time>2026-04-19T11:06:29.999Z</time></trkpt><trkpt lat="45.087238703833755" lon="7.78698213281221"><ele>335.42857142857144</ele><time>2026-04-19T11:06:33.999Z</time></trkpt><trkpt lat="45.08718660253413" lon="7.787048742304555"><ele>337.85714285714283</ele><time>2026-04-19T11:06:37.999Z</time></trkpt><trkpt lat="45.087123140353945" lon="7.787111491781718"><ele>340.2857142857143</ele><time>2026-04-19T11:06:43.999Z</time></trkpt><trkpt lat="45.08705882984104" lon="7.787144633341297"><ele>342.7142857142857</ele><time>2026-04-19T11:06:48.999Z</time></trkpt><trkpt lat="45.08699070164264" lon="7.787181694661181"><ele>345.1428571428571</ele><time>2026-04-19T11:06:53.999Z</time></trkpt><trkpt lat="45.08692034468601" lon="7.78720732158736"><ele>347.57142857142856</ele><time>2026-04-19T11:06:58.999Z</time></trkpt><trkpt lat="45.086852178513496" lon="7.7872327417759335"><ele>350.0</ele><time>2026-04-19T11:07:03.999Z</time></trkpt><trkpt lat="45.08678100771508" lon="7.787245630532992"><ele>350.0</ele><time>2026-04-19T11:07:08.999Z</time></trkpt><trkpt lat="45.08671202944538" lon="7.787269563442396"><ele>350.0</ele><time>2026-04-19T11:07:13.999Z</time></trkpt><trkpt lat="45.08663932245292" lon="7.7873044741072865"><ele>350.0</ele><time>2026-04-19T11:07:18.999Z</time></trkpt><trkpt lat="45.08656908631833" lon="7.787323430480479"><ele>350.0</ele><time>2026-04-19T11:07:23.999Z</time></trkpt><trkpt lat="45.08649865232154" lon="7.7873448145669"><ele>350.0</ele><time>2026-04-19T11:07:28.999Z</time></trkpt><trkpt lat="45.08643072089387" lon="7.78735046329117"><ele>350.0</ele><time>2026-04-19T11:07:33.999Z</time></trkpt><trkpt lat="45.0863646681192" lon="7.787379247131255"><ele>350.0</ele><time>2026-04-19T11:07:38.999Z</time></trkpt><trkpt lat="45.086297034759575" lon="7.78740454588404"><ele>350.0</ele><time>2026-04-19T11:07:43.999Z</time></trkpt><trkpt lat="45.08623429062063" lon="7.78744185785917"><ele>350.0</ele><time>2026-04-19T11:07:48.999Z</time></trkpt><trkpt lat="45.086172447783646" lon="7.78747655499367"><ele>350.0</ele><time>2026-04-19T11:07:54Z</time></trkpt><trkpt lat="45.08610769743866" lon="7.787511844152794"><ele>350.0</ele><time>2026-04-19T11:07:59Z</time></trkpt><trkpt lat="45.0860496750657" lon="7.7875545285460746"><ele>350.0</ele><time>2026-04-19T11:08:03.999Z</time></trkpt><trkpt lat="45.08599180400017" lon="7.787607244907446"><ele>350.0</ele><time>2026-04-19T11:08:08.999Z</time></trkpt><trkpt lat="45.08591996353942" lon="7.787616434576525"><ele>350.0</ele><time>2026-04-19T11:08:13.999Z</time></trkpt><trkpt lat="45.08584603078306" lon="7.787623153439864"><ele>350.0</ele><time>2026-04-19T11:08:18.999Z</time></trkpt><trkpt lat="45.08577613006521" lon="7.787631949201578"><ele>350.0</ele><time>2026-04-19T11:08:23.999Z</time></trkpt><trkpt lat="45.085710611517705" lon="7.7876601263651555"><ele>350.0</ele><time>2026-04-19T11:08:28.999Z</time></trkpt><trkpt lat="45.08563725738067" lon="7.787705477737412"><ele>350.0</ele><time>2026-04-19T11:08:33.999Z</time></trkpt><trkpt lat="45.08557038245173" lon="7.787746869193761"><ele>350.0</ele><time>2026-04-19T11:08:38.999Z</time></trkpt><trkpt lat="45.08551036227742" lon="7.78777629284915"><ele>350.0</ele><time>2026-04-19T11:08:41.999Z</time></trkpt><trkpt lat="45.08544434867955" lon="7.787839703519845"><ele>350.0</ele><time>2026-04-19T11:08:45.999Z</time></trkpt><trkpt lat="45.08544872986951" lon="7.787947079255036"><ele>351.0</ele><time>2026-04-19T11:08:49.999Z</time></trkpt><trkpt lat="45.085389098741935" lon="7.788007262238463"><ele>352.0</ele><time>2026-04-19T11:08:53.999Z</time></trkpt><trkpt lat="45.08532566178008" lon="7.788048355552778"><ele>353.0</ele><time>2026-04-19T11:08:57.999Z</time></trkpt><trkpt lat="45.085264251870406" lon="7.788078858293107"><ele>354.0</ele><time>2026-04-19T11:09:02.999Z</time></trkpt><trkpt lat="45.08521429644393" lon="7.7881428545172735"><ele>355.0</ele><time>2026-04-19T11:09:07.999Z</time></trkpt><trkpt lat="45.08515282170947" lon="7.78819032258358"><ele>356.0</ele><time>2026-04-19T11:09:12.999Z</time></trkpt><trkpt lat="45.085086428037044" lon="7.788225374996022"><ele>357.0</ele><time>2026-04-19T11:09:17.999Z</time></trkpt><trkpt lat="45.08503143795727" lon="7.7882780110009024"><ele>357.0</ele><time>2026-04-19T11:09:22.999Z</time></trkpt><trkpt lat="45.08497090714015" lon="7.788321426306947"><ele>357.0</ele><time>2026-04-19T11:09:27.999Z</time></trkpt><trkpt lat="45.08492492381381" lon="7.788385141598577"><ele>357.0</ele><time>2026-04-19T11:09:32.999Z</time></trkpt><trkpt lat="45.0848955232162" lon="7.788467509717218"><ele>357.0</ele><time>2026-04-19T11:09:37.999Z</time></trkpt><trkpt lat="45.08488913758025" lon="7.78857173078317"><ele>357.0</ele><time>2026-04-19T11:09:43.999Z</time></trkpt><trkpt lat="45.084880155289135" lon="7.788665875190787"><ele>357.0</ele><time>2026-04-19T11:09:49.999Z</time></trkpt><trkpt lat="45.08484301374113" lon="7.788749486304912"><ele>357.0</ele><time>2026-04-19T11:09:55.999Z</time></trkpt><trkpt lat="45.08479499666056" lon="7.7888212404084145"><ele>357.2857142857143</ele><time>2026-04-19T11:10:00.999Z</time></trkpt><trkpt lat="45.08473381976468" lon="7.7888857959884366"><ele>357.57142857142856</ele><time>2026-04-19T11:10:06.999Z</time></trkpt><trkpt lat="45.08470901229494" lon="7.788973054449391"><ele>357.8571428571429</ele><time>2026-04-19T11:10:30.999Z</time></trkpt><trkpt lat="45.08471600233444" lon="7.789064888884036"><ele>358.1428571428571</ele><time>2026-04-19T11:10:36.999Z</time></trkpt><trkpt lat="45.0847309518658" lon="7.789152491254177"><ele>358.42857142857144</ele><time>2026-04-19T11:10:43.999Z</time></trkpt><trkpt lat="45.08474092042123" lon="7.78924796064724"><ele>358.7142857142857</ele><time>2026-04-19T11:11:16.999Z</time></trkpt><trkpt lat="45.08474270148728" lon="7.789351925595052"><ele>359.0</ele><time>2026-04-19T11:11:25.999Z</time></trkpt><trkpt lat="45.08473613055223" lon="7.789440749845401"><ele>360.0</ele><time>2026-04-19T11:11:33.999Z</time></trkpt><trkpt lat="45.08473746526864" lon="7.789530978654114"><ele>361.0</ele><time>2026-04-19T11:11:42.999Z</time></trkpt><trkpt lat="45.08472864025691" lon="7.789636544948986"><ele>362.0</ele><time>2026-04-19T11:11:51Z</time></trkpt><trkpt lat="45.08472143616111" lon="7.789741689555314"><ele>363.0</ele><time>2026-04-19T11:11:59Z</time></trkpt><trkpt lat="45.08471622866395" lon="7.789834498738046"><ele>364.0</ele><time>2026-04-19T11:12:06Z</time></trkpt><trkpt lat="45.08470333709484" lon="7.789925526921438"><ele>365.0</ele><time>2026-04-19T11:12:14Z</time></trkpt><trkpt lat="45.08470485510591" lon="7.790020500199187"><ele>366.0</ele><time>2026-04-19T11:12:24Z</time></trkpt><trkpt lat="45.08470042414845" lon="7.790114775979744"><ele>367.14285714285717</ele><time>2026-04-19T11:12:35Z</time></trkpt><trkpt lat="45.08470403594237" lon="7.790209849165631"><ele>368.28571428571433</ele><time>2026-04-19T11:12:53Z</time></trkpt><trkpt lat="45.08472665920126" lon="7.790300220430755"><ele>369.42857142857144</ele><time>2026-04-19T11:13:02Z</time></trkpt><trkpt lat="45.08476017451297" lon="7.790386139291333"><ele>370.57142857142856</ele><time>2026-04-19T11:13:11Z</time></trkpt><trkpt lat="45.08476978167485" lon="7.790482876525836"><ele>371.7142857142857</ele><time>2026-04-19T11:13:19Z</time></trkpt><trkpt lat="45.08480267786825" lon="7.790566446462669"><ele>372.85714285714283</ele><time>2026-04-19T11:13:28Z</time></trkpt><trkpt lat="45.0848622538478" lon="7.79063106906713"><ele>374.0</ele><time>2026-04-19T11:13:36.999Z</time></trkpt><trkpt lat="45.0849056407797" lon="7.790706481553137"><ele>378.4285714285714</ele><time>2026-04-19T11:13:46Z</time></trkpt><trkpt lat="45.084954007150664" lon="7.79077934183265"><ele>382.8571428571429</ele><time>2026-04-19T11:13:55Z</time></trkpt><trkpt lat="45.08499829078632" lon="7.790844052364852"><ele>387.2857142857143</ele><time>2026-04-19T11:14:04Z</time></trkpt><trkpt lat="45.085046749953804" lon="7.7909022059266775"><ele>391.71428571428567</ele><time>2026-04-19T11:14:13Z</time></trkpt><trkpt lat="45.08508051413194" lon="7.790978885703384"><ele>396.1428571428571</ele><time>2026-04-19T11:14:21Z</time></trkpt><trkpt lat="45.08514873821509" lon="7.791042793591521"><ele>400.57142857142856</ele><time>2026-04-19T11:14:33Z</time></trkpt><trkpt lat="45.085205381025034" lon="7.7910831659102096"><ele>405.0</ele><time>2026-04-19T11:14:42Z</time></trkpt><trkpt lat="45.08524932795482" lon="7.791151433082657"><ele>405.0</ele><time>2026-04-19T11:14:50Z</time></trkpt><trkpt lat="45.08536265212447" lon="7.791265628527305"><ele>405.0</ele><time>2026-04-19T11:15:31Z</time></trkpt><trkpt lat="45.08539497310132" lon="7.791347773431971"><ele>405.0</ele><time>2026-04-19T11:15:42Z</time></trkpt><trkpt lat="45.08540218430192" lon="7.791439791292749"><ele>405.0</ele><time>2026-04-19T11:15:59.001Z</time></trkpt><trkpt lat="45.0854234561158" lon="7.7915310369455755"><ele>405.0</ele><time>2026-04-19T11:16:08.001Z</time></trkpt><trkpt lat="45.08542976290328" lon="7.791620098889018"><ele>405.0</ele><time>2026-04-19T11:16:16Z</time></trkpt><trkpt lat="45.08542461270945" lon="7.791714439994045"><ele>404.99999999999994</ele><time>2026-04-19T11:16:25Z</time></trkpt><trkpt lat="45.085411895333564" lon="7.7918043467083855"><ele>405.0</ele><time>2026-04-19T11:16:33Z</time></trkpt><trkpt lat="45.08537661662576" lon="7.791885678023076"><ele>405.0</ele><time>2026-04-19T11:16:40Z</time></trkpt><trkpt lat="45.08535195284974" lon="7.7919810252194655"><ele>405.0</ele><time>2026-04-19T11:16:47Z</time></trkpt><trkpt lat="45.085347635264924" lon="7.792070587531352"><ele>405.0</ele><time>2026-04-19T11:16:54Z</time></trkpt><trkpt lat="45.0853506748296" lon="7.79216620467932"><ele>404.99999999999994</ele><time>2026-04-19T11:17:02Z</time></trkpt><trkpt lat="45.08536846226325" lon="7.792255965901241"><ele>405.0</ele><time>2026-04-19T11:17:10Z</time></trkpt><trkpt lat="45.08538381133775" lon="7.792344324392913"><ele>405.85714285714283</ele><time>2026-04-19T11:17:16Z</time></trkpt><trkpt lat="45.08541073374784" lon="7.792440315214748"><ele>406.7142857142857</ele><time>2026-04-19T11:17:38Z</time></trkpt><trkpt lat="45.08544803712877" lon="7.792538980904965"><ele>407.57142857142856</ele><time>2026-04-19T11:17:43Z</time></trkpt><trkpt lat="45.085482752142646" lon="7.792614673529382"><ele>408.42857142857144</ele><time>2026-04-19T11:17:49Z</time></trkpt><trkpt lat="45.08552820166386" lon="7.7926872412583865"><ele>409.2857142857143</ele><time>2026-04-19T11:17:56.001Z</time></trkpt><trkpt lat="45.08553703230591" lon="7.792789148170866"><ele>410.1428571428571</ele><time>2026-04-19T11:18:02.001Z</time></trkpt><trkpt lat="45.085544832384635" lon="7.792878420856514"><ele>411.0</ele><time>2026-04-19T11:18:10.001Z</time></trkpt><trkpt lat="45.08553683053085" lon="7.792970506878809"><ele>411.57142857142856</ele><time>2026-04-19T11:18:18Z</time></trkpt><trkpt lat="45.08552289474758" lon="7.793059296128393"><ele>412.1428571428571</ele><time>2026-04-19T11:18:25Z</time></trkpt><trkpt lat="45.085513252420775" lon="7.793163301160708"><ele>412.7142857142857</ele><time>2026-04-19T11:18:31Z</time></trkpt><trkpt lat="45.085488860084986" lon="7.79325938624159"><ele>413.2857142857143</ele><time>2026-04-19T11:18:36Z</time></trkpt><trkpt lat="45.08548138173386" lon="7.793360258018713"><ele>413.8571428571429</ele><time>2026-04-19T11:18:42Z</time></trkpt><trkpt lat="45.08548604747289" lon="7.793457991778788"><ele>414.42857142857144</ele><time>2026-04-19T11:18:48Z</time></trkpt><trkpt lat="45.08551451821842" lon="7.793538246034549"><ele>415.0</ele><time>2026-04-19T11:18:54Z</time></trkpt><trkpt lat="45.08555282890186" lon="7.793623541430439"><ele>416.14285714285717</ele><time>2026-04-19T11:19:00Z</time></trkpt><trkpt lat="45.085594920079835" lon="7.793691336069805"><ele>417.28571428571433</ele><time>2026-04-19T11:19:05Z</time></trkpt><trkpt lat="45.08563943757684" lon="7.793771702950667"><ele>418.42857142857144</ele><time>2026-04-19T11:19:11Z</time></trkpt><trkpt lat="45.08566390930222" lon="7.793864418655959"><ele>419.57142857142856</ele><time>2026-04-19T11:19:17Z</time></trkpt><trkpt lat="45.085694614607576" lon="7.7939508060800256"><ele>420.7142857142857</ele><time>2026-04-19T11:19:23Z</time></trkpt><trkpt lat="45.08571956826851" lon="7.794047609064538"><ele>421.85714285714283</ele><time>2026-04-19T11:19:29Z</time></trkpt><trkpt lat="45.08574945663876" lon="7.794141069826132"><ele>423.0</ele><time>2026-04-19T11:19:36Z</time></trkpt><trkpt lat="45.08578877758788" lon="7.794224775655646"><ele>426.57142857142856</ele><time>2026-04-19T11:19:43Z</time></trkpt><trkpt lat="45.08580942957901" lon="7.7943161709448585"><ele>430.14285714285717</ele><time>2026-04-19T11:19:49Z</time></trkpt><trkpt lat="45.08580764573718" lon="7.794408297754417"><ele>433.7142857142857</ele><time>2026-04-19T11:19:55Z</time></trkpt><trkpt lat="45.08582458420814" lon="7.794498139116693"><ele>437.2857142857143</ele><time>2026-04-19T11:20:01Z</time></trkpt><trkpt lat="45.0858367642276" lon="7.794596712562945"><ele>440.8571428571429</ele><time>2026-04-19T11:20:08.001Z</time></trkpt><trkpt lat="45.08583924802761" lon="7.794694232541701"><ele>444.42857142857144</ele><time>2026-04-19T11:20:15Z</time></trkpt><trkpt lat="45.08584365904879" lon="7.794795148393994"><ele>448.0</ele><time>2026-04-19T11:20:23Z</time></trkpt><trkpt lat="45.08585689162895" lon="7.79489176362413"><ele>448.8571428571429</ele><time>2026-04-19T11:20:30Z</time></trkpt><trkpt lat="45.08585674963914" lon="7.7949852717045"><ele>449.7142857142857</ele><time>2026-04-19T11:20:36Z</time></trkpt><trkpt lat="45.08585077409448" lon="7.7950865884562734"><ele>450.57142857142856</ele><time>2026-04-19T11:20:43Z</time></trkpt><trkpt lat="45.08580751634915" lon="7.795168596216749"><ele>451.42857142857144</ele><time>2026-04-19T11:20:49Z</time></trkpt><trkpt lat="45.08577305444499" lon="7.795254064400834"><ele>452.28571428571433</ele><time>2026-04-19T11:20:54Z</time></trkpt><trkpt lat="45.085741340420256" lon="7.795357617399018"><ele>453.14285714285717</ele><time>2026-04-19T11:20:59Z</time></trkpt><trkpt lat="45.08571406320656" lon="7.795454887740208"><ele>454.0</ele><time>2026-04-19T11:21:03Z</time></trkpt><trkpt lat="45.085664162480086" lon="7.795541552290849"><ele>453.0</ele><time>2026-04-19T11:21:07Z</time></trkpt><trkpt lat="45.08563438676758" lon="7.795634970381051"><ele>452.00000000000006</ele><time>2026-04-19T11:21:11Z</time></trkpt><trkpt lat="45.085611881971715" lon="7.795729786104603"><ele>451.0</ele><time>2026-04-19T11:21:15Z</time></trkpt><trkpt lat="45.08560599658963" lon="7.795828735287275"><ele>450.0</ele><time>2026-04-19T11:21:19Z</time></trkpt><trkpt lat="45.085607243318" lon="7.795935098115848"><ele>449.0</ele><time>2026-04-19T11:21:23Z</time></trkpt><trkpt lat="45.08562566155691" lon="7.796044609870986"><ele>448.0</ele><time>2026-04-19T11:21:27Z</time></trkpt><trkpt lat="45.085655430517576" lon="7.796141196794292"><ele>447.0</ele><time>2026-04-19T11:21:30Z</time></trkpt><trkpt lat="45.08568075512134" lon="7.796258999228844"><ele>446.99999999999994</ele><time>2026-04-19T11:21:33Z</time></trkpt><trkpt lat="45.085705326742605" lon="7.796368107674336"><ele>447.0</ele><time>2026-04-19T11:21:36Z</time></trkpt><trkpt lat="45.08570706996133" lon="7.7964842427693215"><ele>447.0</ele><time>2026-04-19T11:21:39Z</time></trkpt><trkpt lat="45.08570398307992" lon="7.796595179079526"><ele>447.0</ele><time>2026-04-19T11:21:42Z</time></trkpt><trkpt lat="45.085701466368434" lon="7.796690438459303"><ele>447.0</ele><time>2026-04-19T11:21:44.999Z</time></trkpt><trkpt lat="45.085671234222666" lon="7.796778164620423"><ele>446.99999999999994</ele><time>2026-04-19T11:21:47.999Z</time></trkpt><trkpt lat="45.08565316862867" lon="7.796870762566251"><ele>447.0</ele><time>2026-04-19T11:21:50.999Z</time></trkpt><trkpt lat="45.08563285434998" lon="7.796956094163255"><ele>449.0</ele><time>2026-04-19T11:21:53.999Z</time></trkpt><trkpt lat="45.085604880385354" lon="7.797038210675509"><ele>451.0</ele><time>2026-04-19T11:21:56.999Z</time></trkpt><trkpt lat="45.085575075620035" lon="7.797135645235972"><ele>453.0</ele><time>2026-04-19T11:22:00.999Z</time></trkpt><trkpt lat="45.08553470312022" lon="7.797232601667085"><ele>455.0</ele><time>2026-04-19T11:22:04.999Z</time></trkpt><trkpt lat="45.085498786276546" lon="7.7973212664412435"><ele>457.00000000000006</ele><time>2026-04-19T11:22:09Z</time></trkpt><trkpt lat="45.08546357044491" lon="7.797397524023906"><ele>459.0</ele><time>2026-04-19T11:22:13Z</time></trkpt><trkpt lat="45.08542237770187" lon="7.797482704109117"><ele>461.0</ele><time>2026-04-19T11:22:17Z</time></trkpt><trkpt lat="45.0853792425977" lon="7.797571108474829"><ele>460.99999999999994</ele><time>2026-04-19T11:22:21Z</time></trkpt><trkpt lat="45.0853272060798" lon="7.797665007781086"><ele>461.0</ele><time>2026-04-19T11:22:25Z</time></trkpt><trkpt lat="45.08527922721242" lon="7.7977777681508735"><ele>461.0</ele><time>2026-04-19T11:22:29Z</time></trkpt><trkpt lat="45.085243533621465" lon="7.797867223162522"><ele>461.0</ele><time>2026-04-19T11:22:33Z</time></trkpt><trkpt lat="45.085241112827674" lon="7.797959467719524"><ele>460.99999999999994</ele><time>2026-04-19T11:22:36Z</time></trkpt><trkpt lat="45.08527249758963" lon="7.798045361779231"><ele>461.0</ele><time>2026-04-19T11:22:39Z</time></trkpt><trkpt lat="45.08533206505901" lon="7.798107572399772"><ele>461.49999999999994</ele><time>2026-04-19T11:22:42Z</time></trkpt><trkpt lat="45.08539956216473" lon="7.798111111487589"><ele>462.0</ele><time>2026-04-19T11:22:44Z</time></trkpt><trkpt lat="45.085481577114386" lon="7.79810704943374"><ele>462.5</ele><time>2026-04-19T11:22:46Z</time></trkpt><trkpt lat="45.08557481634477" lon="7.798108985417231"><ele>463.0</ele><time>2026-04-19T11:22:48Z</time></trkpt><trkpt lat="45.08566118994985" lon="7.798089904043254"><ele>463.49999999999994</ele><time>2026-04-19T11:22:50Z</time></trkpt><trkpt lat="45.085765305488884" lon="7.798082630621151"><ele>464.0</ele><time>2026-04-19T11:22:52Z</time></trkpt><trkpt lat="45.08587506273942" lon="7.798092541146796"><ele>464.0</ele><time>2026-04-19T11:22:54Z</time></trkpt><trkpt lat="45.085979148774946" lon="7.798088025175521"><ele>464.0</ele><time>2026-04-19T11:22:56Z</time></trkpt><trkpt lat="45.08608120566096" lon="7.798112382503457"><ele>464.0</ele><time>2026-04-19T11:22:58Z</time></trkpt><trkpt lat="45.08617750964941" lon="7.79818113511405"><ele>464.0</ele><time>2026-04-19T11:23:00Z</time></trkpt><trkpt lat="45.086261771709765" lon="7.798244662241435"><ele>464.0</ele><time>2026-04-19T11:23:02Z</time></trkpt><trkpt lat="45.086337538828424" lon="7.798299063046869"><ele>463.99999999999994</ele><time>2026-04-19T11:23:04Z</time></trkpt><trkpt lat="45.086402621930816" lon="7.798282551780753"><ele>464.0</ele><time>2026-04-19T11:23:06Z</time></trkpt><trkpt lat="45.086467464130344" lon="7.798234838741437"><ele>464.0</ele><time>2026-04-19T11:23:08Z</time></trkpt><trkpt lat="45.08652451065301" lon="7.79812009986008"><ele>464.0</ele><time>2026-04-19T11:23:10Z</time></trkpt><trkpt lat="45.08659176868463" lon="7.797973641433726"><ele>463.99999999999994</ele><time>2026-04-19T11:23:12Z</time></trkpt><trkpt lat="45.086615699721044" lon="7.797888424120279"><ele>464.0</ele><time>2026-04-19T11:23:13Z</time></trkpt><trkpt lat="45.08664186937584" lon="7.797805074007639"><ele>463.99999999999994</ele><time>2026-04-19T11:23:14Z</time></trkpt><trkpt lat="45.086705255378035" lon="7.797652629592728"><ele>464.0</ele><time>2026-04-19T11:23:16Z</time></trkpt><trkpt lat="45.08676212165328" lon="7.797585059537141"><ele>464.0</ele><time>2026-04-19T11:23:17Z</time></trkpt><trkpt lat="45.0868359888" lon="7.797557660772681"><ele>464.0</ele><time>2026-04-19T11:23:19Z</time></trkpt><trkpt lat="45.08675432169888" lon="7.797611906076187"><ele>463.99999999999994</ele><time>2026-04-19T11:23:28.999Z</time></trkpt><trkpt lat="45.086701138765164" lon="7.797696796239461"><ele>464.0</ele><time>2026-04-19T11:23:31.999Z</time></trkpt><trkpt lat="45.08666296305839" lon="7.797769576224273"><ele>463.99999999999994</ele><time>2026-04-19T11:23:33.999Z</time></trkpt><trkpt lat="45.08663870783033" lon="7.797873770166795"><ele>464.0</ele><time>2026-04-19T11:23:36.999Z</time></trkpt><trkpt lat="45.08659281322832" lon="7.797963401823306"><ele>464.0</ele><time>2026-04-19T11:23:41.999Z</time></trkpt><trkpt lat="45.08655409922599" lon="7.798062914522273"><ele>464.0</ele><time>2026-04-19T11:23:46.999Z</time></trkpt><trkpt lat="45.08651208650962" lon="7.798156263579925"><ele>463.99999999999994</ele><time>2026-04-19T11:23:54.999Z</time></trkpt><trkpt lat="45.08647457528208" lon="7.798234209427036"><ele>464.0</ele><time>2026-04-19T11:23:59.999Z</time></trkpt><trkpt lat="45.086417426473325" lon="7.798294996604708"><ele>464.00000000000006</ele><time>2026-04-19T11:24:03.999Z</time></trkpt><trkpt lat="45.08635552702104" lon="7.7983390017134955"><ele>464.0</ele><time>2026-04-19T11:24:08.999Z</time></trkpt><trkpt lat="45.08643048627334" lon="7.79833272456186"><ele>464.00000000000006</ele><time>2026-04-19T11:24:28Z</time></trkpt><trkpt lat="45.086501270657784" lon="7.798313060685402"><ele>464.00000000000006</ele><time>2026-04-19T11:24:32Z</time></trkpt><trkpt lat="45.086546412086534" lon="7.798239907819216"><ele>464.0</ele><time>2026-04-19T11:24:40Z</time></trkpt><trkpt lat="45.08659752651232" lon="7.798169849184523"><ele>464.00000000000006</ele><time>2026-04-19T11:24:44Z</time></trkpt><trkpt lat="45.08659046567557" lon="7.798259795832256"><ele>464.00000000000006</ele><time>2026-04-19T11:25:06.999Z</time></trkpt><trkpt lat="45.08660283408631" lon="7.798351521946942"><ele>463.99999999999994</ele><time>2026-04-19T11:25:13.999Z</time></trkpt><trkpt lat="45.08660407916025" lon="7.798475307623558"><ele>464.0</ele><time>2026-04-19T11:25:18.999Z</time></trkpt><trkpt lat="45.08657586289843" lon="7.798586188736808"><ele>464.0</ele><time>2026-04-19T11:25:21.999Z</time></trkpt><trkpt lat="45.086555122063466" lon="7.798678462381132"><ele>464.0</ele><time>2026-04-19T11:25:24.999Z</time></trkpt><trkpt lat="45.08653584276617" lon="7.798786302645093"><ele>463.99999999999994</ele><time>2026-04-19T11:25:26.999Z</time></trkpt><trkpt lat="45.08652739090963" lon="7.798886209721201"><ele>464.0</ele><time>2026-04-19T11:25:28.999Z</time></trkpt><trkpt lat="45.08649813107592" lon="7.798981230848655"><ele>462.49999999999994</ele><time>2026-04-19T11:25:30.999Z</time></trkpt><trkpt lat="45.08650325157964" lon="7.79907645243773"><ele>461.0</ele><time>2026-04-19T11:25:32.999Z</time></trkpt><trkpt lat="45.08651843338181" lon="7.799163381991947"><ele>459.5</ele><time>2026-04-19T11:25:34.999Z</time></trkpt><trkpt lat="45.08652313996668" lon="7.799278077634879"><ele>458.0</ele><time>2026-04-19T11:25:37.999Z</time></trkpt><trkpt lat="45.08653092609851" lon="7.799387530835994"><ele>456.49999999999994</ele><time>2026-04-19T11:25:40.999Z</time></trkpt><trkpt lat="45.08654649240099" lon="7.799522876252909"><ele>455.0</ele><time>2026-04-19T11:25:44.999Z</time></trkpt><trkpt lat="45.08650849706019" lon="7.799595835674343"><ele>453.0</ele><time>2026-04-19T11:25:47.999Z</time></trkpt><trkpt lat="45.08652981775965" lon="7.799687581706322"><ele>451.0</ele><time>2026-04-19T11:25:49.999Z</time></trkpt><trkpt lat="45.08652658044627" lon="7.799795184059436"><ele>449.0</ele><time>2026-04-19T11:25:52.999Z</time></trkpt><trkpt lat="45.08646760526309" lon="7.799844730801914"><ele>447.0</ele><time>2026-04-19T11:25:55.999Z</time></trkpt><trkpt lat="45.086410646568794" lon="7.799804594260894"><ele>445.0</ele><time>2026-04-19T11:25:58.999Z</time></trkpt><trkpt lat="45.08635344671636" lon="7.799759137292767"><ele>443.0</ele><time>2026-04-19T11:26:05.999Z</time></trkpt><trkpt lat="45.08627790729829" lon="7.799747592639477"><ele>441.0</ele><time>2026-04-19T11:26:09.999Z</time></trkpt><trkpt lat="45.08620641390006" lon="7.799728639518972"><ele>441.0</ele><time>2026-04-19T11:26:13.999Z</time></trkpt><trkpt lat="45.086141359546836" lon="7.799741273316956"><ele>441.0</ele><time>2026-04-19T11:26:15.999Z</time></trkpt><trkpt lat="45.086079759371295" lon="7.799772169238962"><ele>441.0</ele><time>2026-04-19T11:26:20Z</time></trkpt><trkpt lat="45.086056584104995" lon="7.7998658206946665"><ele>441.0</ele><time>2026-04-19T11:26:24Z</time></trkpt><trkpt lat="45.08612203176215" lon="7.7999294165298645"><ele>441.0</ele><time>2026-04-19T11:26:29Z</time></trkpt><trkpt lat="45.086170885353994" lon="7.800019482279227"><ele>441.0</ele><time>2026-04-19T11:26:33Z</time></trkpt><trkpt lat="45.08622517816631" lon="7.800103077857458"><ele>441.0</ele><time>2026-04-19T11:26:37Z</time></trkpt><trkpt lat="45.08626515171049" lon="7.800224171924023"><ele>438.7142857142857</ele><time>2026-04-19T11:26:41Z</time></trkpt><trkpt lat="45.08630641658512" lon="7.800294484168201"><ele>436.42857142857144</ele><time>2026-04-19T11:26:44Z</time></trkpt><trkpt lat="45.08631570409597" lon="7.80039606933532"><ele>434.1428571428571</ele><time>2026-04-19T11:26:48Z</time></trkpt><trkpt lat="45.08634609580688" lon="7.800499195842532"><ele>431.8571428571429</ele><time>2026-04-19T11:26:54Z</time></trkpt><trkpt lat="45.086396254896805" lon="7.8005781877808404"><ele>429.57142857142856</ele><time>2026-04-19T11:27:02Z</time></trkpt><trkpt lat="45.08644338373772" lon="7.800640715448517"><ele>427.2857142857143</ele><time>2026-04-19T11:27:06Z</time></trkpt><trkpt lat="45.08649711305435" lon="7.8006939132076285"><ele>425.0</ele><time>2026-04-19T11:27:08Z</time></trkpt><trkpt lat="45.086512093539646" lon="7.800787385755342"><ele>424.99999999999994</ele><time>2026-04-19T11:27:28Z</time></trkpt><trkpt lat="45.08649660137149" lon="7.80088027529749"><ele>425.0</ele><time>2026-04-19T11:27:48Z</time></trkpt><trkpt lat="45.086536398735845" lon="7.800958339483803"><ele>425.0</ele><time>2026-04-19T11:28:00.999Z</time></trkpt><trkpt lat="45.086536224494296" lon="7.801065892387886"><ele>425.0</ele><time>2026-04-19T11:28:09.999Z</time></trkpt><trkpt lat="45.086560321304916" lon="7.801161280618343"><ele>424.99999999999994</ele><time>2026-04-19T11:28:13.999Z</time></trkpt><trkpt lat="45.086694422188764" lon="7.801186486127109"><ele>425.0</ele><time>2026-04-19T11:28:31.001Z</time></trkpt><trkpt lat="45.086748755941954" lon="7.801250057390219"><ele>422.0</ele><time>2026-04-19T11:28:39.001Z</time></trkpt><trkpt lat="45.0868103338583" lon="7.801287151574079"><ele>419.0</ele><time>2026-04-19T11:29:00Z</time></trkpt><trkpt lat="45.086851688110706" lon="7.801358127336642"><ele>416.0</ele><time>2026-04-19T11:29:20Z</time></trkpt><trkpt lat="45.08689511049399" lon="7.8014232146418925"><ele>413.0</ele><time>2026-04-19T11:29:37Z</time></trkpt><trkpt lat="45.08691650523691" lon="7.80151235803246"><ele>410.0</ele><time>2026-04-19T11:29:42Z</time></trkpt><trkpt lat="45.086959591505845" lon="7.801580916035807"><ele>407.0</ele><time>2026-04-19T11:29:51Z</time></trkpt><trkpt lat="45.087010753844226" lon="7.801643365731404"><ele>404.0</ele><time>2026-04-19T11:30:04Z</time></trkpt><trkpt lat="45.08702825417159" lon="7.801730911010072"><ele>403.99999999999994</ele><time>2026-04-19T11:30:12Z</time></trkpt><trkpt lat="45.08706860400644" lon="7.801800914160801"><ele>404.0</ele><time>2026-04-19T11:30:23.999Z</time></trkpt><trkpt lat="45.08714178306243" lon="7.801848619233534"><ele>404.0</ele><time>2026-04-19T11:30:40.001Z</time></trkpt><trkpt lat="45.087073324418675" lon="7.801942257120478"><ele>404.0</ele><time>2026-04-19T11:31:37Z</time></trkpt><trkpt lat="45.087117868862514" lon="7.802058981752324"><ele>403.99999999999994</ele><time>2026-04-19T11:34:02.999Z</time></trkpt><trkpt lat="45.08716784949921" lon="7.802133771116439"><ele>404.0</ele><time>2026-04-19T11:34:14.999Z</time></trkpt><trkpt lat="45.08721907453562" lon="7.802227431938849"><ele>404.8333333333333</ele><time>2026-04-19T11:34:20.999Z</time></trkpt><trkpt lat="45.087290952099714" lon="7.802304816938513"><ele>405.66666666666663</ele><time>2026-04-19T11:34:24.999Z</time></trkpt><trkpt lat="45.08735484460896" lon="7.802391911009867"><ele>406.5</ele><time>2026-04-19T11:34:27.999Z</time></trkpt><trkpt lat="45.08744154839451" lon="7.802400428162424"><ele>407.33333333333337</ele><time>2026-04-19T11:34:32.999Z</time></trkpt><trkpt lat="45.08748703737786" lon="7.802472861582459"><ele>408.1666666666667</ele><time>2026-04-19T11:34:38.999Z</time></trkpt><trkpt lat="45.08754263731629" lon="7.8025230269890296"><ele>409.0</ele><time>2026-04-19T11:34:41.999Z</time></trkpt><trkpt lat="45.08760583443181" lon="7.802576492552389"><ele>407.33333333333337</ele><time>2026-04-19T11:34:47.001Z</time></trkpt><trkpt lat="45.08765652081642" lon="7.8026525476504345"><ele>405.6666666666667</ele><time>2026-04-19T11:34:50.001Z</time></trkpt><trkpt lat="45.0877423994974" lon="7.802706414911474"><ele>404.0</ele><time>2026-04-19T11:34:53.001Z</time></trkpt><trkpt lat="45.08778111277339" lon="7.802777146195956"><ele>402.33333333333337</ele><time>2026-04-19T11:34:56.001Z</time></trkpt><trkpt lat="45.08782968808212" lon="7.802886640861991"><ele>400.6666666666667</ele><time>2026-04-19T11:35:01Z</time></trkpt><trkpt lat="45.08783821798091" lon="7.802990892331182"><ele>399.0</ele><time>2026-04-19T11:35:05Z</time></trkpt><trkpt lat="45.087880978357376" lon="7.803062006631996"><ele>399.0</ele><time>2026-04-19T11:35:08Z</time></trkpt><trkpt lat="45.08792067823008" lon="7.803144209452554"><ele>399.0</ele><time>2026-04-19T11:35:10Z</time></trkpt><trkpt lat="45.088015014396476" lon="7.8031553710254915"><ele>399.0</ele><time>2026-04-19T11:35:13Z</time></trkpt><trkpt lat="45.088061629431984" lon="7.8032223896939"><ele>399.0</ele><time>2026-04-19T11:35:15Z</time></trkpt><trkpt lat="45.08811531906217" lon="7.803312410247766"><ele>399.0</ele><time>2026-04-19T11:35:17Z</time></trkpt><trkpt lat="45.08817072325335" lon="7.803380850557386"><ele>399.0</ele><time>2026-04-19T11:35:19Z</time></trkpt><trkpt lat="45.08820277805824" lon="7.803476468574698"><ele>398.0</ele><time>2026-04-19T11:35:21Z</time></trkpt><trkpt lat="45.088234278270114" lon="7.803569009058008"><ele>397.0</ele><time>2026-04-19T11:35:23Z</time></trkpt><trkpt lat="45.088277489285765" lon="7.803653112075418"><ele>396.0</ele><time>2026-04-19T11:35:26Z</time></trkpt><trkpt lat="45.08830233315513" lon="7.803772902558275"><ele>395.0</ele><time>2026-04-19T11:35:29Z</time></trkpt><trkpt lat="45.08823354325785" lon="7.803778159418557"><ele>394.0</ele><time>2026-04-19T11:35:33Z</time></trkpt><trkpt lat="45.08816986884755" lon="7.8038518136188015"><ele>393.0</ele><time>2026-04-19T11:35:37Z</time></trkpt><trkpt lat="45.0881185071836" lon="7.803904989504922"><ele>392.0</ele><time>2026-04-19T11:35:44Z</time></trkpt><trkpt lat="45.088084064491106" lon="7.804007956127515"><ele>392.0</ele><time>2026-04-19T11:35:49.999Z</time></trkpt><trkpt lat="45.088019780500694" lon="7.804054210430627"><ele>392.0</ele><time>2026-04-19T11:35:55.999Z</time></trkpt><trkpt lat="45.08797552751325" lon="7.80413109176946"><ele>392.0</ele><time>2026-04-19T11:36:02.999Z</time></trkpt><trkpt lat="45.08793951414277" lon="7.804224201059876"><ele>392.0</ele><time>2026-04-19T11:36:08.999Z</time></trkpt><trkpt lat="45.087893954028615" lon="7.804320347253329"><ele>392.0</ele><time>2026-04-19T11:36:14.999Z</time></trkpt><trkpt lat="45.0878463811245" lon="7.8043883595886"><ele>392.0</ele><time>2026-04-19T11:36:19.999Z</time></trkpt><trkpt lat="45.08787676831106" lon="7.804467091330403"><ele>392.0</ele><time>2026-04-19T11:36:24.999Z</time></trkpt><trkpt lat="45.08782554661047" lon="7.804525988205381"><ele>391.7142857142857</ele><time>2026-04-19T11:36:28.999Z</time></trkpt><trkpt lat="45.087776027604455" lon="7.804583630928763"><ele>391.42857142857144</ele><time>2026-04-19T11:36:33.999Z</time></trkpt><trkpt lat="45.08772933412535" lon="7.804646401079966"><ele>391.1428571428571</ele><time>2026-04-19T11:36:38.999Z</time></trkpt><trkpt lat="45.0876879068284" lon="7.8047292945989755"><ele>390.8571428571429</ele><time>2026-04-19T11:36:43.999Z</time></trkpt><trkpt lat="45.08767256154873" lon="7.804820111803141"><ele>390.57142857142856</ele><time>2026-04-19T11:36:50Z</time></trkpt><trkpt lat="45.08767196792096" lon="7.804916277835759"><ele>390.2857142857143</ele><time>2026-04-19T11:36:57Z</time></trkpt><trkpt lat="45.087692195648096" lon="7.805009843515419"><ele>390.0</ele><time>2026-04-19T11:37:01Z</time></trkpt><trkpt lat="45.08769913279759" lon="7.805103076767458"><ele>390.8333333333333</ele><time>2026-04-19T11:37:10Z</time></trkpt><trkpt lat="45.08767532929981" lon="7.805308096609268"><ele>391.66666666666663</ele><time>2026-04-19T11:37:21Z</time></trkpt><trkpt lat="45.08767612648253" lon="7.805401526251953"><ele>392.5</ele><time>2026-04-19T11:37:26Z</time></trkpt><trkpt lat="45.08765177740801" lon="7.805501987724173"><ele>393.3333333333333</ele><time>2026-04-19T11:37:30Z</time></trkpt><trkpt lat="45.08761653030862" lon="7.805587258699235"><ele>394.16666666666663</ele><time>2026-04-19T11:37:35Z</time></trkpt><trkpt lat="45.08757683760079" lon="7.805659445620683"><ele>395.0</ele><time>2026-04-19T11:37:47.999Z</time></trkpt><trkpt lat="45.0875411397848" lon="7.805737174287465"><ele>395.0</ele><time>2026-04-19T11:37:54.999Z</time></trkpt><trkpt lat="45.08749134806676" lon="7.805807618910619"><ele>395.0</ele><time>2026-04-19T11:37:58.999Z</time></trkpt><trkpt lat="45.08743761002896" lon="7.805877123525549"><ele>395.0</ele><time>2026-04-19T11:38:02.999Z</time></trkpt><trkpt lat="45.08738213624958" lon="7.805958166821623"><ele>395.0</ele><time>2026-04-19T11:38:06.999Z</time></trkpt><trkpt lat="45.087344483237246" lon="7.806033554211059"><ele>395.0</ele><time>2026-04-19T11:38:09.999Z</time></trkpt><trkpt lat="45.08731493815014" lon="7.806116790222461"><ele>395.0</ele><time>2026-04-19T11:38:12.999Z</time></trkpt><trkpt lat="45.08727825297529" lon="7.806212655828809"><ele>395.0</ele><time>2026-04-19T11:38:15.999Z</time></trkpt><trkpt lat="45.087240243047255" lon="7.806324841500273"><ele>394.99999999999994</ele><time>2026-04-19T11:38:18.999Z</time></trkpt><trkpt lat="45.087208892904684" lon="7.806431299345088"><ele>395.0</ele><time>2026-04-19T11:38:21.999Z</time></trkpt><trkpt lat="45.08717605153756" lon="7.806545275393725"><ele>395.0</ele><time>2026-04-19T11:38:24.999Z</time></trkpt><trkpt lat="45.08714417396348" lon="7.806629365265895"><ele>395.0</ele><time>2026-04-19T11:38:26.999Z</time></trkpt><trkpt lat="45.08710171359671" lon="7.806735725259449"><ele>394.99999999999994</ele><time>2026-04-19T11:38:29.999Z</time></trkpt><trkpt lat="45.087051409989996" lon="7.806856756828923"><ele>395.0</ele><time>2026-04-19T11:38:33.999Z</time></trkpt><trkpt lat="45.0870171534261" lon="7.806934868032686"><ele>395.0</ele><time>2026-04-19T11:38:35.999Z</time></trkpt><trkpt lat="45.086953909943816" lon="7.807036387995574"><ele>395.0</ele><time>2026-04-19T11:38:37.999Z</time></trkpt><trkpt lat="45.086886362337296" lon="7.8071300808587525"><ele>395.0</ele><time>2026-04-19T11:38:39.999Z</time></trkpt><trkpt lat="45.08681864224192" lon="7.807243600670689"><ele>395.0</ele><time>2026-04-19T11:38:41.999Z</time></trkpt><trkpt lat="45.08670921879869" lon="7.807329153884173"><ele>395.0</ele><time>2026-04-19T11:38:44.999Z</time></trkpt><trkpt lat="45.08664041005105" lon="7.807422231157919"><ele>396.49999999999994</ele><time>2026-04-19T11:38:46.999Z</time></trkpt><trkpt lat="45.08657659443392" lon="7.807518943889228"><ele>398.0</ele><time>2026-04-19T11:38:48.998Z</time></trkpt><trkpt lat="45.08649525527352" lon="7.807574336059882"><ele>399.5</ele><time>2026-04-19T11:38:51.998Z</time></trkpt><trkpt lat="45.086430366042016" lon="7.807687379977807"><ele>401.0</ele><time>2026-04-19T11:38:53.998Z</time></trkpt><trkpt lat="45.08638129730741" lon="7.807749100061872"><ele>402.49999999999994</ele><time>2026-04-19T11:38:56Z</time></trkpt><trkpt lat="45.08636753319884" lon="7.807845217880941"><ele>404.0</ele><time>2026-04-19T11:39:02Z</time></trkpt><trkpt lat="45.08631618555487" lon="7.807915698501649"><ele>404.57142857142856</ele><time>2026-04-19T11:39:05Z</time></trkpt><trkpt lat="45.086257115311135" lon="7.80797887419772"><ele>405.1428571428571</ele><time>2026-04-19T11:39:09Z</time></trkpt><trkpt lat="45.08622313364219" lon="7.808057544881907"><ele>405.7142857142857</ele><time>2026-04-19T11:39:13Z</time></trkpt><trkpt lat="45.086209436004246" lon="7.80814777357621"><ele>406.2857142857143</ele><time>2026-04-19T11:39:16Z</time></trkpt><trkpt lat="45.08619203632597" lon="7.808273605157245"><ele>406.8571428571429</ele><time>2026-04-19T11:39:21Z</time></trkpt><trkpt lat="45.08617761280409" lon="7.80836661136648"><ele>407.42857142857144</ele><time>2026-04-19T11:39:26Z</time></trkpt><trkpt lat="45.08616587845505" lon="7.808472317612817"><ele>408.0</ele><time>2026-04-19T11:39:29Z</time></trkpt><trkpt lat="45.086175028248725" lon="7.808577978257197"><ele>408.14285714285717</ele><time>2026-04-19T11:39:34Z</time></trkpt><trkpt lat="45.08616606635478" lon="7.808676360539851"><ele>408.28571428571433</ele><time>2026-04-19T11:39:38Z</time></trkpt><trkpt lat="45.086158806979306" lon="7.808779963331441"><ele>408.42857142857144</ele><time>2026-04-19T11:39:43Z</time></trkpt><trkpt lat="45.08613922991677" lon="7.808888567998034"><ele>408.57142857142856</ele><time>2026-04-19T11:39:47Z</time></trkpt><trkpt lat="45.086111654290626" lon="7.808992468470534"><ele>408.7142857142857</ele><time>2026-04-19T11:39:51.999Z</time></trkpt><trkpt lat="45.08608014252721" lon="7.809074168329913"><ele>408.85714285714283</ele><time>2026-04-19T11:39:59.999Z</time></trkpt><trkpt lat="45.08604318437412" lon="7.809162402120192"><ele>409.0</ele><time>2026-04-19T11:40:05.999Z</time></trkpt><trkpt lat="45.08601205512037" lon="7.809250236662449"><ele>410.2857142857143</ele><time>2026-04-19T11:40:11.999Z</time></trkpt><trkpt lat="45.08597379569178" lon="7.80932685830204"><ele>411.5714285714286</ele><time>2026-04-19T11:40:18.999Z</time></trkpt><trkpt lat="45.08594962307825" lon="7.809421432611914"><ele>412.8571428571429</ele><time>2026-04-19T11:40:26.999Z</time></trkpt><trkpt lat="45.08590872420851" lon="7.809507560931715"><ele>414.1428571428571</ele><time>2026-04-19T11:40:33.999Z</time></trkpt><trkpt lat="45.085903061613514" lon="7.809597371715371"><ele>415.42857142857144</ele><time>2026-04-19T11:40:40.999Z</time></trkpt><trkpt lat="45.085861822370575" lon="7.809671316231898"><ele>416.7142857142857</ele><time>2026-04-19T11:40:47.998Z</time></trkpt><trkpt lat="45.085834379071805" lon="7.809751658311512"><ele>418.0</ele><time>2026-04-19T11:40:56.998Z</time></trkpt><trkpt lat="45.08579999198253" lon="7.80983183273106"><ele>418.0</ele><time>2026-04-19T11:41:05Z</time></trkpt><trkpt lat="45.08577834196536" lon="7.809919268706223"><ele>418.0</ele><time>2026-04-19T11:41:13Z</time></trkpt><trkpt lat="45.08574696282103" lon="7.809997853636149"><ele>418.0</ele><time>2026-04-19T11:41:21Z</time></trkpt><trkpt lat="45.08572542027638" lon="7.8101014624565"><ele>418.0</ele><time>2026-04-19T11:41:29Z</time></trkpt><trkpt lat="45.08570849280167" lon="7.81019124592355"><ele>418.0</ele><time>2026-04-19T11:41:36Z</time></trkpt><trkpt lat="45.08570035846811" lon="7.810282550155127"><ele>418.0</ele><time>2026-04-19T11:41:42Z</time></trkpt><trkpt lat="45.085710177526316" lon="7.810372429410991"><ele>418.0</ele><time>2026-04-19T11:41:51.999Z</time></trkpt><trkpt lat="45.085691423330516" lon="7.810473249645744"><ele>417.85714285714283</ele><time>2026-04-19T11:41:56.999Z</time></trkpt><trkpt lat="45.0856875052621" lon="7.810571439686328"><ele>417.71428571428567</ele><time>2026-04-19T11:41:59.999Z</time></trkpt><trkpt lat="45.08569132081091" lon="7.810691909880575"><ele>417.57142857142856</ele><time>2026-04-19T11:42:02.999Z</time></trkpt><trkpt lat="45.08567633349704" lon="7.810784550114404"><ele>417.42857142857144</ele><time>2026-04-19T11:42:04.999Z</time></trkpt><trkpt lat="45.08566015058085" lon="7.8109017175489335"><ele>417.2857142857143</ele><time>2026-04-19T11:42:07.999Z</time></trkpt><trkpt lat="45.08562563119597" lon="7.810984750430864"><ele>417.14285714285717</ele><time>2026-04-19T11:42:09.999Z</time></trkpt><trkpt lat="45.08559250306319" lon="7.811076703040832"><ele>417.0</ele><time>2026-04-19T11:42:12.999Z</time></trkpt><trkpt lat="45.08554496580881" lon="7.81116202673947"><ele>418.3333333333333</ele><time>2026-04-19T11:42:14.999Z</time></trkpt><trkpt lat="45.0854920744042" lon="7.811244784433705"><ele>419.66666666666663</ele><time>2026-04-19T11:42:16.999Z</time></trkpt><trkpt lat="45.08543467379153" lon="7.811333161678454"><ele>421.0</ele><time>2026-04-19T11:42:20.999Z</time></trkpt><trkpt lat="45.085407075397754" lon="7.8114366685053644"><ele>422.3333333333333</ele><time>2026-04-19T11:42:24.999Z</time></trkpt><trkpt lat="45.08539377989109" lon="7.811539639444929"><ele>423.66666666666663</ele><time>2026-04-19T11:42:28.999Z</time></trkpt><trkpt lat="45.08539365993286" lon="7.811643523012262"><ele>425.0</ele><time>2026-04-19T11:42:32.999Z</time></trkpt><trkpt lat="45.08540137800017" lon="7.811743982093211"><ele>425.7142857142857</ele><time>2026-04-19T11:42:36.999Z</time></trkpt><trkpt lat="45.08541131936324" lon="7.811857225183786"><ele>426.42857142857144</ele><time>2026-04-19T11:42:40.999Z</time></trkpt><trkpt lat="45.08542235459628" lon="7.811947747166975"><ele>427.1428571428571</ele><time>2026-04-19T11:42:43.999Z</time></trkpt><trkpt lat="45.08543537225414" lon="7.8120354188238155"><ele>427.8571428571429</ele><time>2026-04-19T11:42:46.999Z</time></trkpt><trkpt lat="45.08545619552121" lon="7.8121335405889125"><ele>428.5714285714286</ele><time>2026-04-19T11:42:50.999Z</time></trkpt><trkpt lat="45.085474413380716" lon="7.8122365093437525"><ele>429.2857142857143</ele><time>2026-04-19T11:42:55.998Z</time></trkpt><trkpt lat="45.08548848671789" lon="7.812325151073039"><ele>430.0</ele><time>2026-04-19T11:42:58.998Z</time></trkpt><trkpt lat="45.08549947031063" lon="7.81242219170913"><ele>430.0</ele><time>2026-04-19T11:43:02.998Z</time></trkpt><trkpt lat="45.085484731451544" lon="7.8125380396984365"><ele>430.0</ele><time>2026-04-19T11:43:06.998Z</time></trkpt><trkpt lat="45.08546536348588" lon="7.812640656571"><ele>430.0</ele><time>2026-04-19T11:43:11Z</time></trkpt><trkpt lat="45.08544268265535" lon="7.812735588226205"><ele>430.0</ele><time>2026-04-19T11:43:15Z</time></trkpt><trkpt lat="45.08542544166673" lon="7.812823710646018"><ele>430.0</ele><time>2026-04-19T11:43:19Z</time></trkpt><trkpt lat="45.08539365749274" lon="7.812904312138751"><ele>430.0</ele><time>2026-04-19T11:43:23Z</time></trkpt><trkpt lat="45.08534478810893" lon="7.812971335971446"><ele>430.0</ele><time>2026-04-19T11:43:28Z</time></trkpt><trkpt lat="45.08529934280228" lon="7.813033076986499"><ele>430.4285714285714</ele><time>2026-04-19T11:43:32Z</time></trkpt><trkpt lat="45.08524105816865" lon="7.813067544274651"><ele>430.8571428571429</ele><time>2026-04-19T11:43:36Z</time></trkpt><trkpt lat="45.085187082857736" lon="7.8131164514822"><ele>431.2857142857143</ele><time>2026-04-19T11:43:42Z</time></trkpt><trkpt lat="45.085126579821704" lon="7.813147930147161"><ele>431.71428571428567</ele><time>2026-04-19T11:43:46.999Z</time></trkpt><trkpt lat="45.08507429442629" lon="7.813204473383557"><ele>432.1428571428571</ele><time>2026-04-19T11:43:52.999Z</time></trkpt><trkpt lat="45.08502352920969" lon="7.813271551933176"><ele>432.57142857142856</ele><time>2026-04-19T11:43:59.999Z</time></trkpt><trkpt lat="45.08500083226847" lon="7.813368013520163"><ele>433.0</ele><time>2026-04-19T11:44:08.999Z</time></trkpt><trkpt lat="45.08495064503353" lon="7.81344557937694"><ele>433.4285714285714</ele><time>2026-04-19T11:44:15.999Z</time></trkpt><trkpt lat="45.08490686363643" lon="7.813513262534621"><ele>433.85714285714283</ele><time>2026-04-19T11:44:20.999Z</time></trkpt><trkpt lat="45.08487136729456" lon="7.813587685793613"><ele>434.2857142857143</ele><time>2026-04-19T11:44:25.999Z</time></trkpt><trkpt lat="45.084789991578546" lon="7.813594190902609"><ele>434.71428571428567</ele><time>2026-04-19T11:44:30.999Z</time></trkpt><trkpt lat="45.08472532315508" lon="7.813624594832002"><ele>435.14285714285717</ele><time>2026-04-19T11:44:34.999Z</time></trkpt><trkpt lat="45.08465991406191" lon="7.813682865841427"><ele>435.57142857142856</ele><time>2026-04-19T11:44:38.999Z</time></trkpt><trkpt lat="45.08459509026332" lon="7.813724459793961"><ele>436.0</ele><time>2026-04-19T11:44:42.999Z</time></trkpt><trkpt lat="45.08452894219514" lon="7.813763944104099"><ele>436.0</ele><time>2026-04-19T11:44:46.998Z</time></trkpt><trkpt lat="45.08445428647559" lon="7.8137761458157335"><ele>436.0</ele><time>2026-04-19T11:44:50.998Z</time></trkpt><trkpt lat="45.08438302926851" lon="7.81379929603764"><ele>436.0</ele><time>2026-04-19T11:44:54.998Z</time></trkpt><trkpt lat="45.08431657671447" lon="7.813794093292438"><ele>436.0</ele><time>2026-04-19T11:44:58.998Z</time></trkpt><trkpt lat="45.084252475762256" lon="7.8137917408807525"><ele>436.0</ele><time>2026-04-19T11:45:02.998Z</time></trkpt><trkpt lat="45.084172776406405" lon="7.8137703240263265"><ele>436.0</ele><time>2026-04-19T11:45:07.998Z</time></trkpt><trkpt lat="45.084093574976926" lon="7.813759957366176"><ele>436.0</ele><time>2026-04-19T11:45:12.998Z</time></trkpt><trkpt lat="45.0840173980281" lon="7.813733908371549"><ele>438.57142857142856</ele><time>2026-04-19T11:45:17.999Z</time></trkpt><trkpt lat="45.08395176570171" lon="7.813720019395737"><ele>441.14285714285717</ele><time>2026-04-19T11:45:21.999Z</time></trkpt><trkpt lat="45.083881254132464" lon="7.813711568552137"><ele>443.7142857142857</ele><time>2026-04-19T11:45:25.999Z</time></trkpt><trkpt lat="45.08381584672032" lon="7.813668729706579"><ele>446.28571428571433</ele><time>2026-04-19T11:45:30Z</time></trkpt><trkpt lat="45.083757374633855" lon="7.813633955783881"><ele>448.8571428571429</ele><time>2026-04-19T11:45:33Z</time></trkpt><trkpt lat="45.08368058639431" lon="7.813647951873713"><ele>451.42857142857144</ele><time>2026-04-19T11:45:35.999Z</time></trkpt><trkpt lat="45.08360634786619" lon="7.813674000726489"><ele>454.0</ele><time>2026-04-19T11:45:38.999Z</time></trkpt><trkpt lat="45.083529490561816" lon="7.813725054674929"><ele>454.0</ele><time>2026-04-19T11:45:40.999Z</time></trkpt><trkpt lat="45.08345741904984" lon="7.813754399873263"><ele>454.0</ele><time>2026-04-19T11:45:42.999Z</time></trkpt><trkpt lat="45.0833669156434" lon="7.813804180389215"><ele>454.0</ele><time>2026-04-19T11:45:44.999Z</time></trkpt><trkpt lat="45.0832668591516" lon="7.813858131393806"><ele>454.0</ele><time>2026-04-19T11:45:46.999Z</time></trkpt><trkpt lat="45.083185872203984" lon="7.813940230327318"><ele>454.0</ele><time>2026-04-19T11:45:48.999Z</time></trkpt><trkpt lat="45.08318235224988" lon="7.814062057215501"><ele>453.6666666666667</ele><time>2026-04-19T11:45:50.999Z</time></trkpt><trkpt lat="45.083169512462916" lon="7.814192040288779"><ele>453.33333333333337</ele><time>2026-04-19T11:45:52.999Z</time></trkpt><trkpt lat="45.0832023212378" lon="7.814290861944283"><ele>453.0</ele><time>2026-04-19T11:45:54.999Z</time></trkpt><trkpt lat="45.0832680300417" lon="7.8143826843932525"><ele>452.66666666666663</ele><time>2026-04-19T11:45:57.999Z</time></trkpt><trkpt lat="45.08330672110616" lon="7.814506074287007"><ele>452.3333333333333</ele><time>2026-04-19T11:46:00.999Z</time></trkpt><trkpt lat="45.083330006419224" lon="7.8146266324826765"><ele>452.0</ele><time>2026-04-19T11:46:03.999Z</time></trkpt><trkpt lat="45.08333364259529" lon="7.81475001234961"><ele>451.99999999999994</ele><time>2026-04-19T11:46:06.999Z</time></trkpt><trkpt lat="45.083320745083235" lon="7.814853938743003"><ele>452.0</ele><time>2026-04-19T11:46:08.999Z</time></trkpt><trkpt lat="45.08334074327604" lon="7.8149681376812135"><ele>452.0</ele><time>2026-04-19T11:46:10.999Z</time></trkpt><trkpt lat="45.083371368463666" lon="7.81507262559477"><ele>452.0</ele><time>2026-04-19T11:46:12.999Z</time></trkpt><trkpt lat="45.08342371808926" lon="7.815175301687789"><ele>451.99999999999994</ele><time>2026-04-19T11:46:14.999Z</time></trkpt><trkpt lat="45.08340627777627" lon="7.815300813522106"><ele>452.0</ele><time>2026-04-19T11:46:16.999Z</time></trkpt><trkpt lat="45.08339088788267" lon="7.815426377339286"><ele>451.40000000000003</ele><time>2026-04-19T11:46:18.999Z</time></trkpt><trkpt lat="45.08333234014455" lon="7.81554019037135"><ele>450.80000000000007</ele><time>2026-04-19T11:46:20.999Z</time></trkpt><trkpt lat="45.08326076166567" lon="7.815652228873492"><ele>450.2</ele><time>2026-04-19T11:46:22.999Z</time></trkpt><trkpt lat="45.08319968212758" lon="7.815746893076524"><ele>449.6</ele><time>2026-04-19T11:46:24.999Z</time></trkpt><trkpt lat="45.083142581522445" lon="7.815882445096741"><ele>449.0</ele><time>2026-04-19T11:46:26.999Z</time></trkpt><trkpt lat="45.08311603050597" lon="7.816037833560181"><ele>449.79999999999995</ele><time>2026-04-19T11:46:28.999Z</time></trkpt><trkpt lat="45.083135954138825" lon="7.816198923139316"><ele>450.59999999999997</ele><time>2026-04-19T11:46:30.999Z</time></trkpt><trkpt lat="45.08317765071077" lon="7.816326742234318"><ele>451.4</ele><time>2026-04-19T11:46:32.999Z</time></trkpt><trkpt lat="45.083219401560925" lon="7.816441373002383"><ele>452.2</ele><time>2026-04-19T11:46:34.999Z</time></trkpt><trkpt lat="45.08325570620462" lon="7.81655000221161"><ele>453.0</ele><time>2026-04-19T11:46:36.999Z</time></trkpt><trkpt lat="45.0832976204653" lon="7.816675770490968"><ele>453.0</ele><time>2026-04-19T11:46:38.999Z</time></trkpt><trkpt lat="45.08334044974057" lon="7.816815692609957"><ele>453.0</ele><time>2026-04-19T11:46:40.999Z</time></trkpt><trkpt lat="45.08338948416152" lon="7.8169701525928765"><ele>453.0</ele><time>2026-04-19T11:46:42.999Z</time></trkpt><trkpt lat="45.08342071150323" lon="7.817056730983289"><ele>453.0</ele><time>2026-04-19T11:46:43.999Z</time></trkpt><trkpt lat="45.08343205083755" lon="7.817151975353237"><ele>453.0</ele><time>2026-04-19T11:46:44.999Z</time></trkpt><trkpt lat="45.083441615528706" lon="7.817240609716492"><ele>453.0</ele><time>2026-04-19T11:46:45.999Z</time></trkpt><trkpt lat="45.0834241077313" lon="7.817333936528807"><ele>452.79999999999995</ele><time>2026-04-19T11:46:46.999Z</time></trkpt><trkpt lat="45.0834281328585" lon="7.817431955555111"><ele>452.59999999999997</ele><time>2026-04-19T11:46:47.999Z</time></trkpt><trkpt lat="45.083455736379534" lon="7.817524725404065"><ele>452.40000000000003</ele><time>2026-04-19T11:46:48.999Z</time></trkpt><trkpt lat="45.083475615294745" lon="7.817701317080541"><ele>452.20000000000005</ele><time>2026-04-19T11:46:50.998Z</time></trkpt><trkpt lat="45.08349152356423" lon="7.817864801308727"><ele>452.0</ele><time>2026-04-19T11:46:52.998Z</time></trkpt><trkpt lat="45.08347159352817" lon="7.818017707681385"><ele>451.99999999999994</ele><time>2026-04-19T11:46:54.998Z</time></trkpt><trkpt lat="45.08343160369627" lon="7.81811604035077"><ele>452.0</ele><time>2026-04-19T11:46:56.998Z</time></trkpt><trkpt lat="45.083434975704265" lon="7.818241471689673"><ele>452.0</ele><time>2026-04-19T11:46:58.998Z</time></trkpt><trkpt lat="45.08342525902538" lon="7.818344025140732"><ele>452.0</ele><time>2026-04-19T11:47:00.998Z</time></trkpt><trkpt lat="45.08342346810552" lon="7.818452984946563"><ele>451.99999999999994</ele><time>2026-04-19T11:47:02.998Z</time></trkpt><trkpt lat="45.08342942817591" lon="7.818548933058953"><ele>452.0</ele><time>2026-04-19T11:47:04.998Z</time></trkpt><trkpt lat="45.08346242873022" lon="7.8186586175773725"><ele>451.14285714285717</ele><time>2026-04-19T11:47:07.998Z</time></trkpt><trkpt lat="45.083485798001355" lon="7.818758988302651"><ele>450.2857142857143</ele><time>2026-04-19T11:47:10.998Z</time></trkpt><trkpt lat="45.0834940928098" lon="7.818863616400115"><ele>449.42857142857144</ele><time>2026-04-19T11:47:13.998Z</time></trkpt><trkpt lat="45.08352304774676" lon="7.8189483280995855"><ele>448.57142857142856</ele><time>2026-04-19T11:47:16.998Z</time></trkpt><trkpt lat="45.08354342435716" lon="7.819036514189519"><ele>447.71428571428567</ele><time>2026-04-19T11:47:20.999Z</time></trkpt><trkpt lat="45.08355630346769" lon="7.819124851906666"><ele>446.85714285714283</ele><time>2026-04-19T11:47:24.999Z</time></trkpt><trkpt lat="45.08358198607546" lon="7.819213959919046"><ele>446.0</ele><time>2026-04-19T11:47:29.999Z</time></trkpt><trkpt lat="45.08361130972477" lon="7.8193171619031006"><ele>446.0</ele><time>2026-04-19T11:47:35.999Z</time></trkpt><trkpt lat="45.083645070408586" lon="7.819406898513676"><ele>446.0</ele><time>2026-04-19T11:47:41.999Z</time></trkpt><trkpt lat="45.083678127999406" lon="7.819488465234585"><ele>446.0</ele><time>2026-04-19T11:47:46.999Z</time></trkpt><trkpt lat="45.083704153582325" lon="7.81958691261067"><ele>446.0</ele><time>2026-04-19T11:47:51.999Z</time></trkpt><trkpt lat="45.083734047443066" lon="7.81968848842751"><ele>446.0</ele><time>2026-04-19T11:47:56.999Z</time></trkpt><trkpt lat="45.08376516457175" lon="7.819777946382124"><ele>446.0</ele><time>2026-04-19T11:48:01.999Z</time></trkpt><trkpt lat="45.08379384821527" lon="7.819872126682367"><ele>446.0</ele><time>2026-04-19T11:48:06.999Z</time></trkpt><trkpt lat="45.08381973146077" lon="7.819958470001433"><ele>445.99999999999994</ele><time>2026-04-19T11:48:10.999Z</time></trkpt><trkpt lat="45.083853095969616" lon="7.8200488156175485"><ele>446.0</ele><time>2026-04-19T11:48:14.999Z</time></trkpt><trkpt lat="45.08389281945275" lon="7.820150291482233"><ele>446.0</ele><time>2026-04-19T11:48:17.999Z</time></trkpt><trkpt lat="45.08393200438443" lon="7.820232481072182"><ele>446.0</ele><time>2026-04-19T11:48:19.999Z</time></trkpt><trkpt lat="45.08400302700788" lon="7.820345310652385"><ele>445.99999999999994</ele><time>2026-04-19T11:48:21.999Z</time></trkpt><trkpt lat="45.08404310002164" lon="7.820417775037911"><ele>446.0</ele><time>2026-04-19T11:48:22.999Z</time></trkpt><trkpt lat="45.084092199377764" lon="7.820493189144815"><ele>446.8333333333333</ele><time>2026-04-19T11:48:23.999Z</time></trkpt><trkpt lat="45.08411564381345" lon="7.820601351970668"><ele>447.66666666666663</ele><time>2026-04-19T11:48:24.999Z</time></trkpt><trkpt lat="45.084125094534215" lon="7.820711579545953"><ele>448.5</ele><time>2026-04-19T11:48:25.999Z</time></trkpt><trkpt lat="45.08412245782631" lon="7.820817205961676"><ele>449.33333333333337</ele><time>2026-04-19T11:48:26.999Z</time></trkpt><trkpt lat="45.08412415800152" lon="7.820920579254833"><ele>450.1666666666667</ele><time>2026-04-19T11:48:27.999Z</time></trkpt><trkpt lat="45.08412886180067" lon="7.821025750649734"><ele>451.0</ele><time>2026-04-19T11:48:28.999Z</time></trkpt><trkpt lat="45.084130963360835" lon="7.821129543860001"><ele>451.00000000000006</ele><time>2026-04-19T11:48:29.999Z</time></trkpt><trkpt lat="45.08413567501529" lon="7.821231889473218"><ele>451.0</ele><time>2026-04-19T11:48:30.999Z</time></trkpt><trkpt lat="45.08414257612028" lon="7.821325466850978"><ele>451.0</ele><time>2026-04-19T11:48:31.999Z</time></trkpt><trkpt lat="45.084152428195196" lon="7.821421599742163"><ele>451.0</ele><time>2026-04-19T11:48:32.999Z</time></trkpt><trkpt lat="45.084165906356084" lon="7.821509137628328"><ele>451.00000000000006</ele><time>2026-04-19T11:48:33.999Z</time></trkpt><trkpt lat="45.08422530003407" lon="7.8216476153144"><ele>451.0</ele><time>2026-04-19T11:48:35.999Z</time></trkpt><trkpt lat="45.08429926248087" lon="7.82175103235286"><ele>450.57142857142856</ele><time>2026-04-19T11:48:37.999Z</time></trkpt><trkpt lat="45.08435902896293" lon="7.821833445833369"><ele>450.14285714285717</ele><time>2026-04-19T11:48:39.999Z</time></trkpt><trkpt lat="45.08441887711536" lon="7.8218877547578165"><ele>449.7142857142857</ele><time>2026-04-19T11:48:42.999Z</time></trkpt><trkpt lat="45.08446795961498" lon="7.821945016377612"><ele>449.2857142857143</ele><time>2026-04-19T11:48:45.999Z</time></trkpt><trkpt lat="45.084528237122626" lon="7.82200523986279"><ele>448.8571428571429</ele><time>2026-04-19T11:49:13.998Z</time></trkpt><trkpt lat="45.08458013102057" lon="7.822079595741259"><ele>448.42857142857144</ele><time>2026-04-19T11:49:18.998Z</time></trkpt><trkpt lat="45.0846311234247" lon="7.8221335813034125"><ele>448.0</ele><time>2026-04-19T11:49:23.998Z</time></trkpt><trkpt lat="45.08465129413482" lon="7.822228966769303"><ele>448.0</ele><time>2026-04-19T11:49:30.999Z</time></trkpt><trkpt lat="45.08468076310537" lon="7.82232854485521"><ele>448.0</ele><time>2026-04-19T11:49:36.999Z</time></trkpt><trkpt lat="45.08470651039602" lon="7.822423340037928"><ele>448.0</ele><time>2026-04-19T11:49:42.999Z</time></trkpt><trkpt lat="45.084738220827234" lon="7.822517965800974"><ele>448.0</ele><time>2026-04-19T11:49:48.999Z</time></trkpt><trkpt lat="45.08476320951044" lon="7.822613145742688"><ele>448.0</ele><time>2026-04-19T11:49:54.999Z</time></trkpt><trkpt lat="45.084791255942804" lon="7.822711597227625"><ele>448.0</ele><time>2026-04-19T11:50:00.999Z</time></trkpt><trkpt lat="45.084821439995004" lon="7.822794078355243"><ele>448.0</ele><time>2026-04-19T11:50:05.999Z</time></trkpt><trkpt lat="45.08484914028081" lon="7.822881547759531"><ele>449.50000000000006</ele><time>2026-04-19T11:50:09.999Z</time></trkpt><trkpt lat="45.08486721305361" lon="7.82300463057384"><ele>451.0</ele><time>2026-04-19T11:50:12.999Z</time></trkpt><trkpt lat="45.08490446999733" lon="7.823123511228736"><ele>452.5</ele><time>2026-04-19T11:50:14.999Z</time></trkpt><trkpt lat="45.08497254169093" lon="7.823241193541022"><ele>454.0</ele><time>2026-04-19T11:50:16.999Z</time></trkpt><trkpt lat="45.08501345031707" lon="7.823323160882573"><ele>455.50000000000006</ele><time>2026-04-19T11:50:17.999Z</time></trkpt><trkpt lat="45.08506773195801" lon="7.823401276855844"><ele>457.0</ele><time>2026-04-19T11:50:18.999Z</time></trkpt><trkpt lat="45.08512274897933" lon="7.823480348491675"><ele>460.1666666666667</ele><time>2026-04-19T11:50:19.999Z</time></trkpt><trkpt lat="45.085175930125786" lon="7.823554033311672"><ele>463.33333333333337</ele><time>2026-04-19T11:50:20.999Z</time></trkpt><trkpt lat="45.0852247409569" lon="7.823625393363149"><ele>466.5</ele><time>2026-04-19T11:50:21.999Z</time></trkpt><trkpt lat="45.0852616116266" lon="7.82370692642954"><ele>469.66666666666663</ele><time>2026-04-19T11:50:22.999Z</time></trkpt><trkpt lat="45.08530891356698" lon="7.823804455031965"><ele>472.8333333333333</ele><time>2026-04-19T11:50:23.999Z</time></trkpt><trkpt lat="45.08534302035237" lon="7.823943931395802"><ele>476.0</ele><time>2026-04-19T11:50:24.999Z</time></trkpt><trkpt lat="45.085353927919606" lon="7.824085596293003"><ele>475.99999999999994</ele><time>2026-04-19T11:50:25.999Z</time></trkpt><trkpt lat="45.085344243161074" lon="7.824233722715541"><ele>476.0</ele><time>2026-04-19T11:50:26.999Z</time></trkpt><trkpt lat="45.08532374823473" lon="7.824362129238202"><ele>476.0</ele><time>2026-04-19T11:50:27.999Z</time></trkpt><trkpt lat="45.08532068973622" lon="7.824487021595006"><ele>476.0</ele><time>2026-04-19T11:50:28.999Z</time></trkpt><trkpt lat="45.08531901123477" lon="7.8245887009000095"><ele>475.99999999999994</ele><time>2026-04-19T11:50:29.999Z</time></trkpt><trkpt lat="45.08532534872301" lon="7.824691838451377"><ele>476.0</ele><time>2026-04-19T11:50:30.999Z</time></trkpt><trkpt lat="45.085331809720564" lon="7.824799259090647"><ele>475.49999999999994</ele><time>2026-04-19T11:50:31.999Z</time></trkpt><trkpt lat="45.08537091227032" lon="7.824895182705411"><ele>475.0</ele><time>2026-04-19T11:50:32.999Z</time></trkpt><trkpt lat="45.08545774815012" lon="7.824947147248564"><ele>474.5</ele><time>2026-04-19T11:50:33.999Z</time></trkpt><trkpt lat="45.08551586008803" lon="7.825001400680722"><ele>474.0</ele><time>2026-04-19T11:50:34.999Z</time></trkpt><trkpt lat="45.08560643941703" lon="7.8250543997665005"><ele>473.49999999999994</ele><time>2026-04-19T11:50:35.999Z</time></trkpt><trkpt lat="45.08567455745467" lon="7.82507651387628"><ele>473.0</ele><time>2026-04-19T11:50:36.999Z</time></trkpt><trkpt lat="45.08576333886133" lon="7.825075994036513"><ele>470.66666666666663</ele><time>2026-04-19T11:50:38.999Z</time></trkpt><trkpt lat="45.0858702825732" lon="7.82506781279134"><ele>468.3333333333333</ele><time>2026-04-19T11:50:40.999Z</time></trkpt><trkpt lat="45.08596825716553" lon="7.825112669237063"><ele>466.0</ele><time>2026-04-19T11:50:42.999Z</time></trkpt><trkpt lat="45.08599976866554" lon="7.8252165304984285"><ele>463.66666666666663</ele><time>2026-04-19T11:50:43.999Z</time></trkpt><trkpt lat="45.08605325042854" lon="7.825280257432436"><ele>461.3333333333333</ele><time>2026-04-19T11:50:44.999Z</time></trkpt><trkpt lat="45.08607786251635" lon="7.8253948471199255"><ele>459.0</ele><time>2026-04-19T11:50:45.999Z</time></trkpt><trkpt lat="45.08608205522956" lon="7.8255463737477875"><ele>457.8333333333333</ele><time>2026-04-19T11:50:46.999Z</time></trkpt><trkpt lat="45.08608120460512" lon="7.825689799642498"><ele>456.66666666666663</ele><time>2026-04-19T11:50:47.999Z</time></trkpt><trkpt lat="45.086094313801446" lon="7.825834468301458"><ele>455.5</ele><time>2026-04-19T11:50:48.999Z</time></trkpt><trkpt lat="45.08611716255386" lon="7.825963322394184"><ele>454.3333333333333</ele><time>2026-04-19T11:50:49.999Z</time></trkpt><trkpt lat="45.086146761299396" lon="7.826059292300033"><ele>453.16666666666663</ele><time>2026-04-19T11:50:50.999Z</time></trkpt><trkpt lat="45.08618484920917" lon="7.826133445159278"><ele>452.0</ele><time>2026-04-19T11:50:51.999Z</time></trkpt><trkpt lat="45.086235483861685" lon="7.826286155896388"><ele>449.8571428571429</ele><time>2026-04-19T11:50:53.999Z</time></trkpt><trkpt lat="45.086219325931275" lon="7.826379938175121"><ele>447.71428571428567</ele><time>2026-04-19T11:50:54.999Z</time></trkpt><trkpt lat="45.08622195406197" lon="7.826477412057462"><ele>445.57142857142856</ele><time>2026-04-19T11:50:55.999Z</time></trkpt><trkpt lat="45.086212721112524" lon="7.826567256279038"><ele>443.42857142857144</ele><time>2026-04-19T11:50:56.999Z</time></trkpt><trkpt lat="45.086210899545335" lon="7.826662508481122"><ele>441.28571428571433</ele><time>2026-04-19T11:50:57.999Z</time></trkpt><trkpt lat="45.08623363507718" lon="7.826763359170753"><ele>439.1428571428571</ele><time>2026-04-19T11:50:58.999Z</time></trkpt><trkpt lat="45.0862881424837" lon="7.8268610339262406"><ele>437.0</ele><time>2026-04-19T11:50:59.999Z</time></trkpt><trkpt lat="45.08635450637926" lon="7.826961626915465"><ele>435.8</ele><time>2026-04-19T11:51:00.999Z</time></trkpt><trkpt lat="45.08641968869455" lon="7.827070857764709"><ele>434.6</ele><time>2026-04-19T11:51:01.999Z</time></trkpt><trkpt lat="45.08648092188372" lon="7.827183024119819"><ele>433.40000000000003</ele><time>2026-04-19T11:51:02.999Z</time></trkpt><trkpt lat="45.08652855088777" lon="7.827288304512453"><ele>432.20000000000005</ele><time>2026-04-19T11:51:03.999Z</time></trkpt><trkpt lat="45.08657999251023" lon="7.827451140724638"><ele>431.0</ele><time>2026-04-19T11:51:05.999Z</time></trkpt><trkpt lat="45.086603995213046" lon="7.827595795694692"><ele>428.49999999999994</ele><time>2026-04-19T11:51:07.999Z</time></trkpt><trkpt lat="45.086584045458146" lon="7.827740672175791"><ele>426.0</ele><time>2026-04-19T11:51:09.999Z</time></trkpt><trkpt lat="45.086544189482225" lon="7.827827089907966"><ele>423.5</ele><time>2026-04-19T11:51:10.999Z</time></trkpt><trkpt lat="45.08650671009912" lon="7.827906188380116"><ele>421.0</ele><time>2026-04-19T11:51:11.999Z</time></trkpt><trkpt lat="45.0864697643629" lon="7.827995771472178"><ele>418.49999999999994</ele><time>2026-04-19T11:51:12.999Z</time></trkpt><trkpt lat="45.08643305426808" lon="7.828084798894873"><ele>416.0</ele><time>2026-04-19T11:51:13.999Z</time></trkpt><trkpt lat="45.086388531916654" lon="7.828163139041577"><ele>415.99999999999994</ele><time>2026-04-19T11:51:14.999Z</time></trkpt><trkpt lat="45.08634029150324" lon="7.828233461720021"><ele>416.0</ele><time>2026-04-19T11:51:15.999Z</time></trkpt><trkpt lat="45.08629195223976" lon="7.828305064571333"><ele>416.0</ele><time>2026-04-19T11:51:16.999Z</time></trkpt><trkpt lat="45.086245163330524" lon="7.82838044041078"><ele>416.0</ele><time>2026-04-19T11:51:17.999Z</time></trkpt><trkpt lat="45.08614996833798" lon="7.8285029499745225"><ele>415.99999999999994</ele><time>2026-04-19T11:51:19.999Z</time></trkpt><trkpt lat="45.086104032573985" lon="7.828583739496755"><ele>416.0</ele><time>2026-04-19T11:51:20.999Z</time></trkpt><trkpt lat="45.08604842297414" lon="7.828670672166715"><ele>415.66666666666663</ele><time>2026-04-19T11:51:21.999Z</time></trkpt><trkpt lat="45.08598839063502" lon="7.828747585027881"><ele>415.3333333333333</ele><time>2026-04-19T11:51:22.999Z</time></trkpt><trkpt lat="45.08592407110214" lon="7.8288114932401935"><ele>415.0</ele><time>2026-04-19T11:51:23.999Z</time></trkpt><trkpt lat="45.08585648414701" lon="7.828861434222941"><ele>414.66666666666663</ele><time>2026-04-19T11:51:24.999Z</time></trkpt><trkpt lat="45.08578700921859" lon="7.828903684088449"><ele>414.3333333333333</ele><time>2026-04-19T11:51:25.999Z</time></trkpt><trkpt lat="45.085704929440546" lon="7.828917762463803"><ele>414.0</ele><time>2026-04-19T11:51:26.999Z</time></trkpt><trkpt lat="45.085632106395906" lon="7.8289476240960205"><ele>414.0</ele><time>2026-04-19T11:51:27.999Z</time></trkpt><trkpt lat="45.08556240317838" lon="7.828999377564586"><ele>414.0</ele><time>2026-04-19T11:51:28.999Z</time></trkpt><trkpt lat="45.08548692895615" lon="7.829020139908919"><ele>414.0</ele><time>2026-04-19T11:51:29.999Z</time></trkpt><trkpt lat="45.08541577006865" lon="7.829051632072779"><ele>414.0</ele><time>2026-04-19T11:51:30.999Z</time></trkpt><trkpt lat="45.08535089093678" lon="7.82908537212276"><ele>414.0</ele><time>2026-04-19T11:51:31.999Z</time></trkpt><trkpt lat="45.08528196773344" lon="7.829122773836196"><ele>414.0</ele><time>2026-04-19T11:51:32.999Z</time></trkpt><trkpt lat="45.08519461588046" lon="7.8291469541601835"><ele>414.0</ele><time>2026-04-19T11:51:33.999Z</time></trkpt><trkpt lat="45.08510548274273" lon="7.829210241795489"><ele>414.0</ele><time>2026-04-19T11:51:35.999Z</time></trkpt><trkpt lat="45.084993385943974" lon="7.829279542825247"><ele>414.0</ele><time>2026-04-19T11:51:37.999Z</time></trkpt><trkpt lat="45.084931294368324" lon="7.829319222025955"><ele>414.0</ele><time>2026-04-19T11:51:38.999Z</time></trkpt><trkpt lat="45.08487101997295" lon="7.829363290901993"><ele>414.0</ele><time>2026-04-19T11:51:39.999Z</time></trkpt><trkpt lat="45.08480706261356" lon="7.829414984093135"><ele>414.0</ele><time>2026-04-19T11:51:40.999Z</time></trkpt><trkpt lat="45.084733536364084" lon="7.8294461579504935"><ele>414.5714285714286</ele><time>2026-04-19T11:51:41.999Z</time></trkpt><trkpt lat="45.0846689181684" lon="7.829495469495755"><ele>415.14285714285717</ele><time>2026-04-19T11:51:43Z</time></trkpt><trkpt lat="45.08460115759385" lon="7.829546808682689"><ele>415.7142857142857</ele><time>2026-04-19T11:51:44Z</time></trkpt><trkpt lat="45.08453250571816" lon="7.829598823175266"><ele>416.28571428571433</ele><time>2026-04-19T11:51:45Z</time></trkpt><trkpt lat="45.084469539272064" lon="7.829642101212486"><ele>416.85714285714283</ele><time>2026-04-19T11:51:46Z</time></trkpt><trkpt lat="45.08439815825727" lon="7.829685029578563"><ele>417.42857142857144</ele><time>2026-04-19T11:51:47Z</time></trkpt><trkpt lat="45.08433662803672" lon="7.829718387386949"><ele>418.0</ele><time>2026-04-19T11:51:48Z</time></trkpt><trkpt lat="45.08426042945825" lon="7.829752881652862"><ele>418.0</ele><time>2026-04-19T11:51:49Z</time></trkpt><trkpt lat="45.0841864585223" lon="7.8297838903064125"><ele>418.0</ele><time>2026-04-19T11:51:50Z</time></trkpt><trkpt lat="45.08411467418129" lon="7.829813953836878"><ele>418.0</ele><time>2026-04-19T11:51:51Z</time></trkpt><trkpt lat="45.08404869214632" lon="7.829836947852649"><ele>418.0</ele><time>2026-04-19T11:51:52Z</time></trkpt><trkpt lat="45.08398228693218" lon="7.829840800651087"><ele>418.0</ele><time>2026-04-19T11:51:53Z</time></trkpt><trkpt lat="45.08391532288223" lon="7.82985685985052"><ele>418.0</ele><time>2026-04-19T11:51:54Z</time></trkpt><trkpt lat="45.0838253936699" lon="7.829883107941146"><ele>418.0</ele><time>2026-04-19T11:51:56Z</time></trkpt><trkpt lat="45.08374032495253" lon="7.829895614236752"><ele>414.75</ele><time>2026-04-19T11:51:58Z</time></trkpt><trkpt lat="45.08363188340527" lon="7.82989427800481"><ele>411.5</ele><time>2026-04-19T11:52:00Z</time></trkpt><trkpt lat="45.08353441678084" lon="7.829890971184709"><ele>408.25</ele><time>2026-04-19T11:52:02Z</time></trkpt><trkpt lat="45.08351421593851" lon="7.830109613138838"><ele>405.0</ele><time>2026-04-19T11:52:05Z</time></trkpt><trkpt lat="45.08360044942361" lon="7.830199968712012"><ele>403.2</ele><time>2026-04-19T11:52:06.999Z</time></trkpt><trkpt lat="45.08369930621583" lon="7.83030497711472"><ele>401.4</ele><time>2026-04-19T11:52:08.999Z</time></trkpt><trkpt lat="45.08378986295314" lon="7.830436329229204"><ele>399.6</ele><time>2026-04-19T11:52:10.999Z</time></trkpt><trkpt lat="45.08383046269201" lon="7.830516066989629"><ele>397.8</ele><time>2026-04-19T11:52:11.999Z</time></trkpt><trkpt lat="45.08386884052034" lon="7.830594003210927"><ele>396.0</ele><time>2026-04-19T11:52:12.999Z</time></trkpt><trkpt lat="45.08391395645804" lon="7.830667585108982"><ele>396.0</ele><time>2026-04-19T11:52:13.999Z</time></trkpt><trkpt lat="45.08395547146231" lon="7.830743258167333"><ele>396.0</ele><time>2026-04-19T11:52:14.999Z</time></trkpt><trkpt lat="45.08399166494824" lon="7.830822817207851"><ele>396.0</ele><time>2026-04-19T11:52:15.999Z</time></trkpt><trkpt lat="45.08402628182277" lon="7.830903634848238"><ele>396.0</ele><time>2026-04-19T11:52:16.999Z</time></trkpt><trkpt lat="45.08407125020972" lon="7.831076525162907"><ele>396.0</ele><time>2026-04-19T11:52:18.999Z</time></trkpt><trkpt lat="45.084093089788674" lon="7.8311609297673215"><ele>396.0</ele><time>2026-04-19T11:52:19.999Z</time></trkpt><trkpt lat="45.08411092685282" lon="7.831249656481811"><ele>396.4</ele><time>2026-04-19T11:52:20.999Z</time></trkpt><trkpt lat="45.08413866520661" lon="7.831416517449544"><ele>396.8</ele><time>2026-04-19T11:52:22.999Z</time></trkpt><trkpt lat="45.084160740504274" lon="7.831531535084344"><ele>397.2</ele><time>2026-04-19T11:52:24.999Z</time></trkpt><trkpt lat="45.084211017505" lon="7.831671980618037"><ele>397.59999999999997</ele><time>2026-04-19T11:52:26.999Z</time></trkpt><trkpt lat="45.08425078409238" lon="7.831821615544682"><ele>398.0</ele><time>2026-04-19T11:52:28.999Z</time></trkpt><trkpt lat="45.08434502652896" lon="7.831917243087709"><ele>397.99999999999994</ele><time>2026-04-19T11:52:30.999Z</time></trkpt><trkpt lat="45.08442504520297" lon="7.83189692337597"><ele>398.0</ele><time>2026-04-19T11:52:31.999Z</time></trkpt><trkpt lat="45.08448955915341" lon="7.831875451027226"><ele>398.0</ele><time>2026-04-19T11:52:32.999Z</time></trkpt><trkpt lat="45.08455380069574" lon="7.831856846174724"><ele>398.0</ele><time>2026-04-19T11:52:33.999Z</time></trkpt><trkpt lat="45.08466655426427" lon="7.8318084083491835"><ele>397.99999999999994</ele><time>2026-04-19T11:52:35.999Z</time></trkpt><trkpt lat="45.08473048575559" lon="7.831793481621107"><ele>398.0</ele><time>2026-04-19T11:52:36.999Z</time></trkpt><trkpt lat="45.08485541135994" lon="7.83176467361507"><ele>399.57142857142856</ele><time>2026-04-19T11:52:38.999Z</time></trkpt><trkpt lat="45.084921282707384" lon="7.8317638214980505"><ele>401.1428571428571</ele><time>2026-04-19T11:52:39.999Z</time></trkpt><trkpt lat="45.084988085775855" lon="7.831757457138032"><ele>402.71428571428567</ele><time>2026-04-19T11:52:40.999Z</time></trkpt><trkpt lat="45.08506335528147" lon="7.831753403713259"><ele>404.2857142857143</ele><time>2026-04-19T11:52:41.999Z</time></trkpt><trkpt lat="45.08514036118495" lon="7.831757515881561"><ele>405.8571428571429</ele><time>2026-04-19T11:52:42.999Z</time></trkpt><trkpt lat="45.08521567922802" lon="7.831736786830026"><ele>407.4285714285714</ele><time>2026-04-19T11:52:43.999Z</time></trkpt><trkpt lat="45.08529415006579" lon="7.831716420549623"><ele>409.0</ele><time>2026-04-19T11:52:44.999Z</time></trkpt><trkpt lat="45.08538156696039" lon="7.831707043519349"><ele>408.83333333333337</ele><time>2026-04-19T11:52:45.999Z</time></trkpt><trkpt lat="45.085460562399724" lon="7.831698753959524"><ele>408.6666666666667</ele><time>2026-04-19T11:52:46.999Z</time></trkpt><trkpt lat="45.08554745458246" lon="7.831693775393779"><ele>408.5</ele><time>2026-04-19T11:52:47.999Z</time></trkpt><trkpt lat="45.08562615200871" lon="7.831706285509783"><ele>408.33333333333337</ele><time>2026-04-19T11:52:48.999Z</time></trkpt><trkpt lat="45.08568642535917" lon="7.8317383031053405"><ele>408.1666666666667</ele><time>2026-04-19T11:52:49.999Z</time></trkpt><trkpt lat="45.08576396416661" lon="7.831736682058928"><ele>408.0</ele><time>2026-04-19T11:52:50.999Z</time></trkpt><trkpt lat="45.08583952921999" lon="7.831676500913057"><ele>408.0</ele><time>2026-04-19T11:52:51.999Z</time></trkpt><trkpt lat="45.0859030915786" lon="7.83162486211646"><ele>408.0</ele><time>2026-04-19T11:52:52.999Z</time></trkpt><trkpt lat="45.0859752834074" lon="7.831599986025136"><ele>408.0</ele><time>2026-04-19T11:52:53.999Z</time></trkpt><trkpt lat="45.08604565098468" lon="7.831566722899859"><ele>408.0</ele><time>2026-04-19T11:52:54.999Z</time></trkpt><trkpt lat="45.0861183800774" lon="7.8315192864157535"><ele>408.0</ele><time>2026-04-19T11:52:55.999Z</time></trkpt><trkpt lat="45.08619062842277" lon="7.831479176583937"><ele>408.0</ele><time>2026-04-19T11:52:56.999Z</time></trkpt><trkpt lat="45.086257507521644" lon="7.831435337418587"><ele>408.0</ele><time>2026-04-19T11:52:57.999Z</time></trkpt><trkpt lat="45.08631487648886" lon="7.831384226302711"><ele>408.0</ele><time>2026-04-19T11:52:58.999Z</time></trkpt><trkpt lat="45.086372383268234" lon="7.831334469829582"><ele>408.0</ele><time>2026-04-19T11:52:59.999Z</time></trkpt><trkpt lat="45.08643425477682" lon="7.831287227850005"><ele>408.0</ele><time>2026-04-19T11:53:00.999Z</time></trkpt><trkpt lat="45.08653450536914" lon="7.831210319181254"><ele>408.0</ele><time>2026-04-19T11:53:02.999Z</time></trkpt><trkpt lat="45.08659849477514" lon="7.831194101809001"><ele>408.0</ele><time>2026-04-19T11:53:03.999Z</time></trkpt><trkpt lat="45.08666677674513" lon="7.831211692790707"><ele>408.4</ele><time>2026-04-19T11:53:04.999Z</time></trkpt><trkpt lat="45.086727606996455" lon="7.831268333065579"><ele>408.79999999999995</ele><time>2026-04-19T11:53:05.999Z</time></trkpt><trkpt lat="45.08673763652693" lon="7.831387234373898"><ele>409.2</ele><time>2026-04-19T11:53:06.999Z</time></trkpt><trkpt lat="45.08676536124444" lon="7.831575484717767"><ele>409.6</ele><time>2026-04-19T11:53:08.999Z</time></trkpt><trkpt lat="45.086736930010176" lon="7.831701007837828"><ele>410.0</ele><time>2026-04-19T11:53:10.999Z</time></trkpt><trkpt lat="45.086743602407964" lon="7.831850682454015"><ele>408.66666666666663</ele><time>2026-04-19T11:53:12.999Z</time></trkpt><trkpt lat="45.08676141217064" lon="7.831993273884895"><ele>407.3333333333333</ele><time>2026-04-19T11:53:14.999Z</time></trkpt><trkpt lat="45.08678516965063" lon="7.832104000618346"><ele>406.0</ele><time>2026-04-19T11:53:16.999Z</time></trkpt><trkpt lat="45.086807031284096" lon="7.832201761439339"><ele>404.66666666666663</ele><time>2026-04-19T11:53:18.999Z</time></trkpt><trkpt lat="45.08683713932144" lon="7.832291708354389"><ele>403.3333333333333</ele><time>2026-04-19T11:53:20.999Z</time></trkpt><trkpt lat="45.08688144848998" lon="7.832364264914556"><ele>402.0</ele><time>2026-04-19T11:53:22.999Z</time></trkpt><trkpt lat="45.086928835472506" lon="7.832437150234497"><ele>402.0</ele><time>2026-04-19T11:53:24.999Z</time></trkpt><trkpt lat="45.08698636110102" lon="7.832511372705805"><ele>402.0</ele><time>2026-04-19T11:53:27.999Z</time></trkpt><trkpt lat="45.087053688263396" lon="7.832563381695281"><ele>402.0</ele><time>2026-04-19T11:53:29.999Z</time></trkpt><trkpt lat="45.08715855945496" lon="7.832598281360891"><ele>402.0</ele><time>2026-04-19T11:53:31.999Z</time></trkpt><trkpt lat="45.08722418376342" lon="7.832642122745084"><ele>402.0</ele><time>2026-04-19T11:53:32.999Z</time></trkpt><trkpt lat="45.08727847676044" lon="7.832694179718799"><ele>402.0</ele><time>2026-04-19T11:53:33.999Z</time></trkpt><trkpt lat="45.08733482001466" lon="7.832748502813469"><ele>401.5</ele><time>2026-04-19T11:53:34.999Z</time></trkpt><trkpt lat="45.08740504371814" lon="7.832811717325206"><ele>401.0</ele><time>2026-04-19T11:53:35.999Z</time></trkpt><trkpt lat="45.08747440320021" lon="7.832818012471581"><ele>400.5</ele><time>2026-04-19T11:53:36.999Z</time></trkpt><trkpt lat="45.08754995985789" lon="7.832849731564365"><ele>400.0</ele><time>2026-04-19T11:53:38Z</time></trkpt><trkpt lat="45.08761957629869" lon="7.832882414451074"><ele>399.5</ele><time>2026-04-19T11:53:39Z</time></trkpt><trkpt lat="45.08769607481651" lon="7.832913396675392"><ele>399.0</ele><time>2026-04-19T11:53:40Z</time></trkpt><trkpt lat="45.08776852237667" lon="7.832943652632547"><ele>399.0</ele><time>2026-04-19T11:53:41Z</time></trkpt><trkpt lat="45.087822072490724" lon="7.832998352410003"><ele>399.0</ele><time>2026-04-19T11:53:42Z</time></trkpt><trkpt lat="45.08790212903812" lon="7.83301408322644"><ele>399.0</ele><time>2026-04-19T11:53:43Z</time></trkpt><trkpt lat="45.08798755315004" lon="7.833042196951555"><ele>399.0</ele><time>2026-04-19T11:53:44Z</time></trkpt><trkpt lat="45.088059171343964" lon="7.833049601898022"><ele>399.0</ele><time>2026-04-19T11:53:45Z</time></trkpt><trkpt lat="45.08812941602033" lon="7.833054463078769"><ele>399.0</ele><time>2026-04-19T11:53:46Z</time></trkpt><trkpt lat="45.088201537620925" lon="7.833061024374272"><ele>399.0</ele><time>2026-04-19T11:53:47Z</time></trkpt><trkpt lat="45.08826825407331" lon="7.8330690628735935"><ele>400.8333333333333</ele><time>2026-04-19T11:53:48Z</time></trkpt><trkpt lat="45.08837893785209" lon="7.8331032752300915"><ele>402.66666666666663</ele><time>2026-04-19T11:53:50Z</time></trkpt><trkpt lat="45.088447688686735" lon="7.833092485901383"><ele>404.5</ele><time>2026-04-19T11:53:51Z</time></trkpt><trkpt lat="45.088513891076005" lon="7.833102677880209"><ele>406.3333333333333</ele><time>2026-04-19T11:53:52Z</time></trkpt><trkpt lat="45.08859248667497" lon="7.833104392159524"><ele>408.16666666666663</ele><time>2026-04-19T11:53:53Z</time></trkpt><trkpt lat="45.08871152438868" lon="7.833132562001409"><ele>410.0</ele><time>2026-04-19T11:53:55Z</time></trkpt><trkpt lat="45.08882871917731" lon="7.833150476604151"><ele>410.0</ele><time>2026-04-19T11:53:57Z</time></trkpt><trkpt lat="45.088943342455785" lon="7.833197243951039"><ele>410.0</ele><time>2026-04-19T11:53:59Z</time></trkpt><trkpt lat="45.089031022374144" lon="7.833281546280087"><ele>410.0</ele><time>2026-04-19T11:54:01Z</time></trkpt><trkpt lat="45.089112694512906" lon="7.833368294588253"><ele>410.0</ele><time>2026-04-19T11:54:03Z</time></trkpt><trkpt lat="45.08918708117384" lon="7.833462145772926"><ele>410.0</ele><time>2026-04-19T11:54:05Z</time></trkpt><trkpt lat="45.089255403960856" lon="7.833559629751368"><ele>411.4</ele><time>2026-04-19T11:54:07Z</time></trkpt><trkpt lat="45.08933277836644" lon="7.833654371114941"><ele>412.8</ele><time>2026-04-19T11:54:09Z</time></trkpt><trkpt lat="45.089409814907626" lon="7.833742987211984"><ele>414.20000000000005</ele><time>2026-04-19T11:54:11Z</time></trkpt><trkpt lat="45.08947648191" lon="7.833831928183859"><ele>415.6</ele><time>2026-04-19T11:54:13Z</time></trkpt><trkpt lat="45.08955141465295" lon="7.833907282640394"><ele>417.0</ele><time>2026-04-19T11:54:15Z</time></trkpt><trkpt lat="45.089607975949946" lon="7.833987351387853"><ele>417.0</ele><time>2026-04-19T11:54:17Z</time></trkpt><trkpt lat="45.089681751729266" lon="7.834067381795547"><ele>417.0</ele><time>2026-04-19T11:54:20Z</time></trkpt><trkpt lat="45.089739018430095" lon="7.834111736950631"><ele>417.0</ele><time>2026-04-19T11:54:22Z</time></trkpt><trkpt lat="45.08982779413787" lon="7.834138336359018"><ele>417.0</ele><time>2026-04-19T11:54:25Z</time></trkpt><trkpt lat="45.08989401332271" lon="7.834138032148219"><ele>417.0</ele><time>2026-04-19T11:54:27Z</time></trkpt><trkpt lat="45.08996911578089" lon="7.83415748674225"><ele>417.0</ele><time>2026-04-19T11:54:29Z</time></trkpt><trkpt lat="45.090043156829715" lon="7.834178416765837"><ele>415.3333333333333</ele><time>2026-04-19T11:54:31Z</time></trkpt><trkpt lat="45.0901239074261" lon="7.834221322831409"><ele>413.66666666666663</ele><time>2026-04-19T11:54:33Z</time></trkpt><trkpt lat="45.09020685569489" lon="7.8342542841837455"><ele>412.0</ele><time>2026-04-19T11:54:35Z</time></trkpt><trkpt lat="45.09028800121474" lon="7.834306795051814"><ele>410.3333333333333</ele><time>2026-04-19T11:54:37Z</time></trkpt><trkpt lat="45.09035821931538" lon="7.834346611353276"><ele>408.66666666666663</ele><time>2026-04-19T11:54:39Z</time></trkpt><trkpt lat="45.09042589098594" lon="7.834397548519952"><ele>407.0</ele><time>2026-04-19T11:54:41Z</time></trkpt><trkpt lat="45.0904918013255" lon="7.834443054505714"><ele>406.8571428571429</ele><time>2026-04-19T11:54:43Z</time></trkpt><trkpt lat="45.090549974124144" lon="7.834517694757529"><ele>406.7142857142857</ele><time>2026-04-19T11:54:45Z</time></trkpt><trkpt lat="45.090624096343056" lon="7.834525364470815"><ele>406.57142857142856</ele><time>2026-04-19T11:54:47Z</time></trkpt><trkpt lat="45.09068861807573" lon="7.834563636573397"><ele>406.42857142857144</ele><time>2026-04-19T11:54:49Z</time></trkpt><trkpt lat="45.09075538805706" lon="7.83460137510901"><ele>406.2857142857143</ele><time>2026-04-19T11:54:51Z</time></trkpt><trkpt lat="45.09082821941899" lon="7.834626586045273"><ele>406.14285714285717</ele><time>2026-04-19T11:54:53Z</time></trkpt><trkpt lat="45.09089844620932" lon="7.834652087889776"><ele>406.0</ele><time>2026-04-19T11:54:55Z</time></trkpt><trkpt lat="45.09100724457236" lon="7.834655909225694"><ele>405.83333333333337</ele><time>2026-04-19T11:54:57.999Z</time></trkpt><trkpt lat="45.09109496018511" lon="7.8346665179345365"><ele>405.6666666666667</ele><time>2026-04-19T11:54:59.999Z</time></trkpt><trkpt lat="45.09118226182108" lon="7.834699311125769"><ele>405.5</ele><time>2026-04-19T11:55:01.999Z</time></trkpt><trkpt lat="45.0912530975392" lon="7.834712834490832"><ele>405.33333333333337</ele><time>2026-04-19T11:55:04.999Z</time></trkpt><trkpt lat="45.09131768449168" lon="7.834742220838521"><ele>405.1666666666667</ele><time>2026-04-19T11:55:07.999Z</time></trkpt><trkpt lat="45.091388191829346" lon="7.834780420975335"><ele>405.0</ele><time>2026-04-19T11:55:11.999Z</time></trkpt><trkpt lat="45.09144977921798" lon="7.83483719442728"><ele>405.0</ele><time>2026-04-19T11:55:16.999Z</time></trkpt><trkpt lat="45.09151509783909" lon="7.834879011370335"><ele>405.0</ele><time>2026-04-19T11:55:20.999Z</time></trkpt><trkpt lat="45.09158680959214" lon="7.834920784655358"><ele>405.0</ele><time>2026-04-19T11:55:24.999Z</time></trkpt><trkpt lat="45.09165382435811" lon="7.834972929705138"><ele>405.0</ele><time>2026-04-19T11:55:29.999Z</time></trkpt><trkpt lat="45.09171752734085" lon="7.835015175542657"><ele>405.0</ele><time>2026-04-19T11:55:34.999Z</time></trkpt><trkpt lat="45.091790064778586" lon="7.8350473524829125"><ele>405.0</ele><time>2026-04-19T11:55:39.999Z</time></trkpt><trkpt lat="45.092000617797346" lon="7.835074324058981"><ele>408.75</ele><time>2026-04-19T11:55:52Z</time></trkpt><trkpt lat="45.092200401876056" lon="7.83508401229966"><ele>412.5</ele><time>2026-04-19T11:55:57Z</time></trkpt><trkpt lat="45.09225650787295" lon="7.835147497131256"><ele>416.25</ele><time>2026-04-19T11:55:59Z</time></trkpt><trkpt lat="45.09233045677802" lon="7.835246803245566"><ele>420.0</ele><time>2026-04-19T11:56:01Z</time></trkpt><trkpt lat="45.09238471802874" lon="7.835373430481516"><ele>420.0</ele><time>2026-04-19T11:56:03Z</time></trkpt><trkpt lat="45.09239219983184" lon="7.835472764002956"><ele>420.0</ele><time>2026-04-19T11:56:04Z</time></trkpt><trkpt lat="45.09243799582357" lon="7.835572100563379"><ele>420.0</ele><time>2026-04-19T11:56:05Z</time></trkpt><trkpt lat="45.09253758700942" lon="7.8356434250428935"><ele>420.0</ele><time>2026-04-19T11:56:07Z</time></trkpt><trkpt lat="45.09264999945038" lon="7.835687366685029"><ele>420.0</ele><time>2026-04-19T11:56:09Z</time></trkpt><trkpt lat="45.092759904669485" lon="7.835626286691971"><ele>421.4</ele><time>2026-04-19T11:56:11Z</time></trkpt><trkpt lat="45.092841327729715" lon="7.835730259359511"><ele>422.8</ele><time>2026-04-19T11:56:12Z</time></trkpt><trkpt lat="45.09295161390007" lon="7.835755868436943"><ele>424.20000000000005</ele><time>2026-04-19T11:56:14Z</time></trkpt><trkpt lat="45.09301172513118" lon="7.8357881548389186"><ele>425.6</ele><time>2026-04-19T11:56:15Z</time></trkpt><trkpt lat="45.093063942221264" lon="7.8358538433668405"><ele>427.0</ele><time>2026-04-19T11:56:16Z</time></trkpt><trkpt lat="45.0931466578679" lon="7.8359683271048"><ele>428.40000000000003</ele><time>2026-04-19T11:56:18Z</time></trkpt><trkpt lat="45.0931828581025" lon="7.836058547989122"><ele>429.80000000000007</ele><time>2026-04-19T11:56:19Z</time></trkpt><trkpt lat="45.09323462579496" lon="7.836161567029714"><ele>431.2</ele><time>2026-04-19T11:56:20Z</time></trkpt><trkpt lat="45.09327391223215" lon="7.836252885536406"><ele>432.6</ele><time>2026-04-19T11:56:21Z</time></trkpt><trkpt lat="45.093331581892336" lon="7.836363949432765"><ele>434.0</ele><time>2026-04-19T11:56:23Z</time></trkpt><trkpt lat="45.0934512361129" lon="7.836414724285796"><ele>427.6</ele><time>2026-04-19T11:56:25Z</time></trkpt><trkpt lat="45.0935571557855" lon="7.836444118658783"><ele>421.2</ele><time>2026-04-19T11:56:27Z</time></trkpt><trkpt lat="45.093660509963804" lon="7.836457137148233"><ele>414.8</ele><time>2026-04-19T11:56:29Z</time></trkpt><trkpt lat="45.0937233717634" lon="7.836466171212177"><ele>408.40000000000003</ele><time>2026-04-19T11:56:30Z</time></trkpt><trkpt lat="45.09384825376767" lon="7.836465852900239"><ele>402.0</ele><time>2026-04-19T11:56:32Z</time></trkpt><trkpt lat="45.093954562311644" lon="7.836489636183834"><ele>402.0</ele><time>2026-04-19T11:56:34Z</time></trkpt><trkpt lat="45.09402629133557" lon="7.836504851489342"><ele>402.0</ele><time>2026-04-19T11:56:35Z</time></trkpt><trkpt lat="45.09414521360114" lon="7.836526971274954"><ele>402.0</ele><time>2026-04-19T11:56:37Z</time></trkpt><trkpt lat="45.09420945474173" lon="7.8365516405862286"><ele>402.0</ele><time>2026-04-19T11:56:38Z</time></trkpt><trkpt lat="45.094332713322586" lon="7.83655007050511"><ele>402.0</ele><time>2026-04-19T11:56:40Z</time></trkpt><trkpt lat="45.09444878986407" lon="7.836578787253023"><ele>399.20000000000005</ele><time>2026-04-19T11:56:42Z</time></trkpt><trkpt lat="45.09455942005542" lon="7.836599351537612"><ele>396.4</ele><time>2026-04-19T11:56:44Z</time></trkpt><trkpt lat="45.094643012980406" lon="7.836641110862568"><ele>393.6</ele><time>2026-04-19T11:56:46Z</time></trkpt><trkpt lat="45.094762626450695" lon="7.8367258834357685"><ele>390.79999999999995</ele><time>2026-04-19T11:56:48Z</time></trkpt><trkpt lat="45.094848308236564" lon="7.836809076534764"><ele>388.0</ele><time>2026-04-19T11:56:51Z</time></trkpt><trkpt lat="45.094908933180896" lon="7.836867274856541"><ele>386.5</ele><time>2026-04-19T11:56:52Z</time></trkpt><trkpt lat="45.09502845198878" lon="7.836960129238038"><ele>385.0</ele><time>2026-04-19T11:56:54Z</time></trkpt><trkpt lat="45.095143456893645" lon="7.836996119127792"><ele>383.5</ele><time>2026-04-19T11:56:57Z</time></trkpt><trkpt lat="45.095248537416815" lon="7.837055854387848"><ele>382.0</ele><time>2026-04-19T11:56:59Z</time></trkpt><trkpt lat="45.09535349818463" lon="7.837108394883331"><ele>382.0</ele><time>2026-04-19T11:57:01Z</time></trkpt><trkpt lat="45.095454831165384" lon="7.837165709795236"><ele>382.0</ele><time>2026-04-19T11:57:03Z</time></trkpt><trkpt lat="45.095556039147034" lon="7.83721261195466"><ele>382.0</ele><time>2026-04-19T11:57:05Z</time></trkpt><trkpt lat="45.09565680608654" lon="7.837282939942214"><ele>382.0</ele><time>2026-04-19T11:57:07Z</time></trkpt><trkpt lat="45.0957520572024" lon="7.837336840182746"><ele>382.0</ele><time>2026-04-19T11:57:08.999Z</time></trkpt><trkpt lat="45.095842777665695" lon="7.837392824575402"><ele>382.20000000000005</ele><time>2026-04-19T11:57:10.999Z</time></trkpt><trkpt lat="45.09594180799039" lon="7.837422637983085"><ele>382.4</ele><time>2026-04-19T11:57:12.999Z</time></trkpt><trkpt lat="45.096037180807905" lon="7.8374730748255965"><ele>382.6</ele><time>2026-04-19T11:57:14.999Z</time></trkpt><trkpt lat="45.09611649197848" lon="7.837499783231189"><ele>382.79999999999995</ele><time>2026-04-19T11:57:16.999Z</time></trkpt><trkpt lat="45.09620923793142" lon="7.837516267452633"><ele>383.0</ele><time>2026-04-19T11:57:18.999Z</time></trkpt><trkpt lat="45.09628964217885" lon="7.837554189163636"><ele>383.0</ele><time>2026-04-19T11:57:20.999Z</time></trkpt><trkpt lat="45.096366175692445" lon="7.837544567868192"><ele>383.0</ele><time>2026-04-19T11:57:22.999Z</time></trkpt><trkpt lat="45.09643153830346" lon="7.83754328844096"><ele>383.0</ele><time>2026-04-19T11:57:24.999Z</time></trkpt><trkpt lat="45.09650428928744" lon="7.837573637536286"><ele>383.0</ele><time>2026-04-19T11:57:26.999Z</time></trkpt><trkpt lat="45.09656819849631" lon="7.83758123254842"><ele>383.0</ele><time>2026-04-19T11:57:29.999Z</time></trkpt><trkpt lat="45.09663488651515" lon="7.837627581947621"><ele>383.0</ele><time>2026-04-19T11:57:33.999Z</time></trkpt><trkpt lat="45.09669751076496" lon="7.837653309161938"><ele>383.0</ele><time>2026-04-19T11:57:36.999Z</time></trkpt><trkpt lat="45.09677315778536" lon="7.837685448380595"><ele>385.0</ele><time>2026-04-19T11:57:39.999Z</time></trkpt><trkpt lat="45.09683260673256" lon="7.837715368746865"><ele>387.0</ele><time>2026-04-19T11:57:42.999Z</time></trkpt><trkpt lat="45.09689411506787" lon="7.8377527138878005"><ele>389.0</ele><time>2026-04-19T11:57:46.999Z</time></trkpt><trkpt lat="45.09695163646948" lon="7.837793205394871"><ele>391.0</ele><time>2026-04-19T11:57:51.001Z</time></trkpt><trkpt lat="45.097015754240445" lon="7.837835227765952"><ele>393.0</ele><time>2026-04-19T11:57:56.001Z</time></trkpt><trkpt lat="45.097079494685" lon="7.837882029261548"><ele>395.0</ele><time>2026-04-19T11:58:01Z</time></trkpt><trkpt lat="45.09713858185903" lon="7.8379357551811"><ele>397.0</ele><time>2026-04-19T11:58:06Z</time></trkpt><trkpt lat="45.097200576038084" lon="7.837993501163322"><ele>397.0</ele><time>2026-04-19T11:58:12Z</time></trkpt><trkpt lat="45.09726448801409" lon="7.838032941394264"><ele>397.0</ele><time>2026-04-19T11:58:18Z</time></trkpt><trkpt lat="45.09732168515488" lon="7.838070315456157"><ele>397.0</ele><time>2026-04-19T11:58:23Z</time></trkpt><trkpt lat="45.09738375625508" lon="7.838115471656054"><ele>397.0</ele><time>2026-04-19T11:58:29Z</time></trkpt><trkpt lat="45.09744474011043" lon="7.838159079443646"><ele>397.0</ele><time>2026-04-19T11:58:34Z</time></trkpt><trkpt lat="45.09749860806551" lon="7.838219435583537"><ele>397.0</ele><time>2026-04-19T11:58:39Z</time></trkpt><trkpt lat="45.097556116857646" lon="7.838275230013571"><ele>397.0</ele><time>2026-04-19T11:58:45Z</time></trkpt><trkpt lat="45.0976148161054" lon="7.838355225648385"><ele>397.85714285714283</ele><time>2026-04-19T11:58:52Z</time></trkpt><trkpt lat="45.09760418445953" lon="7.838450509059393"><ele>398.71428571428567</ele><time>2026-04-19T11:58:59Z</time></trkpt><trkpt lat="45.097562702381815" lon="7.838525673389335"><ele>399.57142857142856</ele><time>2026-04-19T11:59:07Z</time></trkpt><trkpt lat="45.09753736091485" lon="7.8386259721214255"><ele>400.42857142857144</ele><time>2026-04-19T11:59:27.999Z</time></trkpt><trkpt lat="45.09749760361919" lon="7.838720594310679"><ele>401.2857142857143</ele><time>2026-04-19T11:59:34.999Z</time></trkpt><trkpt lat="45.09746717917716" lon="7.838805378271986"><ele>402.14285714285717</ele><time>2026-04-19T11:59:41.999Z</time></trkpt><trkpt lat="45.09744092968097" lon="7.838886650464104"><ele>403.0</ele><time>2026-04-19T11:59:48.999Z</time></trkpt><trkpt lat="45.09740224626842" lon="7.83896831874199"><ele>403.8571428571429</ele><time>2026-04-19T11:59:56Z</time></trkpt><trkpt lat="45.09736923079013" lon="7.839046613389291"><ele>404.71428571428567</ele><time>2026-04-19T12:00:03Z</time></trkpt><trkpt lat="45.09735141226463" lon="7.839135235411626"><ele>405.57142857142856</ele><time>2026-04-19T12:00:24Z</time></trkpt><trkpt lat="45.097314687168485" lon="7.839213357583769"><ele>406.42857142857144</ele><time>2026-04-19T12:00:30Z</time></trkpt><trkpt lat="45.09729087190614" lon="7.839311107239667"><ele>407.28571428571433</ele><time>2026-04-19T12:00:39Z</time></trkpt><trkpt lat="45.09727568851542" lon="7.839410186380306"><ele>408.1428571428571</ele><time>2026-04-19T12:00:49Z</time></trkpt><trkpt lat="45.0972526429127" lon="7.839504646210762"><ele>409.0</ele><time>2026-04-19T12:00:56Z</time></trkpt><trkpt lat="45.097224967650845" lon="7.839590621725658"><ele>410.83333333333337</ele><time>2026-04-19T12:01:02.999Z</time></trkpt><trkpt lat="45.097223379040535" lon="7.839687071526282"><ele>412.6666666666667</ele><time>2026-04-19T12:01:16.999Z</time></trkpt><trkpt lat="45.09721339708246" lon="7.839792250227085"><ele>414.5</ele><time>2026-04-19T12:01:27.999Z</time></trkpt><trkpt lat="45.09721963070364" lon="7.839888015644016"><ele>416.33333333333337</ele><time>2026-04-19T12:01:35.999Z</time></trkpt><trkpt lat="45.097193771001706" lon="7.83998012385075"><ele>418.1666666666667</ele><time>2026-04-19T12:01:41.999Z</time></trkpt><trkpt lat="45.0971668352679" lon="7.840080250841921"><ele>420.0</ele><time>2026-04-19T12:01:49.999Z</time></trkpt><trkpt lat="45.09718934358279" lon="7.84031067734305"><ele>421.75</ele><time>2026-04-19T12:02:43Z</time></trkpt><trkpt lat="45.097399205823315" lon="7.840359932776186"><ele>423.5</ele><time>2026-04-19T12:03:05.999Z</time></trkpt><trkpt lat="45.09746999830738" lon="7.840389481235638"><ele>425.25</ele><time>2026-04-19T12:03:07.999Z</time></trkpt><trkpt lat="45.097522748511324" lon="7.840448658287685"><ele>427.0</ele><time>2026-04-19T12:03:09.999Z</time></trkpt><trkpt lat="45.097595553041316" lon="7.840556163173392"><ele>428.20000000000005</ele><time>2026-04-19T12:03:11.999Z</time></trkpt><trkpt lat="45.0976114891309" lon="7.840726726444367"><ele>429.40000000000003</ele><time>2026-04-19T12:03:13.999Z</time></trkpt><trkpt lat="45.097650681582365" lon="7.840889589590899"><ele>430.59999999999997</ele><time>2026-04-19T12:03:15.999Z</time></trkpt><trkpt lat="45.09766345307581" lon="7.841037776243797"><ele>431.79999999999995</ele><time>2026-04-19T12:03:17.999Z</time></trkpt><trkpt lat="45.097691114316085" lon="7.841122416235939"><ele>433.0</ele><time>2026-04-19T12:03:18.999Z</time></trkpt><trkpt lat="45.097759957465406" lon="7.841246330624602"><ele>435.1666666666667</ele><time>2026-04-19T12:03:20.999Z</time></trkpt><trkpt lat="45.09781006380692" lon="7.841391580713149"><ele>437.33333333333337</ele><time>2026-04-19T12:03:22.999Z</time></trkpt><trkpt lat="45.0978590186064" lon="7.841501372191937"><ele>439.5</ele><time>2026-04-19T12:03:24.999Z</time></trkpt><trkpt lat="45.09790879380845" lon="7.841569781918276"><ele>441.66666666666663</ele><time>2026-04-19T12:03:26.999Z</time></trkpt><trkpt lat="45.09794088672473" lon="7.841680099744832"><ele>443.8333333333333</ele><time>2026-04-19T12:03:29.999Z</time></trkpt><trkpt lat="45.09797321859302" lon="7.841794709136586"><ele>446.0</ele><time>2026-04-19T12:03:31.999Z</time></trkpt><trkpt lat="45.098053222418315" lon="7.841833822740329"><ele>446.49999999999994</ele><time>2026-04-19T12:03:33.999Z</time></trkpt><trkpt lat="45.09812889485687" lon="7.841907249721219"><ele>447.0</ele><time>2026-04-19T12:03:35.999Z</time></trkpt><trkpt lat="45.09818632376458" lon="7.841993605010574"><ele>447.5</ele><time>2026-04-19T12:03:37.999Z</time></trkpt><trkpt lat="45.09825634180392" lon="7.8420526265751525"><ele>448.0</ele><time>2026-04-19T12:03:39.999Z</time></trkpt><trkpt lat="45.09831129815916" lon="7.842106054066283"><ele>448.49999999999994</ele><time>2026-04-19T12:03:41.999Z</time></trkpt><trkpt lat="45.09837922071362" lon="7.842148308137775"><ele>449.0</ele><time>2026-04-19T12:03:43.999Z</time></trkpt><trkpt lat="45.09846398675249" lon="7.842174390590527"><ele>444.3333333333333</ele><time>2026-04-19T12:03:45.999Z</time></trkpt><trkpt lat="45.09858348417426" lon="7.842232820556844"><ele>439.66666666666663</ele><time>2026-04-19T12:03:47.999Z</time></trkpt><trkpt lat="45.09864531135725" lon="7.842285647599427"><ele>435.0</ele><time>2026-04-19T12:03:48.999Z</time></trkpt><trkpt lat="45.09870667476643" lon="7.842351802265595"><ele>430.33333333333337</ele><time>2026-04-19T12:03:49.999Z</time></trkpt><trkpt lat="45.098764592274016" lon="7.842430089247852"><ele>425.6666666666667</ele><time>2026-04-19T12:03:50.999Z</time></trkpt><trkpt lat="45.0988144646572" lon="7.8425216914030145"><ele>421.0</ele><time>2026-04-19T12:03:51.999Z</time></trkpt><trkpt lat="45.0988389752738" lon="7.842615515464902"><ele>420.5714285714286</ele><time>2026-04-19T12:03:52.999Z</time></trkpt><trkpt lat="45.09883619348673" lon="7.842711713554997"><ele>420.14285714285717</ele><time>2026-04-19T12:03:53.999Z</time></trkpt><trkpt lat="45.098824262245294" lon="7.842810320565099"><ele>419.7142857142857</ele><time>2026-04-19T12:03:54.999Z</time></trkpt><trkpt lat="45.0988201646084" lon="7.842904833159194"><ele>419.28571428571433</ele><time>2026-04-19T12:03:55.999Z</time></trkpt><trkpt lat="45.09880573650897" lon="7.843019138508805"><ele>418.85714285714283</ele><time>2026-04-19T12:03:56.999Z</time></trkpt><trkpt lat="45.09879184643263" lon="7.8431219221665485"><ele>418.42857142857144</ele><time>2026-04-19T12:03:57.999Z</time></trkpt><trkpt lat="45.09877914607247" lon="7.843234301744697"><ele>418.0</ele><time>2026-04-19T12:03:58.999Z</time></trkpt><trkpt lat="45.09876885847564" lon="7.843335130720149"><ele>418.00000000000006</ele><time>2026-04-19T12:03:59.999Z</time></trkpt><trkpt lat="45.098770250524844" lon="7.843432158044096"><ele>418.0</ele><time>2026-04-19T12:04:00.999Z</time></trkpt><trkpt lat="45.098773175952495" lon="7.843530885010593"><ele>418.0</ele><time>2026-04-19T12:04:01.999Z</time></trkpt><trkpt lat="45.098804800547136" lon="7.843633172265459"><ele>418.0</ele><time>2026-04-19T12:04:02.999Z</time></trkpt><trkpt lat="45.09885021109663" lon="7.84374399486181"><ele>418.00000000000006</ele><time>2026-04-19T12:04:03.999Z</time></trkpt><trkpt lat="45.098914831090276" lon="7.843846460403497"><ele>418.0</ele><time>2026-04-19T12:04:04.999Z</time></trkpt><trkpt lat="45.098974408563414" lon="7.843954057387966"><ele>416.79999999999995</ele><time>2026-04-19T12:04:05.999Z</time></trkpt><trkpt lat="45.09903476548076" lon="7.844068386742073"><ele>415.6</ele><time>2026-04-19T12:04:06.999Z</time></trkpt><trkpt lat="45.09909654023119" lon="7.844170773546999"><ele>414.4</ele><time>2026-04-19T12:04:08Z</time></trkpt><trkpt lat="45.099159901775764" lon="7.844266964276316"><ele>413.20000000000005</ele><time>2026-04-19T12:04:09Z</time></trkpt><trkpt lat="45.099245390329315" lon="7.844345262936293"><ele>412.0</ele><time>2026-04-19T12:04:10Z</time></trkpt><trkpt lat="45.099335729792216" lon="7.844397311188955"><ele>408.1666666666667</ele><time>2026-04-19T12:04:11Z</time></trkpt><trkpt lat="45.09942773973576" lon="7.8444381078861865"><ele>404.33333333333337</ele><time>2026-04-19T12:04:12Z</time></trkpt><trkpt lat="45.099512478046755" lon="7.844483294202381"><ele>400.5</ele><time>2026-04-19T12:04:13Z</time></trkpt><trkpt lat="45.09959519585519" lon="7.84453269233504"><ele>396.66666666666663</ele><time>2026-04-19T12:04:14Z</time></trkpt><trkpt lat="45.099673607906496" lon="7.844562967384235"><ele>392.8333333333333</ele><time>2026-04-19T12:04:15Z</time></trkpt><trkpt lat="45.099743314072505" lon="7.844584113480576"><ele>389.0</ele><time>2026-04-19T12:04:16Z</time></trkpt><trkpt lat="45.09985218616878" lon="7.844625851867369"><ele>389.3333333333333</ele><time>2026-04-19T12:04:18Z</time></trkpt><trkpt lat="45.099922100356515" lon="7.844675412941815"><ele>389.66666666666663</ele><time>2026-04-19T12:04:20Z</time></trkpt><trkpt lat="45.09998670183638" lon="7.8447621020013685"><ele>390.0</ele><time>2026-04-19T12:04:22Z</time></trkpt><trkpt lat="45.10002561567369" lon="7.844871092137101"><ele>390.33333333333337</ele><time>2026-04-19T12:04:24Z</time></trkpt><trkpt lat="45.100049144619" lon="7.8449890774783055"><ele>390.6666666666667</ele><time>2026-04-19T12:04:26Z</time></trkpt><trkpt lat="45.10007538887449" lon="7.845081175859207"><ele>391.0</ele><time>2026-04-19T12:04:28Z</time></trkpt><trkpt lat="45.10010553636096" lon="7.845179367978124"><ele>391.1666666666667</ele><time>2026-04-19T12:04:30Z</time></trkpt><trkpt lat="45.10013095343774" lon="7.845272651748066"><ele>391.33333333333337</ele><time>2026-04-19T12:04:32Z</time></trkpt><trkpt lat="45.10015984101741" lon="7.845369018220992"><ele>391.5</ele><time>2026-04-19T12:04:34Z</time></trkpt><trkpt lat="45.10017583609645" lon="7.845462807773838"><ele>391.66666666666663</ele><time>2026-04-19T12:04:36Z</time></trkpt><trkpt lat="45.1002013009036" lon="7.84558106727295"><ele>391.8333333333333</ele><time>2026-04-19T12:04:39Z</time></trkpt><trkpt lat="45.10022860720545" lon="7.845696615386092"><ele>392.0</ele><time>2026-04-19T12:04:42Z</time></trkpt><trkpt lat="45.10025106090511" lon="7.845814279856076"><ele>391.99999999999994</ele><time>2026-04-19T12:04:44.999Z</time></trkpt><trkpt lat="45.10025180484103" lon="7.8459434001508335"><ele>392.0</ele><time>2026-04-19T12:04:47.999Z</time></trkpt><trkpt lat="45.100270481861656" lon="7.846032550552449"><ele>392.0</ele><time>2026-04-19T12:04:49.999Z</time></trkpt><trkpt lat="45.100262659363395" lon="7.846146127512054"><ele>392.0</ele><time>2026-04-19T12:04:51.999Z</time></trkpt><trkpt lat="45.100254427393175" lon="7.846272385160323"><ele>391.99999999999994</ele><time>2026-04-19T12:04:53.999Z</time></trkpt><trkpt lat="45.100250977334966" lon="7.846416700313414"><ele>392.0</ele><time>2026-04-19T12:04:55.999Z</time></trkpt><trkpt lat="45.10023401799129" lon="7.84658548129536"><ele>392.6</ele><time>2026-04-19T12:04:57.999Z</time></trkpt><trkpt lat="45.100208126383656" lon="7.8466767817083065"><ele>393.20000000000005</ele><time>2026-04-19T12:04:58.999Z</time></trkpt><trkpt lat="45.100204376174034" lon="7.846769119367317"><ele>393.8</ele><time>2026-04-19T12:04:59.999Z</time></trkpt><trkpt lat="45.100185822029985" lon="7.846938400791109"><ele>394.4</ele><time>2026-04-19T12:05:01.999Z</time></trkpt><trkpt lat="45.10015130974146" lon="7.847121034798021"><ele>395.0</ele><time>2026-04-19T12:05:03.999Z</time></trkpt><trkpt lat="45.10008928417736" lon="7.847253076907348"><ele>394.99999999999994</ele><time>2026-04-19T12:05:05.999Z</time></trkpt><trkpt lat="45.100023636955726" lon="7.847429142848579"><ele>395.0</ele><time>2026-04-19T12:05:07.999Z</time></trkpt><trkpt lat="45.09998717795107" lon="7.847510222375824"><ele>395.0</ele><time>2026-04-19T12:05:08.999Z</time></trkpt><trkpt lat="45.099961006513105" lon="7.847599269356409"><ele>395.0</ele><time>2026-04-19T12:05:09.999Z</time></trkpt><trkpt lat="45.099942688906914" lon="7.847700198267431"><ele>394.99999999999994</ele><time>2026-04-19T12:05:10.999Z</time></trkpt><trkpt lat="45.09992251445182" lon="7.847806074835818"><ele>395.0</ele><time>2026-04-19T12:05:11.999Z</time></trkpt><trkpt lat="45.09990207917559" lon="7.847908090297973"><ele>395.66666666666663</ele><time>2026-04-19T12:05:12.999Z</time></trkpt><trkpt lat="45.09986749622" lon="7.848026341503229"><ele>396.3333333333333</ele><time>2026-04-19T12:05:13.999Z</time></trkpt><trkpt lat="45.09985487112099" lon="7.848138620187686"><ele>397.0</ele><time>2026-04-19T12:05:14.999Z</time></trkpt><trkpt lat="45.099851493100275" lon="7.848258556664255"><ele>397.66666666666663</ele><time>2026-04-19T12:05:15.999Z</time></trkpt><trkpt lat="45.09987068971705" lon="7.848352503730496"><ele>398.3333333333333</ele><time>2026-04-19T12:05:16.999Z</time></trkpt><trkpt lat="45.09986624033105" lon="7.848480130329119"><ele>399.0</ele><time>2026-04-19T12:05:17.999Z</time></trkpt><trkpt lat="45.09987153762247" lon="7.848603688630975"><ele>396.4</ele><time>2026-04-19T12:05:18.999Z</time></trkpt><trkpt lat="45.09989301166206" lon="7.8487265395212535"><ele>393.79999999999995</ele><time>2026-04-19T12:05:19.999Z</time></trkpt><trkpt lat="45.09990379104514" lon="7.848853724633914"><ele>391.20000000000005</ele><time>2026-04-19T12:05:20.999Z</time></trkpt><trkpt lat="45.09991241578316" lon="7.84899041461977"><ele>388.6</ele><time>2026-04-19T12:05:21.999Z</time></trkpt><trkpt lat="45.0999271888606" lon="7.849128284348558"><ele>386.0</ele><time>2026-04-19T12:05:22.999Z</time></trkpt><trkpt lat="45.099931399808604" lon="7.849264617327264"><ele>385.4</ele><time>2026-04-19T12:05:23.999Z</time></trkpt><trkpt lat="45.09993307424078" lon="7.84940518822985"><ele>384.8</ele><time>2026-04-19T12:05:24.999Z</time></trkpt><trkpt lat="45.099942148563706" lon="7.849550300102874"><ele>384.2</ele><time>2026-04-19T12:05:25.999Z</time></trkpt><trkpt lat="45.09995436037763" lon="7.849692959622805"><ele>383.59999999999997</ele><time>2026-04-19T12:05:26.999Z</time></trkpt><trkpt lat="45.09995442043493" lon="7.849822759344661"><ele>383.0</ele><time>2026-04-19T12:05:27.999Z</time></trkpt><trkpt lat="45.09995445001569" lon="7.8499672418963815"><ele>383.0</ele><time>2026-04-19T12:05:28.999Z</time></trkpt><trkpt lat="45.09995903327924" lon="7.850092671999302"><ele>383.0</ele><time>2026-04-19T12:05:29.999Z</time></trkpt><trkpt lat="45.09997290434604" lon="7.85023057680892"><ele>383.0</ele><time>2026-04-19T12:05:30.999Z</time></trkpt><trkpt lat="45.09995991720455" lon="7.850359933303252"><ele>383.0</ele><time>2026-04-19T12:05:31.999Z</time></trkpt><trkpt lat="45.09995974349576" lon="7.850508362816574"><ele>383.0</ele><time>2026-04-19T12:05:32.999Z</time></trkpt><trkpt lat="45.09994385503656" lon="7.850643937925364"><ele>382.6666666666667</ele><time>2026-04-19T12:05:33.999Z</time></trkpt><trkpt lat="45.09990868312165" lon="7.850772391736759"><ele>382.33333333333337</ele><time>2026-04-19T12:05:34.999Z</time></trkpt><trkpt lat="45.099873443374996" lon="7.850885338685976"><ele>382.0</ele><time>2026-04-19T12:05:35.999Z</time></trkpt><trkpt lat="45.09984819414802" lon="7.850992096678383"><ele>381.6666666666667</ele><time>2026-04-19T12:05:36.999Z</time></trkpt><trkpt lat="45.09982546295151" lon="7.851092708599054"><ele>381.3333333333333</ele><time>2026-04-19T12:05:37.999Z</time></trkpt><trkpt lat="45.099815016553016" lon="7.85118613476617"><ele>381.0</ele><time>2026-04-19T12:05:38.999Z</time></trkpt><trkpt lat="45.09978606828104" lon="7.851353555648997"><ele>382.1428571428571</ele><time>2026-04-19T12:05:40.999Z</time></trkpt><trkpt lat="45.09976808747854" lon="7.8514688749238895"><ele>383.28571428571433</ele><time>2026-04-19T12:05:42.999Z</time></trkpt><trkpt lat="45.09974144579822" lon="7.851551776884782"><ele>384.42857142857144</ele><time>2026-04-19T12:05:44.999Z</time></trkpt><trkpt lat="45.099727906485775" lon="7.851664032433542"><ele>385.57142857142856</ele><time>2026-04-19T12:05:47.999Z</time></trkpt><trkpt lat="45.09971202981517" lon="7.851769082900246"><ele>386.71428571428567</ele><time>2026-04-19T12:05:51.999Z</time></trkpt><trkpt lat="45.099680496265904" lon="7.851850506134777"><ele>387.8571428571429</ele><time>2026-04-19T12:05:54.999Z</time></trkpt><trkpt lat="45.099651109304396" lon="7.851936805721709"><ele>389.0</ele><time>2026-04-19T12:05:57.999Z</time></trkpt><trkpt lat="45.09962969240623" lon="7.8520374446761645"><ele>389.8333333333333</ele><time>2026-04-19T12:06:00.999Z</time></trkpt><trkpt lat="45.099599958752066" lon="7.852134981338839"><ele>390.66666666666663</ele><time>2026-04-19T12:06:03.999Z</time></trkpt><trkpt lat="45.09957585050896" lon="7.852234140381466"><ele>391.5</ele><time>2026-04-19T12:06:06.999Z</time></trkpt><trkpt lat="45.09955054215428" lon="7.852345904235545"><ele>392.33333333333337</ele><time>2026-04-19T12:06:09.999Z</time></trkpt><trkpt lat="45.09952394917852" lon="7.852444605327829"><ele>393.1666666666667</ele><time>2026-04-19T12:06:12.999Z</time></trkpt><trkpt lat="45.09950725886202" lon="7.852549241778381"><ele>394.0</ele><time>2026-04-19T12:06:16Z</time></trkpt><trkpt lat="45.09948233867597" lon="7.852650216293573"><ele>395.42857142857144</ele><time>2026-04-19T12:06:19Z</time></trkpt><trkpt lat="45.09946294166727" lon="7.852746132417773"><ele>396.8571428571429</ele><time>2026-04-19T12:06:22Z</time></trkpt><trkpt lat="45.09943211549489" lon="7.852840063518575"><ele>398.2857142857143</ele><time>2026-04-19T12:06:25Z</time></trkpt><trkpt lat="45.09939344044772" lon="7.852933489883163"><ele>399.7142857142857</ele><time>2026-04-19T12:06:28Z</time></trkpt><trkpt lat="45.09936383214705" lon="7.8530314017432135"><ele>401.1428571428571</ele><time>2026-04-19T12:06:31Z</time></trkpt><trkpt lat="45.09932839158894" lon="7.8531134422942"><ele>402.57142857142856</ele><time>2026-04-19T12:06:34Z</time></trkpt><trkpt lat="45.099281653340874" lon="7.853182985599918"><ele>404.0</ele><time>2026-04-19T12:06:37Z</time></trkpt><trkpt lat="45.09924467686726" lon="7.853267126523946"><ele>404.0</ele><time>2026-04-19T12:06:40Z</time></trkpt><trkpt lat="45.09921310513991" lon="7.853344991921492"><ele>404.0</ele><time>2026-04-19T12:06:43Z</time></trkpt><trkpt lat="45.0991615223128" lon="7.853424509652148"><ele>404.0</ele><time>2026-04-19T12:06:47Z</time></trkpt><trkpt lat="45.09911736540254" lon="7.853507728150209"><ele>404.0</ele><time>2026-04-19T12:06:51Z</time></trkpt><trkpt lat="45.09907013084532" lon="7.8535769685373005"><ele>404.0</ele><time>2026-04-19T12:06:55Z</time></trkpt><trkpt lat="45.099013840221794" lon="7.853618854840631"><ele>404.0</ele><time>2026-04-19T12:06:59Z</time></trkpt><trkpt lat="45.098945295412605" lon="7.853630983252765"><ele>404.0</ele><time>2026-04-19T12:07:04Z</time></trkpt><trkpt lat="45.09887424253782" lon="7.853630560069288"><ele>407.0</ele><time>2026-04-19T12:07:10Z</time></trkpt><trkpt lat="45.09881608671833" lon="7.853575631963822"><ele>410.0</ele><time>2026-04-19T12:07:14.999Z</time></trkpt><trkpt lat="45.098762041781725" lon="7.853502159856805"><ele>413.0</ele><time>2026-04-19T12:07:19.999Z</time></trkpt><trkpt lat="45.098742851866426" lon="7.853411544155615"><ele>416.0</ele><time>2026-04-19T12:07:22.999Z</time></trkpt><trkpt lat="45.09871905736326" lon="7.853325687118834"><ele>419.0</ele><time>2026-04-19T12:07:25.999Z</time></trkpt><trkpt lat="45.098696271477905" lon="7.853216874498373"><ele>422.0</ele><time>2026-04-19T12:07:29.999Z</time></trkpt><trkpt lat="45.09867756591285" lon="7.853120738504736"><ele>425.0</ele><time>2026-04-19T12:07:32.999Z</time></trkpt><trkpt lat="45.09864646204933" lon="7.853014097358116"><ele>425.0</ele><time>2026-04-19T12:07:36.999Z</time></trkpt><trkpt lat="45.098591807991866" lon="7.852947485842368"><ele>425.0</ele><time>2026-04-19T12:07:40.999Z</time></trkpt><trkpt lat="45.09852748507199" lon="7.852901494777714"><ele>425.0</ele><time>2026-04-19T12:07:44.999Z</time></trkpt><trkpt lat="45.098458920282056" lon="7.852861532170706"><ele>425.0</ele><time>2026-04-19T12:07:49.999Z</time></trkpt><trkpt lat="45.09840100446546" lon="7.85281255445601"><ele>425.0</ele><time>2026-04-19T12:07:54.999Z</time></trkpt><trkpt lat="45.0983789326845" lon="7.8527223580870755"><ele>425.0</ele><time>2026-04-19T12:07:58.999Z</time></trkpt><trkpt lat="45.09836375716449" lon="7.852621720022593"><ele>425.0</ele><time>2026-04-19T12:08:03.999Z</time></trkpt><trkpt lat="45.09836843793723" lon="7.852521473825556"><ele>424.2857142857143</ele><time>2026-04-19T12:08:07.999Z</time></trkpt><trkpt lat="45.098372521399156" lon="7.852424144284226"><ele>423.57142857142856</ele><time>2026-04-19T12:08:11.999Z</time></trkpt><trkpt lat="45.09837699355673" lon="7.85233277334381"><ele>422.8571428571429</ele><time>2026-04-19T12:08:15.999Z</time></trkpt><trkpt lat="45.09838312647767" lon="7.852238254652941"><ele>422.1428571428571</ele><time>2026-04-19T12:08:20Z</time></trkpt><trkpt lat="45.09838137206799" lon="7.852133266724992"><ele>421.42857142857144</ele><time>2026-04-19T12:08:25Z</time></trkpt><trkpt lat="45.09837740742308" lon="7.852028076771368"><ele>420.7142857142857</ele><time>2026-04-19T12:08:30Z</time></trkpt><trkpt lat="45.09834791535966" lon="7.8519296373022565"><ele>420.0</ele><time>2026-04-19T12:08:35Z</time></trkpt><trkpt lat="45.09827850965109" lon="7.851919862554931"><ele>422.57142857142856</ele><time>2026-04-19T12:08:40Z</time></trkpt><trkpt lat="45.09821422302176" lon="7.851955667018803"><ele>425.1428571428571</ele><time>2026-04-19T12:08:45Z</time></trkpt><trkpt lat="45.09815679437561" lon="7.8519942354118175"><ele>427.7142857142857</ele><time>2026-04-19T12:08:50Z</time></trkpt><trkpt lat="45.098095079210104" lon="7.852053385468679"><ele>430.2857142857143</ele><time>2026-04-19T12:08:56Z</time></trkpt><trkpt lat="45.09803336948685" lon="7.8520981494592474"><ele>432.85714285714283</ele><time>2026-04-19T12:09:02Z</time></trkpt><trkpt lat="45.097977524295324" lon="7.85214679572897"><ele>435.42857142857144</ele><time>2026-04-19T12:09:09Z</time></trkpt><trkpt lat="45.09790701438501" lon="7.8521655801718255"><ele>438.0</ele><time>2026-04-19T12:09:14.999Z</time></trkpt><trkpt lat="45.09783502903175" lon="7.852180615424827"><ele>438.0</ele><time>2026-04-19T12:09:20.999Z</time></trkpt><trkpt lat="45.097769886941805" lon="7.852223530597743"><ele>438.0</ele><time>2026-04-19T12:09:26.999Z</time></trkpt><trkpt lat="45.097739641043" lon="7.852312778672415"><ele>438.0</ele><time>2026-04-19T12:09:33.999Z</time></trkpt><trkpt lat="45.09775203965766" lon="7.852412197241809"><ele>438.0</ele><time>2026-04-19T12:09:40.999Z</time></trkpt><trkpt lat="45.09780220714504" lon="7.852498375546292"><ele>438.0</ele><time>2026-04-19T12:09:46.999Z</time></trkpt><trkpt lat="45.09784695092162" lon="7.852564650780105"><ele>438.0</ele><time>2026-04-19T12:09:51.999Z</time></trkpt><trkpt lat="45.0978713096164" lon="7.852648950432486"><ele>438.0</ele><time>2026-04-19T12:09:56.999Z</time></trkpt><trkpt lat="45.09786746732175" lon="7.852753347716224"><ele>439.7142857142857</ele><time>2026-04-19T12:10:01.999Z</time></trkpt><trkpt lat="45.0978602056375" lon="7.8528490430404405"><ele>441.42857142857144</ele><time>2026-04-19T12:10:07.999Z</time></trkpt><trkpt lat="45.09788050630419" lon="7.852944716094609"><ele>443.14285714285717</ele><time>2026-04-19T12:10:12.999Z</time></trkpt><trkpt lat="45.09787327248362" lon="7.8530378995459"><ele>444.8571428571429</ele><time>2026-04-19T12:10:16.999Z</time></trkpt><trkpt lat="45.097922046952874" lon="7.853139655266302"><ele>446.57142857142856</ele><time>2026-04-19T12:10:19.999Z</time></trkpt><trkpt lat="45.09795476914592" lon="7.853222549520658"><ele>448.28571428571433</ele><time>2026-04-19T12:10:26Z</time></trkpt><trkpt lat="45.09800130424342" lon="7.853309259746967"><ele>450.00000000000006</ele><time>2026-04-19T12:10:32Z</time></trkpt><trkpt lat="45.09804670549755" lon="7.853377520285711"><ele>449.5714285714286</ele><time>2026-04-19T12:10:37Z</time></trkpt><trkpt lat="45.098080623611246" lon="7.853473172820474"><ele>449.14285714285717</ele><time>2026-04-19T12:10:42Z</time></trkpt><trkpt lat="45.09807506201117" lon="7.853565499589271"><ele>448.7142857142857</ele><time>2026-04-19T12:10:47Z</time></trkpt><trkpt lat="45.097998192877405" lon="7.853595374590918"><ele>448.28571428571433</ele><time>2026-04-19T12:10:52Z</time></trkpt><trkpt lat="45.09793301385851" lon="7.853608767131938"><ele>447.8571428571429</ele><time>2026-04-19T12:10:57Z</time></trkpt><trkpt lat="45.0978662609895" lon="7.853616572883247"><ele>447.4285714285714</ele><time>2026-04-19T12:11:03Z</time></trkpt><trkpt lat="45.09780917259736" lon="7.853655063532794"><ele>447.0</ele><time>2026-04-19T12:11:08Z</time></trkpt><trkpt lat="45.0977558084119" lon="7.853704024106926"><ele>446.99999999999994</ele><time>2026-04-19T12:11:14Z</time></trkpt><trkpt lat="45.09770474319048" lon="7.853758752511689"><ele>447.0</ele><time>2026-04-19T12:11:19Z</time></trkpt><trkpt lat="45.09766142526488" lon="7.853834937162907"><ele>447.0</ele><time>2026-04-19T12:11:23.999Z</time></trkpt><trkpt lat="45.09761995712927" lon="7.853923544432729"><ele>447.0</ele><time>2026-04-19T12:11:29.999Z</time></trkpt><trkpt lat="45.09758266944238" lon="7.853998569402387"><ele>447.0</ele><time>2026-04-19T12:11:34.999Z</time></trkpt><trkpt lat="45.097537407052364" lon="7.854061331095712"><ele>446.99999999999994</ele><time>2026-04-19T12:11:40.999Z</time></trkpt><trkpt lat="45.097503106917465" lon="7.854140143397245"><ele>447.0</ele><time>2026-04-19T12:11:46.999Z</time></trkpt><trkpt lat="45.09748489441498" lon="7.854227934123356"><ele>446.99999999999994</ele><time>2026-04-19T12:11:51.999Z</time></trkpt><trkpt lat="45.09745595614468" lon="7.854321046698838"><ele>447.0</ele><time>2026-04-19T12:11:57.999Z</time></trkpt><trkpt lat="45.09745950772015" lon="7.854414579953001"><ele>447.0</ele><time>2026-04-19T12:12:03.999Z</time></trkpt><trkpt lat="45.097446770506764" lon="7.854506371254498"><ele>447.0</ele><time>2026-04-19T12:12:08.999Z</time></trkpt><trkpt lat="45.097448246335375" lon="7.8546057164431975"><ele>447.0</ele><time>2026-04-19T12:12:13.999Z</time></trkpt><trkpt lat="45.09745796799114" lon="7.854709427643003"><ele>446.99999999999994</ele><time>2026-04-19T12:12:19.999Z</time></trkpt><trkpt lat="45.09747240392023" lon="7.854800182703814"><ele>447.0</ele><time>2026-04-19T12:12:24.999Z</time></trkpt><trkpt lat="45.09748485713607" lon="7.854891381264035"><ele>446.99999999999994</ele><time>2026-04-19T12:12:29.999Z</time></trkpt><trkpt lat="45.09751860717862" lon="7.85496787295329"><ele>447.0</ele><time>2026-04-19T12:12:35Z</time></trkpt><trkpt lat="45.09754685703471" lon="7.855057065052272"><ele>447.0</ele><time>2026-04-19T12:12:41Z</time></trkpt><trkpt lat="45.09758130618071" lon="7.855143653145727"><ele>447.0</ele><time>2026-04-19T12:12:47Z</time></trkpt><trkpt lat="45.09762676184902" lon="7.855215531039112"><ele>447.0</ele><time>2026-04-19T12:12:52Z</time></trkpt><trkpt lat="45.09768432577092" lon="7.855255732669634"><ele>446.99999999999994</ele><time>2026-04-19T12:12:56Z</time></trkpt><trkpt lat="45.09773458223125" lon="7.855318249133296"><ele>447.0</ele><time>2026-04-19T12:13:01Z</time></trkpt><trkpt lat="45.09777362336805" lon="7.855407612608041"><ele>447.85714285714283</ele><time>2026-04-19T12:13:06Z</time></trkpt><trkpt lat="45.09782137120373" lon="7.855487507256467"><ele>448.71428571428567</ele><time>2026-04-19T12:13:11Z</time></trkpt><trkpt lat="45.09784486818946" lon="7.855583337283811"><ele>449.57142857142856</ele><time>2026-04-19T12:13:16Z</time></trkpt><trkpt lat="45.09783977027671" lon="7.855694260768324"><ele>450.4285714285714</ele><time>2026-04-19T12:13:22Z</time></trkpt><trkpt lat="45.09783549424522" lon="7.855795796390255"><ele>451.2857142857143</ele><time>2026-04-19T12:13:27Z</time></trkpt><trkpt lat="45.0978199147024" lon="7.85590429140522"><ele>452.14285714285705</ele><time>2026-04-19T12:13:32Z</time></trkpt><trkpt lat="45.097826701789295" lon="7.856010350450958"><ele>452.99999999999994</ele><time>2026-04-19T12:13:36.999Z</time></trkpt><trkpt lat="45.09782759559238" lon="7.856108399314491"><ele>452.99999999999994</ele><time>2026-04-19T12:13:41.999Z</time></trkpt><trkpt lat="45.09782619550125" lon="7.856211650854904"><ele>453.0</ele><time>2026-04-19T12:13:46.999Z</time></trkpt><trkpt lat="45.09783096706875" lon="7.8563076552423405"><ele>452.99999999999994</ele><time>2026-04-19T12:13:50.999Z</time></trkpt><trkpt lat="45.09783604973758" lon="7.856412825575961"><ele>452.99999999999994</ele><time>2026-04-19T12:13:54.999Z</time></trkpt><trkpt lat="45.097849453420395" lon="7.856516164946236"><ele>453.0</ele><time>2026-04-19T12:13:58.999Z</time></trkpt><trkpt lat="45.0978796776352" lon="7.856622477030559"><ele>452.99999999999994</ele><time>2026-04-19T12:14:02.999Z</time></trkpt><trkpt lat="45.097901104204915" lon="7.856709597818238"><ele>452.99999999999994</ele><time>2026-04-19T12:14:05.999Z</time></trkpt><trkpt lat="45.09792046410253" lon="7.856823030599896"><ele>452.5714285714285</ele><time>2026-04-19T12:14:09.999Z</time></trkpt><trkpt lat="45.097941837358356" lon="7.856938822410515"><ele>452.1428571428571</ele><time>2026-04-19T12:14:13.999Z</time></trkpt><trkpt lat="45.09795795217336" lon="7.857028282452891"><ele>451.7142857142857</ele><time>2026-04-19T12:14:16.999Z</time></trkpt><trkpt lat="45.097974065737496" lon="7.857122662912565"><ele>451.2857142857143</ele><time>2026-04-19T12:14:19.999Z</time></trkpt><trkpt lat="45.09800600349908" lon="7.857217602807109"><ele>450.8571428571429</ele><time>2026-04-19T12:14:22.999Z</time></trkpt><trkpt lat="45.09803339220597" lon="7.85730894585945"><ele>450.4285714285715</ele><time>2026-04-19T12:14:25.999Z</time></trkpt><trkpt lat="45.09806415966989" lon="7.857401806006875"><ele>450.00000000000006</ele><time>2026-04-19T12:14:28.999Z</time></trkpt><trkpt lat="45.09810260819291" lon="7.85749599344679"><ele>450.00000000000006</ele><time>2026-04-19T12:14:31.999Z</time></trkpt><trkpt lat="45.09813321474039" lon="7.857590924350429"><ele>450.0</ele><time>2026-04-19T12:14:34.999Z</time></trkpt><trkpt lat="45.098182973416264" lon="7.85768028779484"><ele>450.00000000000006</ele><time>2026-04-19T12:14:38Z</time></trkpt><trkpt lat="45.098210830321904" lon="7.857776032944527"><ele>450.00000000000006</ele><time>2026-04-19T12:14:41Z</time></trkpt><trkpt lat="45.09822077692985" lon="7.857872715653265"><ele>450.0</ele><time>2026-04-19T12:14:44Z</time></trkpt><trkpt lat="45.09822748011615" lon="7.857966061630715"><ele>450.00000000000006</ele><time>2026-04-19T12:14:47Z</time></trkpt><trkpt lat="45.09820787808698" lon="7.858069517626205"><ele>450.00000000000006</ele><time>2026-04-19T12:14:50Z</time></trkpt><trkpt lat="45.09817736806972" lon="7.858198688154453"><ele>450.0</ele><time>2026-04-19T12:14:53Z</time></trkpt><trkpt lat="45.0981578326153" lon="7.858310808963536"><ele>450.0</ele><time>2026-04-19T12:14:55Z</time></trkpt><trkpt lat="45.09812905303949" lon="7.858417833689912"><ele>450.0</ele><time>2026-04-19T12:14:57Z</time></trkpt><trkpt lat="45.09811206313148" lon="7.858524387176308"><ele>450.0</ele><time>2026-04-19T12:14:59Z</time></trkpt><trkpt lat="45.09810012627666" lon="7.858630460150286"><ele>450.0</ele><time>2026-04-19T12:15:01Z</time></trkpt><trkpt lat="45.0980870302155" lon="7.858731703030434"><ele>450.0</ele><time>2026-04-19T12:15:03Z</time></trkpt><trkpt lat="45.09806553319671" lon="7.8588438720992135"><ele>449.3333333333333</ele><time>2026-04-19T12:15:05Z</time></trkpt><trkpt lat="45.098048823815624" lon="7.858982068526526"><ele>448.66666666666663</ele><time>2026-04-19T12:15:07Z</time></trkpt><trkpt lat="45.098051454711346" lon="7.859104306555948"><ele>448.0</ele><time>2026-04-19T12:15:09Z</time></trkpt><trkpt lat="45.098043343853774" lon="7.859203412370552"><ele>447.3333333333333</ele><time>2026-04-19T12:15:10Z</time></trkpt><trkpt lat="45.098029142237" lon="7.859296571973027"><ele>446.66666666666663</ele><time>2026-04-19T12:15:11Z</time></trkpt><trkpt lat="45.098005294542" lon="7.859388054635902"><ele>446.0</ele><time>2026-04-19T12:15:12Z</time></trkpt><trkpt lat="45.0979907104436" lon="7.859480566550358"><ele>445.85714285714283</ele><time>2026-04-19T12:15:13Z</time></trkpt><trkpt lat="45.09798697855692" lon="7.859576067747902"><ele>445.71428571428567</ele><time>2026-04-19T12:15:14Z</time></trkpt><trkpt lat="45.09798627885966" lon="7.859676923997056"><ele>445.57142857142856</ele><time>2026-04-19T12:15:15Z</time></trkpt><trkpt lat="45.09798383220915" lon="7.8597805360625905"><ele>445.42857142857144</ele><time>2026-04-19T12:15:16Z</time></trkpt><trkpt lat="45.09797782764588" lon="7.859886127153524"><ele>445.2857142857143</ele><time>2026-04-19T12:15:17Z</time></trkpt><trkpt lat="45.097965739226744" lon="7.859996503394251"><ele>445.14285714285717</ele><time>2026-04-19T12:15:18Z</time></trkpt><trkpt lat="45.09796355650147" lon="7.860112664534218"><ele>445.0</ele><time>2026-04-19T12:15:19Z</time></trkpt><trkpt lat="45.097961886479546" lon="7.860224564714361"><ele>445.00000000000006</ele><time>2026-04-19T12:15:20Z</time></trkpt><trkpt lat="45.09794627596372" lon="7.860333212795812"><ele>445.0</ele><time>2026-04-19T12:15:21Z</time></trkpt><trkpt lat="45.09792198151527" lon="7.8604498575824495"><ele>445.0</ele><time>2026-04-19T12:15:22Z</time></trkpt><trkpt lat="45.09791770785723" lon="7.860554472434425"><ele>445.0</ele><time>2026-04-19T12:15:23Z</time></trkpt><trkpt lat="45.0978843363866" lon="7.860661347545926"><ele>445.00000000000006</ele><time>2026-04-19T12:15:24Z</time></trkpt><trkpt lat="45.097853216246186" lon="7.860764562093202"><ele>445.0</ele><time>2026-04-19T12:15:25Z</time></trkpt><trkpt lat="45.09781199825057" lon="7.860863640432084"><ele>444.6666666666667</ele><time>2026-04-19T12:15:26Z</time></trkpt><trkpt lat="45.09777523083049" lon="7.86096699947189"><ele>444.33333333333337</ele><time>2026-04-19T12:15:27Z</time></trkpt><trkpt lat="45.09773313359809" lon="7.861072244578229"><ele>444.0</ele><time>2026-04-19T12:15:28Z</time></trkpt><trkpt lat="45.09768872911499" lon="7.861174682174635"><ele>443.66666666666663</ele><time>2026-04-19T12:15:29Z</time></trkpt><trkpt lat="45.09765168720572" lon="7.8612756942248225"><ele>443.3333333333333</ele><time>2026-04-19T12:15:30Z</time></trkpt><trkpt lat="45.09762146209685" lon="7.861380771831996"><ele>443.0</ele><time>2026-04-19T12:15:31Z</time></trkpt><trkpt lat="45.097592712061484" lon="7.861492058940896"><ele>442.99999999999994</ele><time>2026-04-19T12:15:32Z</time></trkpt><trkpt lat="45.09755978909184" lon="7.861602713635603"><ele>443.0</ele><time>2026-04-19T12:15:33Z</time></trkpt><trkpt lat="45.09752427995121" lon="7.861716977015023"><ele>443.0</ele><time>2026-04-19T12:15:34Z</time></trkpt><trkpt lat="45.097492845311066" lon="7.8618311231738645"><ele>443.0</ele><time>2026-04-19T12:15:35Z</time></trkpt><trkpt lat="45.09747089908177" lon="7.861950890317553"><ele>442.99999999999994</ele><time>2026-04-19T12:15:36Z</time></trkpt><trkpt lat="45.09746850086411" lon="7.862063379666917"><ele>443.0</ele><time>2026-04-19T12:15:37Z</time></trkpt><trkpt lat="45.09745897602281" lon="7.862178505622229"><ele>443.3333333333333</ele><time>2026-04-19T12:15:38Z</time></trkpt><trkpt lat="45.097456514991585" lon="7.862278748022494"><ele>443.66666666666663</ele><time>2026-04-19T12:15:39Z</time></trkpt><trkpt lat="45.09744754529457" lon="7.862379180990343"><ele>444.0</ele><time>2026-04-19T12:15:40Z</time></trkpt><trkpt lat="45.097442711285076" lon="7.8624707085981305"><ele>444.33333333333337</ele><time>2026-04-19T12:15:41Z</time></trkpt><trkpt lat="45.097426568954084" lon="7.862633452757341"><ele>444.6666666666667</ele><time>2026-04-19T12:15:43Z</time></trkpt><trkpt lat="45.09739643139228" lon="7.862763531276906"><ele>445.0</ele><time>2026-04-19T12:15:45Z</time></trkpt><trkpt lat="45.0973802882534" lon="7.862873550111427"><ele>446.7142857142857</ele><time>2026-04-19T12:15:48Z</time></trkpt><trkpt lat="45.0973685906425" lon="7.862974632810897"><ele>448.42857142857144</ele><time>2026-04-19T12:15:51Z</time></trkpt><trkpt lat="45.097365594167094" lon="7.863069520918062"><ele>450.14285714285717</ele><time>2026-04-19T12:15:55.999Z</time></trkpt><trkpt lat="45.097346297758286" lon="7.863164903520569"><ele>451.8571428571429</ele><time>2026-04-19T12:15:59.999Z</time></trkpt><trkpt lat="45.09730714707703" lon="7.8632589243337785"><ele>453.57142857142856</ele><time>2026-04-19T12:16:04.999Z</time></trkpt><trkpt lat="45.097256058771414" lon="7.8633290089655565"><ele>455.28571428571433</ele><time>2026-04-19T12:16:09.999Z</time></trkpt><trkpt lat="45.09721805524271" lon="7.863400827020634"><ele>457.00000000000006</ele><time>2026-04-19T12:16:13.999Z</time></trkpt><trkpt lat="45.09715489288267" lon="7.863469170702443"><ele>457.50000000000006</ele><time>2026-04-19T12:16:17.999Z</time></trkpt><trkpt lat="45.0970963433069" lon="7.863527008213477"><ele>458.0</ele><time>2026-04-19T12:16:20.999Z</time></trkpt><trkpt lat="45.09704520621836" lon="7.8635948055410605"><ele>458.5</ele><time>2026-04-19T12:16:23.999Z</time></trkpt><trkpt lat="45.096985273242176" lon="7.863680700423096"><ele>459.0</ele><time>2026-04-19T12:16:26.999Z</time></trkpt><trkpt lat="45.09693022416974" lon="7.86375268900462"><ele>459.50000000000006</ele><time>2026-04-19T12:16:29.999Z</time></trkpt><trkpt lat="45.096878668739556" lon="7.863842621728697"><ele>460.0</ele><time>2026-04-19T12:16:32.999Z</time></trkpt><trkpt lat="45.09681838555602" lon="7.8639259887351365"><ele>460.00000000000006</ele><time>2026-04-19T12:16:35.999Z</time></trkpt><trkpt lat="45.09676378005686" lon="7.864009370257027"><ele>460.0</ele><time>2026-04-19T12:16:38.999Z</time></trkpt><trkpt lat="45.096718836619644" lon="7.864094823766372"><ele>460.0</ele><time>2026-04-19T12:16:41.999Z</time></trkpt><trkpt lat="45.09668288927406" lon="7.864193663181321"><ele>460.0</ele><time>2026-04-19T12:16:45Z</time></trkpt><trkpt lat="45.09664763214494" lon="7.864287774000271"><ele>460.00000000000006</ele><time>2026-04-19T12:16:48Z</time></trkpt><trkpt lat="45.096632156496185" lon="7.864399380535255"><ele>460.0</ele><time>2026-04-19T12:16:52Z</time></trkpt><trkpt lat="45.09662523287205" lon="7.864489534925041"><ele>460.6666666666667</ele><time>2026-04-19T12:16:55Z</time></trkpt><trkpt lat="45.096613671832415" lon="7.864601306282902"><ele>461.33333333333337</ele><time>2026-04-19T12:16:58Z</time></trkpt><trkpt lat="45.096614875709754" lon="7.864720103106619"><ele>462.0</ele><time>2026-04-19T12:17:02Z</time></trkpt><trkpt lat="45.09661533276875" lon="7.864815087365625"><ele>462.66666666666663</ele><time>2026-04-19T12:17:05Z</time></trkpt><trkpt lat="45.09662095011459" lon="7.864932744146693"><ele>463.3333333333333</ele><time>2026-04-19T12:17:09Z</time></trkpt><trkpt lat="45.09662401646018" lon="7.865028381994247"><ele>464.0</ele><time>2026-04-19T12:17:12Z</time></trkpt><trkpt lat="45.096628907804046" lon="7.8651325313315645"><ele>465.28571428571433</ele><time>2026-04-19T12:17:16Z</time></trkpt><trkpt lat="45.0966582433604" lon="7.865237404200897"><ele>466.57142857142856</ele><time>2026-04-19T12:17:20Z</time></trkpt><trkpt lat="45.09667484167882" lon="7.865325681321224"><ele>467.8571428571429</ele><time>2026-04-19T12:17:23Z</time></trkpt><trkpt lat="45.09669084704581" lon="7.865416000120009"><ele>469.14285714285717</ele><time>2026-04-19T12:17:26Z</time></trkpt><trkpt lat="45.09671415173419" lon="7.865502489233849"><ele>470.42857142857144</ele><time>2026-04-19T12:17:29Z</time></trkpt><trkpt lat="45.09674787268025" lon="7.865596504567413"><ele>471.7142857142857</ele><time>2026-04-19T12:17:32Z</time></trkpt><trkpt lat="45.096772168243874" lon="7.865690647531904"><ele>473.0</ele><time>2026-04-19T12:17:35Z</time></trkpt><trkpt lat="45.096781369035575" lon="7.865789063178681"><ele>473.0</ele><time>2026-04-19T12:17:38Z</time></trkpt><trkpt lat="45.09678859558563" lon="7.865888006933734"><ele>473.0</ele><time>2026-04-19T12:17:41Z</time></trkpt><trkpt lat="45.09680383312781" lon="7.865998788272182"><ele>473.0</ele><time>2026-04-19T12:17:44Z</time></trkpt><trkpt lat="45.096806276107024" lon="7.866091029872261"><ele>473.0</ele><time>2026-04-19T12:17:46Z</time></trkpt><trkpt lat="45.096817243163606" lon="7.866184674031414"><ele>473.0</ele><time>2026-04-19T12:17:48Z</time></trkpt><trkpt lat="45.09682514093087" lon="7.866282681191077"><ele>473.0</ele><time>2026-04-19T12:17:50Z</time></trkpt><trkpt lat="45.09685053014904" lon="7.866384792381652"><ele>473.0</ele><time>2026-04-19T12:17:52Z</time></trkpt><trkpt lat="45.096853005951836" lon="7.866502496441424"><ele>471.99999999999994</ele><time>2026-04-19T12:17:54Z</time></trkpt><trkpt lat="45.096868067535205" lon="7.866618536680999"><ele>471.0</ele><time>2026-04-19T12:17:56Z</time></trkpt><trkpt lat="45.09686491835055" lon="7.866751236788757"><ele>470.0</ele><time>2026-04-19T12:17:58Z</time></trkpt><trkpt lat="45.09685933514416" lon="7.866917822990428"><ele>469.0</ele><time>2026-04-19T12:18:00Z</time></trkpt><trkpt lat="45.09683951439816" lon="7.867009852900831"><ele>467.99999999999994</ele><time>2026-04-19T12:18:00.999Z</time></trkpt><trkpt lat="45.09681028474522" lon="7.867116044200483"><ele>467.0</ele><time>2026-04-19T12:18:01.999Z</time></trkpt><trkpt lat="45.096756967240935" lon="7.867221786138595"><ele>465.0</ele><time>2026-04-19T12:18:02.999Z</time></trkpt><trkpt lat="45.09668301230041" lon="7.867320078596236"><ele>463.00000000000006</ele><time>2026-04-19T12:18:03.999Z</time></trkpt><trkpt lat="45.09661677558674" lon="7.867413550463155"><ele>461.00000000000006</ele><time>2026-04-19T12:18:04.999Z</time></trkpt><trkpt lat="45.09655829672721" lon="7.867500160568406"><ele>459.0</ele><time>2026-04-19T12:18:05.999Z</time></trkpt><trkpt lat="45.09651298349693" lon="7.8676182644393915"><ele>457.0</ele><time>2026-04-19T12:18:06.999Z</time></trkpt><trkpt lat="45.09649321115559" lon="7.867748064562159"><ele>455.20000000000005</ele><time>2026-04-19T12:18:07.999Z</time></trkpt><trkpt lat="45.09648633936304" lon="7.867877557937945"><ele>453.40000000000003</ele><time>2026-04-19T12:18:08.999Z</time></trkpt><trkpt lat="45.09648444854721" lon="7.868011128054193"><ele>451.59999999999997</ele><time>2026-04-19T12:18:09.999Z</time></trkpt><trkpt lat="45.09648243665789" lon="7.868139744209741"><ele>449.79999999999995</ele><time>2026-04-19T12:18:10.999Z</time></trkpt><trkpt lat="45.09646337320211" lon="7.868266053616663"><ele>448.0</ele><time>2026-04-19T12:18:11.999Z</time></trkpt><trkpt lat="45.09642981707786" lon="7.868387167482798"><ele>450.59999999999997</ele><time>2026-04-19T12:18:12.999Z</time></trkpt><trkpt lat="45.096399821316034" lon="7.868498763964843"><ele>453.19999999999993</ele><time>2026-04-19T12:18:13.999Z</time></trkpt><trkpt lat="45.09637083027596" lon="7.868583468699461"><ele>455.8</ele><time>2026-04-19T12:18:14.999Z</time></trkpt><trkpt lat="45.09632223043584" lon="7.868710014365129"><ele>458.4</ele><time>2026-04-19T12:18:16.999Z</time></trkpt><trkpt lat="45.09624412442738" lon="7.86871231776217"><ele>461.0</ele><time>2026-04-19T12:18:18.999Z</time></trkpt><trkpt lat="45.09618322394369" lon="7.8685617134020545"><ele>460.99999999999994</ele><time>2026-04-19T12:18:20.999Z</time></trkpt><trkpt lat="45.0961670257468" lon="7.868467994214629"><ele>461.0</ele><time>2026-04-19T12:18:21.999Z</time></trkpt><trkpt lat="45.09613151853872" lon="7.868374664722216"><ele>461.0</ele><time>2026-04-19T12:18:22.999Z</time></trkpt><trkpt lat="45.09608720627581" lon="7.8682754233139445"><ele>461.0</ele><time>2026-04-19T12:18:23.999Z</time></trkpt><trkpt lat="45.09603261199563" lon="7.868174222462546"><ele>460.99999999999994</ele><time>2026-04-19T12:18:24.999Z</time></trkpt><trkpt lat="45.095986927398165" lon="7.868097473632371"><ele>461.0</ele><time>2026-04-19T12:18:25.999Z</time></trkpt><trkpt lat="45.09591356963571" lon="7.867991143104865"><ele>458.4</ele><time>2026-04-19T12:18:26.999Z</time></trkpt><trkpt lat="45.09584723665184" lon="7.8678873614126585"><ele>455.8</ele><time>2026-04-19T12:18:27.999Z</time></trkpt><trkpt lat="45.09579500992384" lon="7.867789470008803"><ele>453.19999999999993</ele><time>2026-04-19T12:18:28.999Z</time></trkpt><trkpt lat="45.09573909445812" lon="7.867676947431538"><ele>450.59999999999997</ele><time>2026-04-19T12:18:29.999Z</time></trkpt><trkpt lat="45.095691022058375" lon="7.867567930170259"><ele>448.0</ele><time>2026-04-19T12:18:30.999Z</time></trkpt><trkpt lat="45.095644114605065" lon="7.867461858018968"><ele>445.00000000000006</ele><time>2026-04-19T12:18:31.999Z</time></trkpt><trkpt lat="45.09560183896914" lon="7.867353709061981"><ele>442.0</ele><time>2026-04-19T12:18:32.999Z</time></trkpt><trkpt lat="45.095561252910436" lon="7.867249070240477"><ele>439.0</ele><time>2026-04-19T12:18:33.999Z</time></trkpt><trkpt lat="45.09551086071325" lon="7.867140708817232"><ele>436.0</ele><time>2026-04-19T12:18:34.999Z</time></trkpt><trkpt lat="45.09547250936105" lon="7.867049635421995"><ele>433.00000000000006</ele><time>2026-04-19T12:18:35.999Z</time></trkpt><trkpt lat="45.09541736616919" lon="7.866929943814796"><ele>430.0</ele><time>2026-04-19T12:18:36.999Z</time></trkpt><trkpt lat="45.09537526992477" lon="7.86682510960657"><ele>431.1666666666667</ele><time>2026-04-19T12:18:37.999Z</time></trkpt><trkpt lat="45.095344533459915" lon="7.866726603118331"><ele>432.33333333333337</ele><time>2026-04-19T12:18:38.999Z</time></trkpt><trkpt lat="45.09530801422514" lon="7.866627095085759"><ele>433.5</ele><time>2026-04-19T12:18:39.999Z</time></trkpt><trkpt lat="45.09526807057607" lon="7.866531111428539"><ele>434.66666666666663</ele><time>2026-04-19T12:18:40.999Z</time></trkpt><trkpt lat="45.095234222945095" lon="7.8664291466368965"><ele>435.8333333333333</ele><time>2026-04-19T12:18:41.999Z</time></trkpt><trkpt lat="45.095203364196685" lon="7.866330357904503"><ele>437.0</ele><time>2026-04-19T12:18:42.999Z</time></trkpt><trkpt lat="45.09517191727939" lon="7.866226755101156"><ele>436.99999999999994</ele><time>2026-04-19T12:18:43.999Z</time></trkpt><trkpt lat="45.09514089981233" lon="7.866127608174831"><ele>437.0</ele><time>2026-04-19T12:18:44.999Z</time></trkpt><trkpt lat="45.09511051276052" lon="7.866020889677494"><ele>437.0</ele><time>2026-04-19T12:18:45.999Z</time></trkpt><trkpt lat="45.095081692248044" lon="7.865909886375443"><ele>437.0</ele><time>2026-04-19T12:18:46.999Z</time></trkpt><trkpt lat="45.09504374560718" lon="7.8657774777554"><ele>436.99999999999994</ele><time>2026-04-19T12:18:47.999Z</time></trkpt><trkpt lat="45.09501054587147" lon="7.865656261055744"><ele>437.0</ele><time>2026-04-19T12:18:48.999Z</time></trkpt><trkpt lat="45.09495658989469" lon="7.86552176379673"><ele>435.6</ele><time>2026-04-19T12:18:50Z</time></trkpt><trkpt lat="45.09490758675648" lon="7.865412185740998"><ele>434.20000000000005</ele><time>2026-04-19T12:18:51Z</time></trkpt><trkpt lat="45.094857540054036" lon="7.865318273631979"><ele>432.8</ele><time>2026-04-19T12:18:52Z</time></trkpt><trkpt lat="45.09478723482828" lon="7.865189638344817"><ele>431.4</ele><time>2026-04-19T12:18:54Z</time></trkpt><trkpt lat="45.09474058485493" lon="7.865046767313826"><ele>430.0</ele><time>2026-04-19T12:18:56Z</time></trkpt><trkpt lat="45.094721852270574" lon="7.8648902234791445"><ele>429.8</ele><time>2026-04-19T12:18:58Z</time></trkpt><trkpt lat="45.09472314930419" lon="7.864740056797574"><ele>429.6</ele><time>2026-04-19T12:19:00Z</time></trkpt><trkpt lat="45.09472591218747" lon="7.864594045169369"><ele>429.4</ele><time>2026-04-19T12:19:02Z</time></trkpt><trkpt lat="45.094723416517105" lon="7.864453953770544"><ele>429.2</ele><time>2026-04-19T12:19:04Z</time></trkpt><trkpt lat="45.09470471670762" lon="7.864311964503345"><ele>429.0</ele><time>2026-04-19T12:19:06Z</time></trkpt><trkpt lat="45.09465924050833" lon="7.864193760122894"><ele>429.0</ele><time>2026-04-19T12:19:08Z</time></trkpt><trkpt lat="45.09460509281877" lon="7.864091250034323"><ele>429.0</ele><time>2026-04-19T12:19:10Z</time></trkpt><trkpt lat="45.09454901009961" lon="7.86400589717639"><ele>429.0</ele><time>2026-04-19T12:19:12Z</time></trkpt><trkpt lat="45.094500082872955" lon="7.86392712106792"><ele>429.0</ele><time>2026-04-19T12:19:14Z</time></trkpt><trkpt lat="45.09444127606029" lon="7.863856576264932"><ele>429.0</ele><time>2026-04-19T12:19:16Z</time></trkpt><trkpt lat="45.094377657878866" lon="7.863788226603936"><ele>429.0</ele><time>2026-04-19T12:19:20Z</time></trkpt><trkpt lat="45.09433487816833" lon="7.86371396326062"><ele>429.0</ele><time>2026-04-19T12:19:23Z</time></trkpt><trkpt lat="45.094296510570615" lon="7.86363765801011"><ele>429.0</ele><time>2026-04-19T12:19:27Z</time></trkpt><trkpt lat="45.094261266234504" lon="7.863532587524609"><ele>429.0</ele><time>2026-04-19T12:19:31Z</time></trkpt><trkpt lat="45.09423898583396" lon="7.863436134372444"><ele>429.0</ele><time>2026-04-19T12:19:35Z</time></trkpt><trkpt lat="45.09421832337609" lon="7.863340863668053"><ele>429.0</ele><time>2026-04-19T12:19:39Z</time></trkpt><trkpt lat="45.094214830310904" lon="7.86323793174113"><ele>429.0</ele><time>2026-04-19T12:19:43Z</time></trkpt><trkpt lat="45.09420713746358" lon="7.863124301955608"><ele>429.0</ele><time>2026-04-19T12:19:47Z</time></trkpt><trkpt lat="45.09419412797646" lon="7.863031540488627"><ele>429.0</ele><time>2026-04-19T12:19:51Z</time></trkpt><trkpt lat="45.0941693291279" lon="7.862888051023759"><ele>429.0</ele><time>2026-04-19T12:19:56Z</time></trkpt><trkpt lat="45.0941340772851" lon="7.862802533210847"><ele>429.0</ele><time>2026-04-19T12:19:59Z</time></trkpt><trkpt lat="45.094110034940876" lon="7.862678777538828"><ele>429.0</ele><time>2026-04-19T12:20:02Z</time></trkpt><trkpt lat="45.094079622340914" lon="7.862573899422004"><ele>429.0</ele><time>2026-04-19T12:20:05Z</time></trkpt><trkpt lat="45.094062010034925" lon="7.8624867415662765"><ele>429.0</ele><time>2026-04-19T12:20:07Z</time></trkpt><trkpt lat="45.094039207307375" lon="7.862365532770635"><ele>429.0</ele><time>2026-04-19T12:20:10Z</time></trkpt><trkpt lat="45.094009915152085" lon="7.86224778552456"><ele>429.0</ele><time>2026-04-19T12:20:12.999Z</time></trkpt><trkpt lat="45.09399697484963" lon="7.862144934912675"><ele>429.0</ele><time>2026-04-19T12:20:15.999Z</time></trkpt><trkpt lat="45.09397143376204" lon="7.862045569516715"><ele>429.0</ele><time>2026-04-19T12:20:18.999Z</time></trkpt><trkpt lat="45.09397731936444" lon="7.861936562980276"><ele>429.0</ele><time>2026-04-19T12:20:21.999Z</time></trkpt><trkpt lat="45.09400616097507" lon="7.861822721298121"><ele>429.0</ele><time>2026-04-19T12:20:24.999Z</time></trkpt><trkpt lat="45.094029096178346" lon="7.861713291097221"><ele>431.5</ele><time>2026-04-19T12:20:26.999Z</time></trkpt><trkpt lat="45.094039166972884" lon="7.8615592796063645"><ele>434.0</ele><time>2026-04-19T12:20:28.999Z</time></trkpt><trkpt lat="45.09401821498078" lon="7.861473224935854"><ele>436.5</ele><time>2026-04-19T12:20:29.999Z</time></trkpt><trkpt lat="45.09399940677527" lon="7.861376292513831"><ele>439.0</ele><time>2026-04-19T12:20:30.999Z</time></trkpt><trkpt lat="45.093964614593794" lon="7.861264723120236"><ele>441.5</ele><time>2026-04-19T12:20:31.999Z</time></trkpt><trkpt lat="45.093928830486945" lon="7.861160316481004"><ele>444.0</ele><time>2026-04-19T12:20:32.999Z</time></trkpt><trkpt lat="45.09388717187685" lon="7.861039739929017"><ele>444.3333333333333</ele><time>2026-04-19T12:20:33.999Z</time></trkpt><trkpt lat="45.0938518063522" lon="7.860913999681286"><ele>444.66666666666663</ele><time>2026-04-19T12:20:34.999Z</time></trkpt><trkpt lat="45.09381444014192" lon="7.8607942498910965"><ele>445.0</ele><time>2026-04-19T12:20:35.999Z</time></trkpt><trkpt lat="45.093770612209305" lon="7.8606888506554355"><ele>445.3333333333333</ele><time>2026-04-19T12:20:36.999Z</time></trkpt><trkpt lat="45.09372460172809" lon="7.860586290369981"><ele>445.66666666666663</ele><time>2026-04-19T12:20:37.999Z</time></trkpt><trkpt lat="45.09366699384872" lon="7.86050266184535"><ele>446.0</ele><time>2026-04-19T12:20:38.999Z</time></trkpt><trkpt lat="45.09359682030592" lon="7.860425485581787"><ele>445.99999999999994</ele><time>2026-04-19T12:20:39.999Z</time></trkpt><trkpt lat="45.09351388784358" lon="7.860370247851542"><ele>446.0</ele><time>2026-04-19T12:20:40.999Z</time></trkpt><trkpt lat="45.09343288036027" lon="7.860325392344591"><ele>446.0</ele><time>2026-04-19T12:20:41.999Z</time></trkpt><trkpt lat="45.093350098114705" lon="7.860288991652612"><ele>446.0</ele><time>2026-04-19T12:20:42.999Z</time></trkpt><trkpt lat="45.09327875022841" lon="7.860247947396024"><ele>445.99999999999994</ele><time>2026-04-19T12:20:43.999Z</time></trkpt><trkpt lat="45.09321635399706" lon="7.860199112111032"><ele>446.0</ele><time>2026-04-19T12:20:44.999Z</time></trkpt><trkpt lat="45.09316570458498" lon="7.859979685021097"><ele>442.3333333333333</ele><time>2026-04-19T12:20:46.999Z</time></trkpt><trkpt lat="45.09314844881692" lon="7.8598499911232045"><ele>438.66666666666663</ele><time>2026-04-19T12:20:47.999Z</time></trkpt><trkpt lat="45.093124678441065" lon="7.85973037219183"><ele>435.0</ele><time>2026-04-19T12:20:48.999Z</time></trkpt><trkpt lat="45.09308961905405" lon="7.859620557675068"><ele>431.33333333333337</ele><time>2026-04-19T12:20:49.999Z</time></trkpt><trkpt lat="45.09305053189949" lon="7.859507521572372"><ele>427.6666666666667</ele><time>2026-04-19T12:20:50.999Z</time></trkpt><trkpt lat="45.09301003484832" lon="7.859399660527776"><ele>424.0</ele><time>2026-04-19T12:20:51.999Z</time></trkpt><trkpt lat="45.09296874309692" lon="7.859296489581178"><ele>423.50000000000006</ele><time>2026-04-19T12:20:52.999Z</time></trkpt><trkpt lat="45.09292531450649" lon="7.859187827294484"><ele>423.0</ele><time>2026-04-19T12:20:53.999Z</time></trkpt><trkpt lat="45.09287722126522" lon="7.859085568969538"><ele>422.5</ele><time>2026-04-19T12:20:54.999Z</time></trkpt><trkpt lat="45.09282464866247" lon="7.8589932989015185"><ele>422.0</ele><time>2026-04-19T12:20:56Z</time></trkpt><trkpt lat="45.09275955336189" lon="7.858919108089584"><ele>421.50000000000006</ele><time>2026-04-19T12:20:57Z</time></trkpt><trkpt lat="45.092684921455636" lon="7.8588513667891275"><ele>421.0</ele><time>2026-04-19T12:20:58Z</time></trkpt><trkpt lat="45.092609211762905" lon="7.8587892338637"><ele>421.00000000000006</ele><time>2026-04-19T12:20:59Z</time></trkpt><trkpt lat="45.09253164758692" lon="7.858734261990687"><ele>421.0</ele><time>2026-04-19T12:21:00Z</time></trkpt><trkpt lat="45.09245921261807" lon="7.858670050695974"><ele>421.0</ele><time>2026-04-19T12:21:01Z</time></trkpt><trkpt lat="45.09238865675563" lon="7.8586097539462845"><ele>421.0</ele><time>2026-04-19T12:21:02Z</time></trkpt><trkpt lat="45.09232219784017" lon="7.858552273151835"><ele>421.00000000000006</ele><time>2026-04-19T12:21:03Z</time></trkpt><trkpt lat="45.0922533988647" lon="7.858491844558333"><ele>421.0</ele><time>2026-04-19T12:21:04Z</time></trkpt><trkpt lat="45.09219528015887" lon="7.85840748462279"><ele>423.0</ele><time>2026-04-19T12:21:05Z</time></trkpt><trkpt lat="45.09213686290579" lon="7.858339228479518"><ele>423.0</ele><time>2026-04-19T12:21:06Z</time></trkpt><trkpt lat="45.092057587638244" lon="7.858263141969312"><ele>423.0</ele><time>2026-04-19T12:21:07Z</time></trkpt><trkpt lat="45.091988893653024" lon="7.858224448490389"><ele>423.0</ele><time>2026-04-19T12:21:09Z</time></trkpt><trkpt lat="45.09191825434332" lon="7.858173390822876"><ele>423.0</ele><time>2026-04-19T12:21:11Z</time></trkpt><trkpt lat="45.091854645572845" lon="7.8581513591611225"><ele>423.0</ele><time>2026-04-19T12:21:14Z</time></trkpt></trkseg></trk></gpx>